PWSweather.com
Personal Weather Stations
Station Observations
BOOMEPH
Weather On The Hill Or Not, Ephrata, PA 17522

Weather On The Hill Or NotEphrata, PA 17522

Lat: 40.17243, Lon: -76.180815

Elevation: 597

Station Type: Ambient WS 1080

Latest ConditionsUpdated 3:09:12 PM EDT Thursday, Oct 23, 2014
Currently Today's Max Today's Min Today's Average
Temperature 55.8°F13.2°C 55.8°F13.2°C 49.6°F9.8°C 52.1°F11.2°C
Dew Point 50.4°F10.2°C 50.9°F10.5°C 48.2°F9.0°C 49.5°F9.7°C
Winds 5.4 mph E8.7 kmh E 18.3 mph ENE29.5 kmh ENE - 8.3 mph 13.4 kmh
Wind Gusts 19.0 mph30.6 kmh 25.9 mph41.7 kmh - -
Humidity 82% 100% 81% 91%
Pressure 29.72 in1006.4 mb 29.77 in1008.1 mb 29.72 in1006.4 mb -
Precipitation - 0.02 in0.5 mm - -
Hour Temp Dew Point Humidity Winds Wind Gusts Pressure Precip Precip Rate Daily Precip Total
03:09 PM 55.8°F13.2°C 50.4°F10.2°C 82% 5.4 mph E8.7 kmh E 19.0 mph30.6 kmh 29.72 in1006.4 mb 0.00 in0.0 mm 0.00 in/hr0.0 mm/hr 0.02 in0.5 mm
03:08 PM 55.8°F13.2°C 50.4°F10.2°C 82% 6.0 mph E9.7 kmh E 19.0 mph30.6 kmh 29.72 in1006.4 mb 0.00 in0.0 mm 0.00 in/hr0.0 mm/hr 0.02 in0.5 mm
03:06 PM 55.8°F13.2°C 50.4°F10.2°C 82% 10.7 mph E17.2 kmh E 19.0 mph30.6 kmh 29.72 in1006.4 mb 0.00 in0.0 mm 0.00 in/hr0.0 mm/hr 0.02 in0.5 mm
03:05 PM 55.8°F13.2°C 50.4°F10.2°C 82% 9.2 mph E14.8 kmh E 19.0 mph30.6 kmh 29.72 in1006.4 mb 0.00 in0.0 mm 0.00 in/hr0.0 mm/hr 0.02 in0.5 mm
03:04 PM 55.8°F13.2°C 50.0°F10.0°C 81% 5.4 mph ENE8.7 kmh ENE 19.0 mph30.6 kmh 29.72 in1006.4 mb 0.00 in0.0 mm 0.00 in/hr0.0 mm/hr 0.02 in0.5 mm
03:03 PM 55.8°F13.2°C 50.4°F10.2°C 82% 11.4 mph ENE18.3 kmh ENE 19.0 mph30.6 kmh 29.72 in1006.4 mb 0.00 in0.0 mm 0.00 in/hr0.0 mm/hr 0.02 in0.5 mm
03:02 PM 55.8°F13.2°C 50.4°F10.2°C 82% 12.1 mph ENE19.5 kmh ENE 19.0 mph30.6 kmh 29.72 in1006.4 mb 0.00 in0.0 mm 0.00 in/hr0.0 mm/hr 0.02 in0.5 mm
03:01 PM 55.8°F13.2°C 50.4°F10.2°C 82% 9.2 mph E14.8 kmh E 19.0 mph30.6 kmh 29.72 in1006.4 mb 0.00 in0.0 mm 0.00 in/hr0.0 mm/hr 0.02 in0.5 mm
03:00 PM 55.6°F13.1°C 50.2°F10.1°C 82% 10.7 mph E17.2 kmh E 19.0 mph30.6 kmh 29.72 in1006.4 mb 0.00 in0.0 mm 0.00 in/hr0.0 mm/hr 0.02 in0.5 mm
02:59 PM 55.6°F13.1°C 50.2°F10.1°C 82% 13.0 mph ENE20.9 kmh ENE 19.0 mph30.6 kmh 29.72 in1006.4 mb 0.00 in0.0 mm 0.00 in/hr0.0 mm/hr 0.02 in0.5 mm
02:58 PM 55.8°F13.2°C 50.4°F10.2°C 82% 10.7 mph ENE17.2 kmh ENE 19.0 mph30.6 kmh 29.72 in1006.4 mb 0.00 in0.0 mm 0.00 in/hr0.0 mm/hr 0.02 in0.5 mm
02:57 PM 55.8°F13.2°C 50.4°F10.2°C 82% 6.9 mph ENE11.1 kmh ENE 19.0 mph30.6 kmh 29.72 in1006.4 mb 0.00 in0.0 mm 0.00 in/hr0.0 mm/hr 0.02 in0.5 mm
02:56 PM 55.6°F13.1°C 50.2°F10.1°C 82% 9.2 mph E14.8 kmh E 19.0 mph30.6 kmh 29.72 in1006.4 mb 0.00 in0.0 mm 0.00 in/hr0.0 mm/hr 0.02 in0.5 mm
02:55 PM 55.6°F13.1°C 49.9°F9.9°C 81% 3.1 mph E5.0 kmh E 19.0 mph30.6 kmh 29.72 in1006.4 mb 0.00 in0.0 mm 0.00 in/hr0.0 mm/hr 0.02 in0.5 mm
02:54 PM 55.6°F13.1°C 50.2°F10.1°C 82% 11.4 mph E18.3 kmh E 19.0 mph30.6 kmh 29.72 in1006.4 mb 0.00 in0.0 mm 0.00 in/hr0.0 mm/hr 0.02 in0.5 mm
02:53 PM 55.6°F13.1°C 50.2°F10.1°C 82% 9.8 mph E15.8 kmh E 19.0 mph30.6 kmh 29.72 in1006.4 mb 0.00 in0.0 mm 0.00 in/hr0.0 mm/hr 0.02 in0.5 mm
02:52 PM 55.6°F13.1°C 50.2°F10.1°C 82% 7.6 mph E12.2 kmh E 19.0 mph30.6 kmh 29.72 in1006.4 mb 0.00 in0.0 mm 0.00 in/hr0.0 mm/hr 0.02 in0.5 mm
02:51 PM 55.6°F13.1°C 50.2°F10.1°C 82% 8.3 mph E13.4 kmh E 19.0 mph30.6 kmh 29.72 in1006.4 mb 0.00 in0.0 mm 0.00 in/hr0.0 mm/hr 0.02 in0.5 mm
02:50 PM 55.6°F13.1°C 50.2°F10.1°C 82% 13.6 mph E21.9 kmh E 19.0 mph30.6 kmh 29.72 in1006.4 mb 0.00 in0.0 mm 0.00 in/hr0.0 mm/hr 0.02 in0.5 mm
02:49 PM 55.4°F13.0°C 50.0°F10.0°C 82% 10.7 mph E17.2 kmh E 19.0 mph30.6 kmh 29.72 in1006.4 mb 0.00 in0.0 mm 0.00 in/hr0.0 mm/hr 0.02 in0.5 mm
02:48 PM 55.4°F13.0°C 50.0°F10.0°C 82% 7.6 mph E12.2 kmh E 13.6 mph21.9 kmh 29.72 in1006.4 mb 0.00 in0.0 mm 0.00 in/hr0.0 mm/hr 0.02 in0.5 mm
02:47 PM 55.4°F13.0°C 50.3°F10.2°C 83% 7.6 mph E12.2 kmh E 13.6 mph21.9 kmh 29.72 in1006.4 mb 0.00 in0.0 mm 0.00 in/hr0.0 mm/hr 0.02 in0.5 mm
02:46 PM 55.4°F13.0°C 50.3°F10.2°C 83% 9.8 mph ENE15.8 kmh ENE 14.5 mph23.3 kmh 29.72 in1006.4 mb 0.00 in0.0 mm 0.00 in/hr0.0 mm/hr 0.02 in0.5 mm
02:45 PM 55.4°F13.0°C 50.3°F10.2°C 83% 6.0 mph ENE9.7 kmh ENE 14.5 mph23.3 kmh 29.72 in1006.4 mb 0.00 in0.0 mm 0.00 in/hr0.0 mm/hr 0.02 in0.5 mm
02:44 PM 55.4°F13.0°C 50.3°F10.2°C 83% 6.0 mph ENE9.7 kmh ENE 14.5 mph23.3 kmh 29.72 in1006.4 mb 0.00 in0.0 mm 0.00 in/hr0.0 mm/hr 0.02 in0.5 mm
02:43 PM 55.4°F13.0°C 50.3°F10.2°C 83% 7.6 mph ENE12.2 kmh ENE 14.5 mph23.3 kmh 29.72 in1006.4 mb 0.00 in0.0 mm 0.00 in/hr0.0 mm/hr 0.02 in0.5 mm
02:42 PM 55.4°F13.0°C 50.3°F10.2°C 83% 6.9 mph ENE11.1 kmh ENE 15.2 mph24.5 kmh 29.72 in1006.4 mb 0.00 in0.0 mm 0.00 in/hr0.0 mm/hr 0.02 in0.5 mm
02:41 PM 55.4°F13.0°C 50.3°F10.2°C 83% 7.6 mph ENE12.2 kmh ENE 15.2 mph24.5 kmh 29.72 in1006.4 mb 0.00 in0.0 mm 0.00 in/hr0.0 mm/hr 0.02 in0.5 mm
02:40 PM 55.4°F13.0°C 50.3°F10.2°C 83% 8.3 mph ENE13.4 kmh ENE 15.2 mph24.5 kmh 29.72 in1006.4 mb 0.00 in0.0 mm 0.00 in/hr0.0 mm/hr 0.02 in0.5 mm
02:39 PM 55.4°F13.0°C 50.3°F10.2°C 83% 5.4 mph ENE8.7 kmh ENE 15.2 mph24.5 kmh 29.72 in1006.4 mb 0.00 in0.0 mm 0.00 in/hr0.0 mm/hr 0.02 in0.5 mm
02:38 PM 55.2°F12.9°C 49.8°F9.9°C 82% 5.4 mph ENE8.7 kmh ENE 15.2 mph24.5 kmh 29.72 in1006.4 mb 0.00 in0.0 mm 0.00 in/hr0.0 mm/hr 0.02 in0.5 mm
02:37 PM 55.2°F12.9°C 49.8°F9.9°C 82% 7.6 mph ENE12.2 kmh ENE 15.2 mph24.5 kmh 29.72 in1006.4 mb 0.00 in0.0 mm 0.00 in/hr0.0 mm/hr 0.02 in0.5 mm
02:36 PM 55.2°F12.9°C 50.2°F10.1°C 83% 9.8 mph ENE15.8 kmh ENE 15.2 mph24.5 kmh 29.72 in1006.4 mb 0.00 in0.0 mm 0.00 in/hr0.0 mm/hr 0.02 in0.5 mm
02:35 PM 55.2°F12.9°C 50.2°F10.1°C 83% 6.0 mph ENE9.7 kmh ENE 15.2 mph24.5 kmh 29.72 in1006.4 mb 0.00 in0.0 mm 0.00 in/hr0.0 mm/hr 0.02 in0.5 mm
02:34 PM 55.2°F12.9°C 49.8°F9.9°C 82% 5.4 mph ENE8.7 kmh ENE 15.2 mph24.5 kmh 29.72 in1006.4 mb 0.00 in0.0 mm 0.00 in/hr0.0 mm/hr 0.02 in0.5 mm
02:33 PM 55.2°F12.9°C 50.2°F10.1°C 83% 8.3 mph ENE13.4 kmh ENE 15.2 mph24.5 kmh 29.73 in1006.8 mb 0.00 in0.0 mm 0.00 in/hr0.0 mm/hr 0.02 in0.5 mm
02:32 PM 55.0°F12.8°C 50.0°F10.0°C 83% 6.0 mph ENE9.7 kmh ENE 14.5 mph23.3 kmh 29.72 in1006.4 mb 0.00 in0.0 mm 0.00 in/hr0.0 mm/hr 0.02 in0.5 mm
02:31 PM 55.0°F12.8°C 50.0°F10.0°C 83% 6.0 mph ENE9.7 kmh ENE 14.5 mph23.3 kmh 29.73 in1006.8 mb 0.00 in0.0 mm 0.00 in/hr0.0 mm/hr 0.02 in0.5 mm
02:30 PM 55.0°F12.8°C 50.0°F10.0°C 83% 6.0 mph ENE9.7 kmh ENE 14.5 mph23.3 kmh 29.72 in1006.4 mb 0.00 in0.0 mm 0.00 in/hr0.0 mm/hr 0.02 in0.5 mm
02:29 PM 55.0°F12.8°C 50.0°F10.0°C 83% 3.8 mph NE6.1 kmh NE 14.5 mph23.3 kmh 29.72 in1006.4 mb 0.00 in0.0 mm 0.00 in/hr0.0 mm/hr 0.02 in0.5 mm
02:28 PM 55.0°F12.8°C 50.0°F10.0°C 83% 5.4 mph ENE8.7 kmh ENE 14.5 mph23.3 kmh 29.73 in1006.8 mb 0.00 in0.0 mm 0.00 in/hr0.0 mm/hr 0.02 in0.5 mm
02:27 PM 55.0°F12.8°C 50.0°F10.0°C 83% 8.3 mph ENE13.4 kmh ENE 14.5 mph23.3 kmh 29.73 in1006.8 mb 0.00 in0.0 mm 0.00 in/hr0.0 mm/hr 0.02 in0.5 mm
02:26 PM 55.0°F12.8°C 50.0°F10.0°C 83% 7.6 mph NE12.2 kmh NE 14.5 mph23.3 kmh 29.73 in1006.8 mb 0.00 in0.0 mm 0.00 in/hr0.0 mm/hr 0.02 in0.5 mm
02:25 PM 55.2°F12.9°C 50.2°F10.1°C 83% 6.0 mph ENE9.7 kmh ENE 14.5 mph23.3 kmh 29.72 in1006.4 mb 0.00 in0.0 mm 0.00 in/hr0.0 mm/hr 0.02 in0.5 mm
02:24 PM 55.2°F12.9°C 50.2°F10.1°C 83% 6.9 mph NE11.1 kmh NE 14.5 mph23.3 kmh 29.73 in1006.8 mb 0.00 in0.0 mm 0.00 in/hr0.0 mm/hr 0.02 in0.5 mm
02:23 PM 55.2°F12.9°C 50.2°F10.1°C 83% 8.3 mph NE13.4 kmh NE 15.2 mph24.5 kmh 29.72 in1006.4 mb 0.00 in0.0 mm 0.00 in/hr0.0 mm/hr 0.02 in0.5 mm
02:22 PM 55.2°F12.9°C 50.2°F10.1°C 83% 10.7 mph NE17.2 kmh NE 15.2 mph24.5 kmh 29.72 in1006.4 mb 0.00 in0.0 mm 0.00 in/hr0.0 mm/hr 0.02 in0.5 mm
02:21 PM 55.2°F12.9°C 50.2°F10.1°C 83% 6.9 mph NE11.1 kmh NE 15.2 mph24.5 kmh 29.72 in1006.4 mb 0.00 in0.0 mm 0.00 in/hr0.0 mm/hr 0.02 in0.5 mm
02:20 PM 55.2°F12.9°C 50.2°F10.1°C 83% 3.8 mph NE6.1 kmh NE 15.2 mph24.5 kmh 29.72 in1006.4 mb 0.00 in0.0 mm 0.00 in/hr0.0 mm/hr 0.02 in0.5 mm
02:19 PM 55.0°F12.8°C 50.0°F10.0°C 83% 4.5 mph NE7.2 kmh NE 15.2 mph24.5 kmh 29.72 in1006.4 mb 0.00 in0.0 mm 0.00 in/hr0.0 mm/hr 0.02 in0.5 mm
02:18 PM 55.0°F12.8°C 50.0°F10.0°C 83% 6.0 mph NE9.7 kmh NE 15.2 mph24.5 kmh 29.72 in1006.4 mb 0.00 in0.0 mm 0.00 in/hr0.0 mm/hr 0.02 in0.5 mm
02:17 PM 55.0°F12.8°C 49.7°F9.8°C 82% 9.2 mph NE14.8 kmh NE 15.2 mph24.5 kmh 29.72 in1006.4 mb 0.00 in0.0 mm 0.00 in/hr0.0 mm/hr 0.02 in0.5 mm
02:16 PM 55.0°F12.8°C 49.7°F9.8°C 82% 9.2 mph NE14.8 kmh NE 15.2 mph24.5 kmh 29.72 in1006.4 mb 0.00 in0.0 mm 0.00 in/hr0.0 mm/hr 0.02 in0.5 mm
02:15 PM 55.0°F12.8°C 49.7°F9.8°C 82% 9.2 mph NE14.8 kmh NE 15.2 mph24.5 kmh 29.72 in1006.4 mb 0.00 in0.0 mm 0.00 in/hr0.0 mm/hr 0.02 in0.5 mm
02:14 PM 55.0°F12.8°C 49.7°F9.8°C 82% 10.7 mph NE17.2 kmh NE 15.2 mph24.5 kmh 29.73 in1006.8 mb 0.00 in0.0 mm 0.00 in/hr0.0 mm/hr 0.02 in0.5 mm
02:13 PM 55.0°F12.8°C 50.0°F10.0°C 83% 7.6 mph NNE12.2 kmh NNE 14.5 mph23.3 kmh 29.73 in1006.8 mb 0.00 in0.0 mm 0.00 in/hr0.0 mm/hr 0.02 in0.5 mm
02:12 PM 55.0°F12.8°C 50.0°F10.0°C 83% 7.6 mph NNE12.2 kmh NNE 14.5 mph23.3 kmh 29.73 in1006.8 mb 0.00 in0.0 mm 0.00 in/hr0.0 mm/hr 0.02 in0.5 mm
02:11 PM 55.0°F12.8°C 50.0°F10.0°C 83% 6.0 mph NNE9.7 kmh NNE 14.5 mph23.3 kmh 29.72 in1006.4 mb 0.00 in0.0 mm 0.00 in/hr0.0 mm/hr 0.02 in0.5 mm
02:10 PM 55.0°F12.8°C 50.0°F10.0°C 83% 10.7 mph NE17.2 kmh NE 14.5 mph23.3 kmh 29.73 in1006.8 mb 0.00 in0.0 mm 0.00 in/hr0.0 mm/hr 0.02 in0.5 mm
02:09 PM 54.9°F12.7°C 50.4°F10.2°C 85% 5.4 mph NE8.7 kmh NE 13.0 mph20.9 kmh 29.72 in1006.4 mb 0.00 in0.0 mm 0.00 in/hr0.0 mm/hr 0.02 in0.5 mm
02:08 PM 54.9°F12.7°C 49.8°F9.9°C 83% 6.0 mph NE9.7 kmh NE 15.9 mph25.6 kmh 29.73 in1006.8 mb 0.00 in0.0 mm 0.00 in/hr0.0 mm/hr 0.02 in0.5 mm
02:07 PM 54.9°F12.7°C 49.8°F9.9°C 83% 6.9 mph NE11.1 kmh NE 15.9 mph25.6 kmh 29.73 in1006.8 mb 0.00 in0.0 mm 0.00 in/hr0.0 mm/hr 0.02 in0.5 mm
02:06 PM 54.9°F12.7°C 49.8°F9.9°C 83% 3.8 mph NE6.1 kmh NE 15.9 mph25.6 kmh 29.73 in1006.8 mb 0.00 in0.0 mm 0.00 in/hr0.0 mm/hr 0.02 in0.5 mm
02:05 PM 54.7°F12.6°C 49.6°F9.8°C 83% 6.0 mph NE9.7 kmh NE 15.9 mph25.6 kmh 29.73 in1006.8 mb 0.00 in0.0 mm 0.00 in/hr0.0 mm/hr 0.02 in0.5 mm
02:04 PM 54.9°F12.7°C 49.8°F9.9°C 83% 4.5 mph NE7.2 kmh NE 15.9 mph25.6 kmh 29.72 in1006.4 mb 0.00 in0.0 mm 0.00 in/hr0.0 mm/hr 0.02 in0.5 mm
02:03 PM 54.7°F12.6°C 49.6°F9.8°C 83% 6.0 mph ENE9.7 kmh ENE 15.9 mph25.6 kmh 29.72 in1006.4 mb 0.00 in0.0 mm 0.00 in/hr0.0 mm/hr 0.02 in0.5 mm
02:02 PM 54.7°F12.6°C 49.6°F9.8°C 83% 6.0 mph ENE9.7 kmh ENE 15.9 mph25.6 kmh 29.73 in1006.8 mb 0.00 in0.0 mm 0.00 in/hr0.0 mm/hr 0.02 in0.5 mm
02:01 PM 54.7°F12.6°C 49.6°F9.8°C 83% 6.0 mph ENE9.7 kmh ENE 15.9 mph25.6 kmh 29.73 in1006.8 mb 0.00 in0.0 mm 0.00 in/hr0.0 mm/hr 0.02 in0.5 mm
02:00 PM 54.7°F12.6°C 49.6°F9.8°C 83% 7.6 mph ENE12.2 kmh ENE 15.9 mph25.6 kmh 29.73 in1006.8 mb 0.00 in0.0 mm 0.00 in/hr0.0 mm/hr 0.02 in0.5 mm
01:59 PM 54.7°F12.6°C 49.6°F9.8°C 83% 8.3 mph NE13.4 kmh NE 15.9 mph25.6 kmh 29.73 in1006.8 mb 0.00 in0.0 mm 0.00 in/hr0.0 mm/hr 0.02 in0.5 mm
01:58 PM 54.7°F12.6°C 49.6°F9.8°C 83% 8.3 mph NE13.4 kmh NE 15.9 mph25.6 kmh 29.73 in1006.8 mb 0.00 in0.0 mm 0.00 in/hr0.0 mm/hr 0.02 in0.5 mm
01:57 PM 54.5°F12.5°C 49.5°F9.7°C 83% 4.5 mph NE7.2 kmh NE 15.9 mph25.6 kmh 29.73 in1006.8 mb 0.00 in0.0 mm 0.00 in/hr0.0 mm/hr 0.02 in0.5 mm
01:56 PM 54.5°F12.5°C 49.5°F9.7°C 83% 6.9 mph NE11.1 kmh NE 15.9 mph25.6 kmh 29.73 in1006.8 mb 0.00 in0.0 mm 0.00 in/hr0.0 mm/hr 0.02 in0.5 mm
01:55 PM 54.5°F12.5°C 49.5°F9.7°C 83% 6.0 mph NE9.7 kmh NE 15.9 mph25.6 kmh 29.73 in1006.8 mb 0.00 in0.0 mm 0.00 in/hr0.0 mm/hr 0.02 in0.5 mm
01:54 PM 54.7°F12.6°C 49.6°F9.8°C 83% 4.5 mph NE7.2 kmh NE 16.8 mph27.0 kmh 29.73 in1006.8 mb 0.00 in0.0 mm 0.00 in/hr0.0 mm/hr 0.02 in0.5 mm
01:53 PM 54.5°F12.5°C 49.5°F9.7°C 83% 9.8 mph NE15.8 kmh NE 16.8 mph27.0 kmh 29.73 in1006.8 mb 0.00 in0.0 mm 0.00 in/hr0.0 mm/hr 0.02 in0.5 mm
01:52 PM 54.5°F12.5°C 49.5°F9.7°C 83% 7.6 mph NE12.2 kmh NE 16.8 mph27.0 kmh 29.73 in1006.8 mb 0.00 in0.0 mm 0.00 in/hr0.0 mm/hr 0.02 in0.5 mm
01:51 PM 54.5°F12.5°C 49.5°F9.7°C 83% 7.6 mph NE12.2 kmh NE 16.8 mph27.0 kmh 29.73 in1006.8 mb 0.00 in0.0 mm 0.00 in/hr0.0 mm/hr 0.02 in0.5 mm
01:50 PM 54.5°F12.5°C 49.5°F9.7°C 83% 7.6 mph NE12.2 kmh NE 16.8 mph27.0 kmh 29.73 in1006.8 mb 0.00 in0.0 mm 0.00 in/hr0.0 mm/hr 0.02 in0.5 mm
01:49 PM 54.3°F12.4°C 49.3°F9.6°C 83% 11.4 mph NE18.3 kmh NE 16.8 mph27.0 kmh 29.73 in1006.8 mb 0.00 in0.0 mm 0.00 in/hr0.0 mm/hr 0.02 in0.5 mm
01:48 PM 54.3°F12.4°C 49.3°F9.6°C 83% 7.6 mph ENE12.2 kmh ENE 16.8 mph27.0 kmh 29.73 in1006.8 mb 0.00 in0.0 mm 0.00 in/hr0.0 mm/hr 0.02 in0.5 mm
01:47 PM 54.5°F12.5°C 49.5°F9.7°C 83% 7.6 mph NE12.2 kmh NE 16.8 mph27.0 kmh 29.73 in1006.8 mb 0.00 in0.0 mm 0.00 in/hr0.0 mm/hr 0.02 in0.5 mm
01:46 PM 54.5°F12.5°C 49.1°F9.5°C 82% 6.9 mph NE11.1 kmh NE 16.8 mph27.0 kmh 29.73 in1006.8 mb 0.00 in0.0 mm 0.00 in/hr0.0 mm/hr 0.02 in0.5 mm
01:45 PM 54.3°F12.4°C 49.3°F9.6°C 83% 11.4 mph NE18.3 kmh NE 16.8 mph27.0 kmh 29.73 in1006.8 mb 0.00 in0.0 mm 0.00 in/hr0.0 mm/hr 0.02 in0.5 mm
01:44 PM 54.5°F12.5°C 49.5°F9.7°C 83% 10.7 mph NE17.2 kmh NE 16.8 mph27.0 kmh 29.73 in1006.8 mb 0.00 in0.0 mm 0.00 in/hr0.0 mm/hr 0.02 in0.5 mm
01:43 PM 54.5°F12.5°C 49.5°F9.7°C 83% 6.9 mph NE11.1 kmh NE 19.0 mph30.6 kmh 29.73 in1006.8 mb 0.00 in0.0 mm 0.00 in/hr0.0 mm/hr 0.02 in0.5 mm
01:42 PM 54.3°F12.4°C 49.3°F9.6°C 83% 6.0 mph NE9.7 kmh NE 19.0 mph30.6 kmh 29.73 in1006.8 mb 0.00 in0.0 mm 0.00 in/hr0.0 mm/hr 0.02 in0.5 mm
01:41 PM 54.3°F12.4°C 49.3°F9.6°C 83% 7.6 mph NE12.2 kmh NE 19.0 mph30.6 kmh 29.73 in1006.8 mb 0.00 in0.0 mm 0.00 in/hr0.0 mm/hr 0.02 in0.5 mm
01:40 PM 54.3°F12.4°C 49.3°F9.6°C 83% 9.8 mph ENE15.8 kmh ENE 19.0 mph30.6 kmh 29.73 in1006.8 mb 0.00 in0.0 mm 0.00 in/hr0.0 mm/hr 0.02 in0.5 mm
01:39 PM 54.3°F12.4°C 49.3°F9.6°C 83% 10.7 mph ENE17.2 kmh ENE 19.0 mph30.6 kmh 29.73 in1006.8 mb 0.00 in0.0 mm 0.00 in/hr0.0 mm/hr 0.02 in0.5 mm
01:38 PM 54.3°F12.4°C 49.3°F9.6°C 83% 5.4 mph ENE8.7 kmh ENE 19.0 mph30.6 kmh 29.74 in1007.1 mb 0.00 in0.0 mm 0.00 in/hr0.0 mm/hr 0.02 in0.5 mm
01:37 PM 54.3°F12.4°C 49.3°F9.6°C 83% 5.4 mph ENE8.7 kmh ENE 19.0 mph30.6 kmh 29.74 in1007.1 mb 0.00 in0.0 mm 0.00 in/hr0.0 mm/hr 0.02 in0.5 mm
01:36 PM 54.3°F12.4°C 49.3°F9.6°C 83% 8.3 mph NE13.4 kmh NE 19.0 mph30.6 kmh 29.74 in1007.1 mb 0.00 in0.0 mm 0.00 in/hr0.0 mm/hr 0.02 in0.5 mm
01:35 PM 54.3°F12.4°C 49.3°F9.6°C 83% 6.0 mph NE9.7 kmh NE 19.0 mph30.6 kmh 29.74 in1007.1 mb 0.00 in0.0 mm 0.00 in/hr0.0 mm/hr 0.02 in0.5 mm
01:34 PM 54.3°F12.4°C 49.3°F9.6°C 83% 9.2 mph NE14.8 kmh NE 19.0 mph30.6 kmh 29.74 in1007.1 mb 0.00 in0.0 mm 0.00 in/hr0.0 mm/hr 0.02 in0.5 mm
01:33 PM 54.3°F12.4°C 49.3°F9.6°C 83% 4.5 mph NE7.2 kmh NE 18.3 mph29.5 kmh 29.73 in1006.8 mb 0.00 in0.0 mm 0.00 in/hr0.0 mm/hr 0.02 in0.5 mm
01:32 PM 54.3°F12.4°C 49.3°F9.6°C 83% 6.0 mph NE9.7 kmh NE 18.3 mph29.5 kmh 29.73 in1006.8 mb 0.00 in0.0 mm 0.00 in/hr0.0 mm/hr 0.02 in0.5 mm
01:31 PM 54.3°F12.4°C 49.3°F9.6°C 83% 8.3 mph NE13.4 kmh NE 18.3 mph29.5 kmh 29.74 in1007.1 mb 0.00 in0.0 mm 0.00 in/hr0.0 mm/hr 0.02 in0.5 mm
01:30 PM 54.3°F12.4°C 49.3°F9.6°C 83% 9.8 mph NE15.8 kmh NE 18.3 mph29.5 kmh 29.73 in1006.8 mb 0.00 in0.0 mm 0.00 in/hr0.0 mm/hr 0.02 in0.5 mm
01:29 PM 54.1°F12.3°C 48.8°F9.3°C 82% 6.0 mph NE9.7 kmh NE 18.3 mph29.5 kmh 29.73 in1006.8 mb 0.00 in0.0 mm 0.00 in/hr0.0 mm/hr 0.02 in0.5 mm
01:28 PM 54.3°F12.4°C 49.3°F9.6°C 83% 7.6 mph NE12.2 kmh NE 18.3 mph29.5 kmh 29.74 in1007.1 mb 0.00 in0.0 mm 0.00 in/hr0.0 mm/hr 0.02 in0.5 mm
01:27 PM 54.3°F12.4°C 49.3°F9.6°C 83% 8.3 mph NE13.4 kmh NE 18.3 mph29.5 kmh 29.74 in1007.1 mb 0.00 in0.0 mm 0.00 in/hr0.0 mm/hr 0.02 in0.5 mm
01:26 PM 54.3°F12.4°C 49.3°F9.6°C 83% 10.7 mph ENE17.2 kmh ENE 18.3 mph29.5 kmh 29.74 in1007.1 mb 0.00 in0.0 mm 0.00 in/hr0.0 mm/hr 0.02 in0.5 mm
01:25 PM 54.5°F12.5°C 49.5°F9.7°C 83% 8.3 mph NE13.4 kmh NE 17.4 mph28.0 kmh 29.74 in1007.1 mb 0.00 in0.0 mm 0.00 in/hr0.0 mm/hr 0.02 in0.5 mm
01:24 PM 54.5°F12.5°C 49.5°F9.7°C 83% 9.2 mph NE14.8 kmh NE 17.4 mph28.0 kmh 29.74 in1007.1 mb 0.00 in0.0 mm 0.00 in/hr0.0 mm/hr 0.02 in0.5 mm
01:23 PM 54.5°F12.5°C 49.1°F9.5°C 82% 7.6 mph NE12.2 kmh NE 22.8 mph36.7 kmh 29.74 in1007.1 mb 0.00 in0.0 mm 0.00 in/hr0.0 mm/hr 0.02 in0.5 mm
01:22 PM 54.5°F12.5°C 49.5°F9.7°C 83% 12.1 mph NE19.5 kmh NE 22.8 mph36.7 kmh 29.74 in1007.1 mb 0.00 in0.0 mm 0.00 in/hr0.0 mm/hr 0.02 in0.5 mm
01:21 PM 54.5°F12.5°C 49.5°F9.7°C 83% 11.4 mph ENE18.3 kmh ENE 22.8 mph36.7 kmh 29.74 in1007.1 mb 0.00 in0.0 mm 0.00 in/hr0.0 mm/hr 0.02 in0.5 mm
01:20 PM 54.5°F12.5°C 49.5°F9.7°C 83% 9.2 mph ENE14.8 kmh ENE 22.8 mph36.7 kmh 29.74 in1007.1 mb 0.00 in0.0 mm 0.00 in/hr0.0 mm/hr 0.02 in0.5 mm
01:19 PM 54.5°F12.5°C 49.1°F9.5°C 82% 7.6 mph ENE12.2 kmh ENE 22.8 mph36.7 kmh 29.74 in1007.1 mb 0.00 in0.0 mm 0.00 in/hr0.0 mm/hr 0.02 in0.5 mm
01:18 PM 54.5°F12.5°C 49.5°F9.7°C 83% 11.4 mph ENE18.3 kmh ENE 22.8 mph36.7 kmh 29.74 in1007.1 mb 0.00 in0.0 mm 0.00 in/hr0.0 mm/hr 0.02 in0.5 mm
01:17 PM 54.5°F12.5°C 49.5°F9.7°C 83% 6.9 mph ENE11.1 kmh ENE 22.8 mph36.7 kmh 29.74 in1007.1 mb 0.00 in0.0 mm 0.00 in/hr0.0 mm/hr 0.02 in0.5 mm
01:16 PM 54.5°F12.5°C 49.5°F9.7°C 83% 9.2 mph ENE14.8 kmh ENE 22.8 mph36.7 kmh 29.73 in1006.8 mb 0.00 in0.0 mm 0.00 in/hr0.0 mm/hr 0.02 in0.5 mm
01:15 PM 54.5°F12.5°C 49.5°F9.7°C 83% 7.6 mph ENE12.2 kmh ENE 22.8 mph36.7 kmh 29.74 in1007.1 mb 0.00 in0.0 mm 0.00 in/hr0.0 mm/hr 0.02 in0.5 mm
01:14 PM 54.5°F12.5°C 49.5°F9.7°C 83% 6.9 mph ENE11.1 kmh ENE 22.8 mph36.7 kmh 29.74 in1007.1 mb 0.00 in0.0 mm 0.00 in/hr0.0 mm/hr 0.02 in0.5 mm
01:13 PM 54.5°F12.5°C 49.5°F9.7°C 83% 9.2 mph ENE14.8 kmh ENE 22.1 mph35.6 kmh 29.74 in1007.1 mb 0.00 in0.0 mm 0.00 in/hr0.0 mm/hr 0.02 in0.5 mm
01:12 PM 54.5°F12.5°C 49.5°F9.7°C 83% 8.3 mph ENE13.4 kmh ENE 22.1 mph35.6 kmh 29.74 in1007.1 mb 0.00 in0.0 mm 0.00 in/hr0.0 mm/hr 0.02 in0.5 mm
01:11 PM 54.5°F12.5°C 49.5°F9.7°C 83% 6.0 mph ENE9.7 kmh ENE 22.1 mph35.6 kmh 29.74 in1007.1 mb 0.00 in0.0 mm 0.00 in/hr0.0 mm/hr 0.02 in0.5 mm
01:10 PM 54.3°F12.4°C 49.0°F9.4°C 82% 9.2 mph ENE14.8 kmh ENE 22.1 mph35.6 kmh 29.74 in1007.1 mb 0.00 in0.0 mm 0.00 in/hr0.0 mm/hr 0.02 in0.5 mm
01:09 PM 54.5°F12.5°C 49.5°F9.7°C 83% 13.6 mph ENE21.9 kmh ENE 22.1 mph35.6 kmh 29.74 in1007.1 mb 0.00 in0.0 mm 0.00 in/hr0.0 mm/hr 0.02 in0.5 mm
01:08 PM 54.3°F12.4°C 49.3°F9.6°C 83% 9.8 mph ENE15.8 kmh ENE 22.1 mph35.6 kmh 29.74 in1007.1 mb 0.00 in0.0 mm 0.00 in/hr0.0 mm/hr 0.02 in0.5 mm
01:07 PM 54.5°F12.5°C 49.5°F9.7°C 83% 13.0 mph NE20.9 kmh NE 22.1 mph35.6 kmh 29.74 in1007.1 mb 0.00 in0.0 mm 0.00 in/hr0.0 mm/hr 0.02 in0.5 mm
01:06 PM 54.5°F12.5°C 50.1°F10.1°C 85% 8.3 mph NE13.4 kmh NE 16.8 mph27.0 kmh 29.74 in1007.1 mb 0.00 in0.0 mm 0.00 in/hr0.0 mm/hr 0.02 in0.5 mm
01:05 PM 54.5°F12.5°C 49.5°F9.7°C 83% 5.4 mph NE8.7 kmh NE 17.4 mph28.0 kmh 29.74 in1007.1 mb 0.00 in0.0 mm 0.00 in/hr0.0 mm/hr 0.02 in0.5 mm
01:04 PM 54.5°F12.5°C 49.5°F9.7°C 83% 6.0 mph NE9.7 kmh NE 17.4 mph28.0 kmh 29.74 in1007.1 mb 0.00 in0.0 mm 0.00 in/hr0.0 mm/hr 0.02 in0.5 mm
01:03 PM 54.5°F12.5°C 49.5°F9.7°C 83% 6.9 mph NE11.1 kmh NE 17.4 mph28.0 kmh 29.74 in1007.1 mb 0.00 in0.0 mm 0.00 in/hr0.0 mm/hr 0.02 in0.5 mm
01:02 PM 54.5°F12.5°C 49.5°F9.7°C 83% 6.9 mph NE11.1 kmh NE 17.4 mph28.0 kmh 29.74 in1007.1 mb 0.00 in0.0 mm 0.00 in/hr0.0 mm/hr 0.02 in0.5 mm
01:01 PM 54.5°F12.5°C 49.5°F9.7°C 83% 5.4 mph NE8.7 kmh NE 17.4 mph28.0 kmh 29.74 in1007.1 mb 0.00 in0.0 mm 0.00 in/hr0.0 mm/hr 0.02 in0.5 mm
01:00 PM 54.5°F12.5°C 49.5°F9.7°C 83% 6.0 mph NE9.7 kmh NE 19.0 mph30.6 kmh 29.74 in1007.1 mb 0.00 in0.0 mm 0.00 in/hr0.0 mm/hr 0.02 in0.5 mm
12:59 PM 54.5°F12.5°C 49.5°F9.7°C 83% 6.0 mph NE9.7 kmh NE 19.0 mph30.6 kmh 29.74 in1007.1 mb 0.00 in0.0 mm 0.00 in/hr0.0 mm/hr 0.02 in0.5 mm
12:58 PM 54.5°F12.5°C 49.1°F9.5°C 82% 12.1 mph NE19.5 kmh NE 19.0 mph30.6 kmh 29.74 in1007.1 mb 0.00 in0.0 mm 0.00 in/hr0.0 mm/hr 0.02 in0.5 mm
12:57 PM 54.3°F12.4°C 49.0°F9.4°C 82% 9.8 mph NE15.8 kmh NE 19.0 mph30.6 kmh 29.73 in1006.8 mb 0.00 in0.0 mm 0.00 in/hr0.0 mm/hr 0.02 in0.5 mm
12:56 PM 54.3°F12.4°C 49.0°F9.4°C 82% 8.3 mph NE13.4 kmh NE 19.0 mph30.6 kmh 29.73 in1006.8 mb 0.00 in0.0 mm 0.00 in/hr0.0 mm/hr 0.02 in0.5 mm
12:55 PM 54.3°F12.4°C 49.3°F9.6°C 83% 13.0 mph NE20.9 kmh NE 19.0 mph30.6 kmh 29.74 in1007.1 mb 0.00 in0.0 mm 0.00 in/hr0.0 mm/hr 0.02 in0.5 mm
12:54 PM 54.3°F12.4°C 49.3°F9.6°C 83% 10.7 mph NE17.2 kmh NE 19.0 mph30.6 kmh 29.74 in1007.1 mb 0.00 in0.0 mm 0.00 in/hr0.0 mm/hr 0.02 in0.5 mm
12:53 PM 54.3°F12.4°C 49.3°F9.6°C 83% 6.0 mph NE9.7 kmh NE 19.0 mph30.6 kmh 29.74 in1007.1 mb 0.00 in0.0 mm 0.00 in/hr0.0 mm/hr 0.02 in0.5 mm
12:52 PM 54.3°F12.4°C 49.9°F9.9°C 85% 4.5 mph NE7.2 kmh NE 19.0 mph30.6 kmh 29.74 in1007.1 mb 0.00 in0.0 mm 0.00 in/hr0.0 mm/hr 0.02 in0.5 mm
12:51 PM 54.3°F12.4°C 49.3°F9.6°C 83% 7.6 mph NE12.2 kmh NE 19.0 mph30.6 kmh 29.74 in1007.1 mb 0.00 in0.0 mm 0.00 in/hr0.0 mm/hr 0.02 in0.5 mm
12:50 PM 54.3°F12.4°C 49.3°F9.6°C 83% 7.6 mph NE12.2 kmh NE 19.0 mph30.6 kmh 29.74 in1007.1 mb 0.00 in0.0 mm 0.00 in/hr0.0 mm/hr 0.02 in0.5 mm
12:49 PM 54.3°F12.4°C 49.3°F9.6°C 83% 6.9 mph NE11.1 kmh NE 15.9 mph25.6 kmh 29.74 in1007.1 mb 0.00 in0.0 mm 0.00 in/hr0.0 mm/hr 0.02 in0.5 mm
12:48 PM 54.3°F12.4°C 49.3°F9.6°C 83% 12.1 mph NE19.5 kmh NE 15.9 mph25.6 kmh 29.74 in1007.1 mb 0.00 in0.0 mm 0.00 in/hr0.0 mm/hr 0.02 in0.5 mm
12:47 PM 54.3°F12.4°C 49.3°F9.6°C 83% 9.8 mph NE15.8 kmh NE 15.9 mph25.6 kmh 29.74 in1007.1 mb 0.00 in0.0 mm 0.00 in/hr0.0 mm/hr 0.02 in0.5 mm
12:46 PM 54.1°F12.3°C 49.1°F9.5°C 83% 9.2 mph NE14.8 kmh NE 15.9 mph25.6 kmh 29.74 in1007.1 mb 0.00 in0.0 mm 0.00 in/hr0.0 mm/hr 0.02 in0.5 mm
12:45 PM 54.1°F12.3°C 49.1°F9.5°C 83% 9.8 mph ENE15.8 kmh ENE 15.9 mph25.6 kmh 29.73 in1006.8 mb 0.00 in0.0 mm 0.00 in/hr0.0 mm/hr 0.02 in0.5 mm
12:44 PM 54.1°F12.3°C 49.7°F9.8°C 85% 8.3 mph ENE13.4 kmh ENE 15.9 mph25.6 kmh 29.73 in1006.8 mb 0.00 in0.0 mm 0.00 in/hr0.0 mm/hr 0.02 in0.5 mm
12:43 PM 54.1°F12.3°C 49.7°F9.8°C 85% 8.3 mph ENE13.4 kmh ENE 15.9 mph25.6 kmh 29.73 in1006.8 mb 0.00 in0.0 mm 0.00 in/hr0.0 mm/hr 0.02 in0.5 mm
12:42 PM 54.1°F12.3°C 49.7°F9.8°C 85% 9.2 mph ENE14.8 kmh ENE 15.9 mph25.6 kmh 29.74 in1007.1 mb 0.00 in0.0 mm 0.00 in/hr0.0 mm/hr 0.02 in0.5 mm
12:41 PM 54.1°F12.3°C 49.7°F9.8°C 85% 8.3 mph ENE13.4 kmh ENE 15.9 mph25.6 kmh 29.73 in1006.8 mb 0.00 in0.0 mm 0.00 in/hr0.0 mm/hr 0.02 in0.5 mm
12:40 PM 54.1°F12.3°C 50.1°F10.1°C 86% 7.6 mph ENE12.2 kmh ENE 15.9 mph25.6 kmh 29.74 in1007.1 mb 0.00 in0.0 mm 0.00 in/hr0.0 mm/hr 0.02 in0.5 mm
12:39 PM 54.1°F12.3°C 50.1°F10.1°C 86% 6.0 mph ENE9.7 kmh ENE 13.0 mph20.9 kmh 29.74 in1007.1 mb 0.00 in0.0 mm 0.00 in/hr0.0 mm/hr 0.02 in0.5 mm
12:38 PM 54.0°F12.2°C 49.9°F9.9°C 86% 6.9 mph ENE11.1 kmh ENE 12.1 mph19.5 kmh 29.73 in1006.8 mb 0.00 in0.0 mm 0.00 in/hr0.0 mm/hr 0.02 in0.5 mm
12:37 PM 53.8°F12.1°C 49.7°F9.8°C 86% 3.8 mph ENE6.1 kmh ENE 12.1 mph19.5 kmh 29.74 in1007.1 mb 0.00 in0.0 mm 0.00 in/hr0.0 mm/hr 0.02 in0.5 mm
12:36 PM 53.8°F12.1°C 49.4°F9.7°C 85% 2.2 mph NE3.5 kmh NE 14.5 mph23.3 kmh 29.74 in1007.1 mb 0.00 in0.0 mm 0.00 in/hr0.0 mm/hr 0.02 in0.5 mm
12:35 PM 53.8°F12.1°C 49.7°F9.8°C 86% 5.4 mph NE8.7 kmh NE 14.5 mph23.3 kmh 29.73 in1006.8 mb 0.00 in0.0 mm 0.00 in/hr0.0 mm/hr 0.02 in0.5 mm
12:34 PM 53.8°F12.1°C 49.7°F9.8°C 86% 4.5 mph NE7.2 kmh NE 14.5 mph23.3 kmh 29.74 in1007.1 mb 0.00 in0.0 mm 0.00 in/hr0.0 mm/hr 0.02 in0.5 mm
12:33 PM 53.8°F12.1°C 49.7°F9.8°C 86% 3.8 mph NE6.1 kmh NE 14.5 mph23.3 kmh 29.74 in1007.1 mb 0.00 in0.0 mm 0.00 in/hr0.0 mm/hr 0.02 in0.5 mm
12:32 PM 53.8°F12.1°C 49.4°F9.7°C 85% 3.1 mph NE5.0 kmh NE 14.5 mph23.3 kmh 29.73 in1006.8 mb 0.00 in0.0 mm 0.00 in/hr0.0 mm/hr 0.02 in0.5 mm
12:31 PM 53.8°F12.1°C 49.4°F9.7°C 85% 5.4 mph NE8.7 kmh NE 14.5 mph23.3 kmh 29.74 in1007.1 mb 0.00 in0.0 mm 0.00 in/hr0.0 mm/hr 0.02 in0.5 mm
12:30 PM 53.8°F12.1°C 49.4°F9.7°C 85% 4.5 mph NE7.2 kmh NE 15.9 mph25.6 kmh 29.74 in1007.1 mb 0.00 in0.0 mm 0.00 in/hr0.0 mm/hr 0.02 in0.5 mm
12:29 PM 53.8°F12.1°C 49.4°F9.7°C 85% 6.0 mph NE9.7 kmh NE 15.9 mph25.6 kmh 29.74 in1007.1 mb 0.00 in0.0 mm 0.00 in/hr0.0 mm/hr 0.02 in0.5 mm
12:28 PM 53.8°F12.1°C 49.4°F9.7°C 85% 5.4 mph NE8.7 kmh NE 15.9 mph25.6 kmh 29.74 in1007.1 mb 0.00 in0.0 mm 0.00 in/hr0.0 mm/hr 0.02 in0.5 mm
12:27 PM 53.8°F12.1°C 49.4°F9.7°C 85% 6.0 mph NE9.7 kmh NE 15.9 mph25.6 kmh 29.74 in1007.1 mb 0.00 in0.0 mm 0.00 in/hr0.0 mm/hr 0.02 in0.5 mm
12:26 PM 53.8°F12.1°C 49.7°F9.8°C 86% 7.6 mph NNE12.2 kmh NNE 15.9 mph25.6 kmh 29.74 in1007.1 mb 0.00 in0.0 mm 0.00 in/hr0.0 mm/hr 0.02 in0.5 mm
12:25 PM 53.6°F12.0°C 49.5°F9.7°C 86% 5.4 mph N8.7 kmh N 15.9 mph25.6 kmh 29.74 in1007.1 mb 0.00 in0.0 mm 0.00 in/hr0.0 mm/hr 0.02 in0.5 mm
12:24 PM 53.6°F12.0°C 49.2°F9.6°C 85% 3.1 mph N5.0 kmh N 15.9 mph25.6 kmh 29.74 in1007.1 mb 0.00 in0.0 mm 0.00 in/hr0.0 mm/hr 0.02 in0.5 mm
12:23 PM 53.6°F12.0°C 49.2°F9.6°C 85% 3.8 mph N6.1 kmh N 15.9 mph25.6 kmh 29.74 in1007.1 mb 0.00 in0.0 mm 0.00 in/hr0.0 mm/hr 0.02 in0.5 mm
12:22 PM 53.6°F12.0°C 49.2°F9.6°C 85% 6.0 mph NNE9.7 kmh NNE 15.9 mph25.6 kmh 29.74 in1007.1 mb 0.00 in0.0 mm 0.00 in/hr0.0 mm/hr 0.02 in0.5 mm
12:21 PM 53.6°F12.0°C 49.2°F9.6°C 85% 7.6 mph NNE12.2 kmh NNE 15.9 mph25.6 kmh 29.74 in1007.1 mb 0.00 in0.0 mm 0.00 in/hr0.0 mm/hr 0.02 in0.5 mm
12:20 PM 53.6°F12.0°C 49.2°F9.6°C 85% 6.9 mph NNE11.1 kmh NNE 15.9 mph25.6 kmh 29.74 in1007.1 mb 0.00 in0.0 mm 0.00 in/hr0.0 mm/hr 0.02 in0.5 mm
12:19 PM 53.6°F12.0°C 49.2°F9.6°C 85% 6.9 mph NNE11.1 kmh NNE 15.9 mph25.6 kmh 29.74 in1007.1 mb 0.00 in0.0 mm 0.00 in/hr0.0 mm/hr 0.02 in0.5 mm
12:18 PM 53.6°F12.0°C 49.5°F9.7°C 86% 9.2 mph NNE14.8 kmh NNE 15.9 mph25.6 kmh 29.74 in1007.1 mb 0.00 in0.0 mm 0.00 in/hr0.0 mm/hr 0.02 in0.5 mm
12:17 PM 53.6°F12.0°C 49.5°F9.7°C 86% 5.4 mph NNE8.7 kmh NNE 15.9 mph25.6 kmh 29.74 in1007.1 mb 0.00 in0.0 mm 0.00 in/hr0.0 mm/hr 0.02 in0.5 mm
12:16 PM 53.6°F12.0°C 49.5°F9.7°C 86% 11.4 mph NE18.3 kmh NE 15.9 mph25.6 kmh 29.74 in1007.1 mb 0.00 in0.0 mm 0.00 in/hr0.0 mm/hr 0.02 in0.5 mm
12:15 PM 53.6°F12.0°C 49.5°F9.7°C 86% 11.4 mph NE18.3 kmh NE 15.9 mph25.6 kmh 29.74 in1007.1 mb 0.00 in0.0 mm 0.00 in/hr0.0 mm/hr 0.02 in0.5 mm
12:14 PM 53.6°F12.0°C 49.5°F9.7°C 86% 4.5 mph ENE7.2 kmh ENE 15.9 mph25.6 kmh 29.74 in1007.1 mb 0.00 in0.0 mm 0.00 in/hr0.0 mm/hr 0.02 in0.5 mm
12:13 PM 53.6°F12.0°C 49.2°F9.6°C 85% 8.3 mph NE13.4 kmh NE 15.9 mph25.6 kmh 29.74 in1007.1 mb 0.00 in0.0 mm 0.00 in/hr0.0 mm/hr 0.02 in0.5 mm
12:12 PM 53.4°F11.9°C 49.3°F9.6°C 86% 5.4 mph NE8.7 kmh NE 18.3 mph29.5 kmh 29.74 in1007.1 mb 0.00 in0.0 mm 0.00 in/hr0.0 mm/hr 0.02 in0.5 mm
12:11 PM 53.4°F11.9°C 49.3°F9.6°C 86% 4.5 mph NE7.2 kmh NE 18.3 mph29.5 kmh 29.74 in1007.1 mb 0.00 in0.0 mm 0.00 in/hr0.0 mm/hr 0.02 in0.5 mm
12:10 PM 53.4°F11.9°C 49.3°F9.6°C 86% 5.4 mph ENE8.7 kmh ENE 18.3 mph29.5 kmh 29.74 in1007.1 mb 0.00 in0.0 mm 0.00 in/hr0.0 mm/hr 0.02 in0.5 mm
12:09 PM 53.4°F11.9°C 49.3°F9.6°C 86% 9.2 mph ENE14.8 kmh ENE 18.3 mph29.5 kmh 29.74 in1007.1 mb 0.00 in0.0 mm 0.00 in/hr0.0 mm/hr 0.02 in0.5 mm
12:08 PM 53.4°F11.9°C 49.3°F9.6°C 86% 8.3 mph ENE13.4 kmh ENE 18.3 mph29.5 kmh 29.74 in1007.1 mb 0.00 in0.0 mm 0.00 in/hr0.0 mm/hr 0.02 in0.5 mm
12:07 PM 53.4°F11.9°C 49.7°F9.8°C 87% 7.6 mph ENE12.2 kmh ENE 19.0 mph30.6 kmh 29.74 in1007.1 mb 0.00 in0.0 mm 0.00 in/hr0.0 mm/hr 0.02 in0.5 mm
12:06 PM 53.4°F11.9°C 49.3°F9.6°C 86% 4.5 mph ENE7.2 kmh ENE 19.0 mph30.6 kmh 29.74 in1007.1 mb 0.00 in0.0 mm 0.00 in/hr0.0 mm/hr 0.02 in0.5 mm
12:05 PM 53.4°F11.9°C 49.3°F9.6°C 86% 7.6 mph ENE12.2 kmh ENE 19.0 mph30.6 kmh 29.74 in1007.1 mb 0.00 in0.0 mm 0.00 in/hr0.0 mm/hr 0.02 in0.5 mm
12:04 PM 53.4°F11.9°C 49.3°F9.6°C 86% 8.3 mph ENE13.4 kmh ENE 19.0 mph30.6 kmh 29.75 in1007.5 mb 0.00 in0.0 mm 0.00 in/hr0.0 mm/hr 0.02 in0.5 mm
12:03 PM 53.4°F11.9°C 49.3°F9.6°C 86% 10.7 mph ENE17.2 kmh ENE 19.0 mph30.6 kmh 29.75 in1007.5 mb 0.00 in0.0 mm 0.00 in/hr0.0 mm/hr 0.02 in0.5 mm
12:02 PM 53.6°F12.0°C 49.2°F9.6°C 85% 12.1 mph ENE19.5 kmh ENE 19.0 mph30.6 kmh 29.75 in1007.5 mb 0.00 in0.0 mm 0.00 in/hr0.0 mm/hr 0.02 in0.5 mm
12:01 PM 53.6°F12.0°C 48.6°F9.2°C 83% 6.9 mph NE11.1 kmh NE 19.0 mph30.6 kmh 29.75 in1007.5 mb 0.00 in0.0 mm 0.00 in/hr0.0 mm/hr 0.02 in0.5 mm
12:00 PM 53.6°F12.0°C 48.6°F9.2°C 83% 8.3 mph NE13.4 kmh NE 19.0 mph30.6 kmh 29.75 in1007.5 mb 0.00 in0.0 mm 0.00 in/hr0.0 mm/hr 0.02 in0.5 mm
11:59 AM 53.6°F12.0°C 49.2°F9.6°C 85% 12.1 mph ENE19.5 kmh ENE 19.7 mph31.7 kmh 29.75 in1007.5 mb 0.00 in0.0 mm 0.00 in/hr0.0 mm/hr 0.02 in0.5 mm
11:58 AM 53.6°F12.0°C 49.2°F9.6°C 85% 8.3 mph ENE13.4 kmh ENE 19.7 mph31.7 kmh 29.75 in1007.5 mb 0.00 in0.0 mm 0.00 in/hr0.0 mm/hr 0.02 in0.5 mm
11:57 AM 53.6°F12.0°C 49.5°F9.7°C 86% 15.2 mph ENE24.5 kmh ENE 19.7 mph31.7 kmh 29.74 in1007.1 mb 0.00 in0.0 mm 0.00 in/hr0.0 mm/hr 0.02 in0.5 mm
11:56 AM 53.6°F12.0°C 49.2°F9.6°C 85% 6.0 mph NE9.7 kmh NE 19.7 mph31.7 kmh 29.74 in1007.1 mb 0.00 in0.0 mm 0.00 in/hr0.0 mm/hr 0.02 in0.5 mm
11:55 AM 53.6°F12.0°C 49.2°F9.6°C 85% 3.8 mph NE6.1 kmh NE 19.7 mph31.7 kmh 29.74 in1007.1 mb 0.00 in0.0 mm 0.00 in/hr0.0 mm/hr 0.02 in0.5 mm
11:54 AM 53.6°F12.0°C 49.2°F9.6°C 85% 3.1 mph NE5.0 kmh NE 19.7 mph31.7 kmh 29.75 in1007.5 mb 0.00 in0.0 mm 0.00 in/hr0.0 mm/hr 0.02 in0.5 mm
11:53 AM 53.6°F12.0°C 49.2°F9.6°C 85% 6.9 mph NE11.1 kmh NE 19.7 mph31.7 kmh 29.74 in1007.1 mb 0.00 in0.0 mm 0.00 in/hr0.0 mm/hr 0.02 in0.5 mm
11:52 AM 53.6°F12.0°C 49.2°F9.6°C 85% 8.3 mph NE13.4 kmh NE 19.7 mph31.7 kmh 29.75 in1007.5 mb 0.00 in0.0 mm 0.00 in/hr0.0 mm/hr 0.02 in0.5 mm
11:51 AM 53.6°F12.0°C 48.6°F9.2°C 83% 5.4 mph NE8.7 kmh NE 21.3 mph34.3 kmh 29.75 in1007.5 mb 0.00 in0.0 mm 0.00 in/hr0.0 mm/hr 0.02 in0.5 mm
11:50 AM 53.6°F12.0°C 48.6°F9.2°C 83% 11.4 mph NE18.3 kmh NE 21.3 mph34.3 kmh 29.75 in1007.5 mb 0.00 in0.0 mm 0.00 in/hr0.0 mm/hr 0.02 in0.5 mm
11:49 AM 53.6°F12.0°C 49.2°F9.6°C 85% 13.0 mph NE20.9 kmh NE 21.3 mph34.3 kmh 29.75 in1007.5 mb 0.00 in0.0 mm 0.00 in/hr0.0 mm/hr 0.02 in0.5 mm
11:48 AM 53.6°F12.0°C 49.2°F9.6°C 85% 7.6 mph NNE12.2 kmh NNE 21.3 mph34.3 kmh 29.75 in1007.5 mb 0.00 in0.0 mm 0.00 in/hr0.0 mm/hr 0.02 in0.5 mm
11:47 AM 53.8°F12.1°C 48.7°F9.3°C 83% 6.9 mph NNE11.1 kmh NNE 21.3 mph34.3 kmh 29.75 in1007.5 mb 0.00 in0.0 mm 0.00 in/hr0.0 mm/hr 0.02 in0.5 mm
11:46 AM 53.6°F12.0°C 48.6°F9.2°C 83% 7.6 mph N12.2 kmh N 21.3 mph34.3 kmh 29.75 in1007.5 mb 0.00 in0.0 mm 0.00 in/hr0.0 mm/hr 0.02 in0.5 mm
11:45 AM 53.8°F12.1°C 48.7°F9.3°C 83% 12.1 mph NNE19.5 kmh NNE 21.3 mph34.3 kmh 29.74 in1007.1 mb 0.00 in0.0 mm 0.00 in/hr0.0 mm/hr 0.02 in0.5 mm
11:44 AM 53.8°F12.1°C 49.4°F9.7°C 85% 8.3 mph N13.4 kmh N 21.3 mph34.3 kmh 29.75 in1007.5 mb 0.00 in0.0 mm 0.00 in/hr0.0 mm/hr 0.02 in0.5 mm
11:43 AM 53.8°F12.1°C 49.4°F9.7°C 85% 8.3 mph N13.4 kmh N 21.3 mph34.3 kmh 29.75 in1007.5 mb 0.00 in0.0 mm 0.00 in/hr0.0 mm/hr 0.02 in0.5 mm
11:42 AM 54.0°F12.2°C 48.9°F9.4°C 83% 6.0 mph N9.7 kmh N 21.3 mph34.3 kmh 29.75 in1007.5 mb 0.00 in0.0 mm 0.00 in/hr0.0 mm/hr 0.02 in0.5 mm
11:41 AM 53.8°F12.1°C 48.7°F9.3°C 83% 10.7 mph N17.2 kmh N 21.3 mph34.3 kmh 29.75 in1007.5 mb 0.00 in0.0 mm 0.00 in/hr0.0 mm/hr 0.02 in0.5 mm
11:40 AM 53.8°F12.1°C 49.4°F9.7°C 85% 6.9 mph N11.1 kmh N 15.9 mph25.6 kmh 29.74 in1007.1 mb 0.00 in0.0 mm 0.00 in/hr0.0 mm/hr 0.02 in0.5 mm
11:39 AM 53.8°F12.1°C 48.7°F9.3°C 83% 9.2 mph N14.8 kmh N 15.9 mph25.6 kmh 29.74 in1007.1 mb 0.00 in0.0 mm 0.00 in/hr0.0 mm/hr 0.02 in0.5 mm
11:38 AM 53.8°F12.1°C 49.4°F9.7°C 85% 8.3 mph N13.4 kmh N 15.9 mph25.6 kmh 29.74 in1007.1 mb 0.00 in0.0 mm 0.00 in/hr0.0 mm/hr 0.02 in0.5 mm
11:37 AM 53.8°F12.1°C 49.4°F9.7°C 85% 7.6 mph NNE12.2 kmh NNE 15.9 mph25.6 kmh 29.74 in1007.1 mb 0.00 in0.0 mm 0.00 in/hr0.0 mm/hr 0.02 in0.5 mm
11:36 AM 53.8°F12.1°C 49.4°F9.7°C 85% 7.6 mph NE12.2 kmh NE 14.5 mph23.3 kmh 29.74 in1007.1 mb 0.00 in0.0 mm 0.00 in/hr0.0 mm/hr 0.02 in0.5 mm
11:35 AM 53.8°F12.1°C 49.4°F9.7°C 85% 6.9 mph NE11.1 kmh NE 15.2 mph24.5 kmh 29.74 in1007.1 mb 0.00 in0.0 mm 0.00 in/hr0.0 mm/hr 0.02 in0.5 mm
11:34 AM 53.6°F12.0°C 49.2°F9.6°C 85% 12.1 mph NE19.5 kmh NE 15.2 mph24.5 kmh 29.75 in1007.5 mb 0.00 in0.0 mm 0.00 in/hr0.0 mm/hr 0.02 in0.5 mm
11:33 AM 53.6°F12.0°C 49.2°F9.6°C 85% 7.6 mph NE12.2 kmh NE 15.2 mph24.5 kmh 29.75 in1007.5 mb 0.00 in0.0 mm 0.00 in/hr0.0 mm/hr 0.02 in0.5 mm
11:32 AM 53.6°F12.0°C 49.2°F9.6°C 85% 10.7 mph NE17.2 kmh NE 15.2 mph24.5 kmh 29.75 in1007.5 mb 0.00 in0.0 mm 0.00 in/hr0.0 mm/hr 0.02 in0.5 mm
11:31 AM 53.6°F12.0°C 49.2°F9.6°C 85% 6.9 mph NE11.1 kmh NE 15.9 mph25.6 kmh 29.75 in1007.5 mb 0.00 in0.0 mm 0.00 in/hr0.0 mm/hr 0.02 in0.5 mm
11:30 AM 53.6°F12.0°C 49.2°F9.6°C 85% 6.0 mph NE9.7 kmh NE 15.9 mph25.6 kmh 29.74 in1007.1 mb 0.00 in0.0 mm 0.00 in/hr0.0 mm/hr 0.02 in0.5 mm
11:29 AM 53.6°F12.0°C 49.2°F9.6°C 85% 3.8 mph NE6.1 kmh NE 15.9 mph25.6 kmh 29.74 in1007.1 mb 0.00 in0.0 mm 0.00 in/hr0.0 mm/hr 0.02 in0.5 mm
11:28 AM 53.6°F12.0°C 49.5°F9.7°C 86% 6.0 mph NE9.7 kmh NE 15.9 mph25.6 kmh 29.74 in1007.1 mb 0.00 in0.0 mm 0.00 in/hr0.0 mm/hr 0.02 in0.5 mm
11:27 AM 53.6°F12.0°C 49.2°F9.6°C 85% 6.0 mph NE9.7 kmh NE 17.4 mph28.0 kmh 29.74 in1007.1 mb 0.00 in0.0 mm 0.00 in/hr0.0 mm/hr 0.02 in0.5 mm
11:26 AM 53.6°F12.0°C 49.2°F9.6°C 85% 5.4 mph NE8.7 kmh NE 17.4 mph28.0 kmh 29.74 in1007.1 mb 0.00 in0.0 mm 0.00 in/hr0.0 mm/hr 0.02 in0.5 mm
11:25 AM 53.4°F11.9°C 49.3°F9.6°C 86% 3.8 mph NE6.1 kmh NE 17.4 mph28.0 kmh 29.74 in1007.1 mb 0.00 in0.0 mm 0.00 in/hr0.0 mm/hr 0.02 in0.5 mm
11:24 AM 53.4°F11.9°C 49.3°F9.6°C 86% 7.6 mph NE12.2 kmh NE 17.4 mph28.0 kmh 29.74 in1007.1 mb 0.00 in0.0 mm 0.00 in/hr0.0 mm/hr 0.02 in0.5 mm
11:23 AM 53.4°F11.9°C 49.3°F9.6°C 86% 6.9 mph NE11.1 kmh NE 17.4 mph28.0 kmh 29.74 in1007.1 mb 0.00 in0.0 mm 0.00 in/hr0.0 mm/hr 0.02 in0.5 mm
11:22 AM 53.4°F11.9°C 49.3°F9.6°C 86% 8.3 mph ENE13.4 kmh ENE 19.0 mph30.6 kmh 29.74 in1007.1 mb 0.00 in0.0 mm 0.00 in/hr0.0 mm/hr 0.02 in0.5 mm
11:21 AM 53.2°F11.8°C 49.2°F9.6°C 86% 12.1 mph NE19.5 kmh NE 21.3 mph34.3 kmh 29.74 in1007.1 mb 0.00 in0.0 mm 0.00 in/hr0.0 mm/hr 0.02 in0.5 mm
11:20 AM 53.2°F11.8°C 49.2°F9.6°C 86% 8.3 mph NE13.4 kmh NE 25.1 mph40.4 kmh 29.74 in1007.1 mb 0.00 in0.0 mm 0.00 in/hr0.0 mm/hr 0.02 in0.5 mm
11:19 AM 53.2°F11.8°C 49.2°F9.6°C 86% 11.4 mph NE18.3 kmh NE 25.1 mph40.4 kmh 29.74 in1007.1 mb 0.00 in0.0 mm 0.00 in/hr0.0 mm/hr 0.02 in0.5 mm
11:18 AM 53.2°F11.8°C 48.9°F9.4°C 85% 11.4 mph NE18.3 kmh NE 25.1 mph40.4 kmh 29.74 in1007.1 mb 0.00 in0.0 mm 0.00 in/hr0.0 mm/hr 0.02 in0.5 mm
11:17 AM 53.2°F11.8°C 48.9°F9.4°C 85% 10.7 mph NE17.2 kmh NE 25.1 mph40.4 kmh 29.74 in1007.1 mb 0.00 in0.0 mm 0.00 in/hr0.0 mm/hr 0.02 in0.5 mm
11:16 AM 53.2°F11.8°C 49.2°F9.6°C 86% 10.7 mph NE17.2 kmh NE 25.1 mph40.4 kmh 29.74 in1007.1 mb 0.00 in0.0 mm 0.00 in/hr0.0 mm/hr 0.02 in0.5 mm
11:15 AM 53.2°F11.8°C 49.2°F9.6°C 86% 10.7 mph ENE17.2 kmh ENE 25.1 mph40.4 kmh 29.75 in1007.5 mb 0.00 in0.0 mm 0.00 in/hr0.0 mm/hr 0.02 in0.5 mm
11:14 AM 53.2°F11.8°C 49.2°F9.6°C 86% 10.7 mph ENE17.2 kmh ENE 25.1 mph40.4 kmh 29.75 in1007.5 mb 0.00 in0.0 mm 0.00 in/hr0.0 mm/hr 0.02 in0.5 mm
11:13 AM 53.2°F11.8°C 48.9°F9.4°C 85% 11.4 mph ENE18.3 kmh ENE 25.1 mph40.4 kmh 29.75 in1007.5 mb 0.00 in0.0 mm 0.00 in/hr0.0 mm/hr 0.02 in0.5 mm
11:12 AM 53.2°F11.8°C 48.9°F9.4°C 85% 12.1 mph NE19.5 kmh NE 25.1 mph40.4 kmh 29.74 in1007.1 mb 0.00 in0.0 mm 0.00 in/hr0.0 mm/hr 0.02 in0.5 mm
11:11 AM 53.1°F11.7°C 48.7°F9.3°C 85% 13.6 mph NE21.9 kmh NE 25.1 mph40.4 kmh 29.75 in1007.5 mb 0.00 in0.0 mm 0.00 in/hr0.0 mm/hr 0.02 in0.5 mm
11:10 AM 53.2°F11.8°C 48.9°F9.4°C 85% 15.2 mph ENE24.5 kmh ENE 25.1 mph40.4 kmh 29.75 in1007.5 mb 0.00 in0.0 mm 0.00 in/hr0.0 mm/hr 0.02 in0.5 mm
11:09 AM 53.4°F11.9°C 49.3°F9.6°C 86% 6.9 mph ENE11.1 kmh ENE 22.8 mph36.7 kmh 29.75 in1007.5 mb 0.00 in0.0 mm 0.00 in/hr0.0 mm/hr 0.02 in0.5 mm
11:08 AM 53.2°F11.8°C 48.9°F9.4°C 85% 7.6 mph NE12.2 kmh NE 22.8 mph36.7 kmh 29.75 in1007.5 mb 0.00 in0.0 mm 0.00 in/hr0.0 mm/hr 0.02 in0.5 mm
11:07 AM 53.4°F11.9°C 49.0°F9.4°C 85% 13.6 mph ENE21.9 kmh ENE 22.8 mph36.7 kmh 29.75 in1007.5 mb 0.00 in0.0 mm 0.00 in/hr0.0 mm/hr 0.02 in0.5 mm
11:06 AM 53.4°F11.9°C 49.3°F9.6°C 86% 13.6 mph ENE21.9 kmh ENE 22.8 mph36.7 kmh 29.74 in1007.1 mb 0.00 in0.0 mm 0.00 in/hr0.0 mm/hr 0.02 in0.5 mm
11:05 AM 53.4°F11.9°C 49.3°F9.6°C 86% 8.3 mph ENE13.4 kmh ENE 18.3 mph29.5 kmh 29.75 in1007.5 mb 0.00 in0.0 mm 0.00 in/hr0.0 mm/hr 0.02 in0.5 mm
11:04 AM 53.4°F11.9°C 49.3°F9.6°C 86% 6.0 mph NE9.7 kmh NE 19.0 mph30.6 kmh 29.75 in1007.5 mb 0.00 in0.0 mm 0.00 in/hr0.0 mm/hr 0.02 in0.5 mm
11:03 AM 53.4°F11.9°C 49.3°F9.6°C 86% 8.3 mph NE13.4 kmh NE 19.0 mph30.6 kmh 29.75 in1007.5 mb 0.00 in0.0 mm 0.00 in/hr0.0 mm/hr 0.02 in0.5 mm
11:02 AM 53.4°F11.9°C 49.3°F9.6°C 86% 6.0 mph NE9.7 kmh NE 19.0 mph30.6 kmh 29.75 in1007.5 mb 0.00 in0.0 mm 0.00 in/hr0.0 mm/hr 0.02 in0.5 mm
11:01 AM 53.2°F11.8°C 49.2°F9.6°C 86% 6.9 mph NE11.1 kmh NE 20.6 mph33.2 kmh 29.75 in1007.5 mb 0.00 in0.0 mm 0.00 in/hr0.0 mm/hr 0.02 in0.5 mm
11:00 AM 53.1°F11.7°C 48.7°F9.3°C 85% 6.9 mph NE11.1 kmh NE 20.6 mph33.2 kmh 29.75 in1007.5 mb 0.00 in0.0 mm 0.00 in/hr0.0 mm/hr 0.02 in0.5 mm
10:59 AM 53.2°F11.8°C 48.9°F9.4°C 85% 9.8 mph NE15.8 kmh NE 20.6 mph33.2 kmh 29.75 in1007.5 mb 0.00 in0.0 mm 0.00 in/hr0.0 mm/hr 0.02 in0.5 mm
10:58 AM 53.2°F11.8°C 48.9°F9.4°C 85% 10.7 mph NE17.2 kmh NE 21.3 mph34.3 kmh 29.76 in1007.8 mb 0.00 in0.0 mm 0.00 in/hr0.0 mm/hr 0.02 in0.5 mm
10:57 AM 53.2°F11.8°C 49.2°F9.6°C 86% 8.3 mph NE13.4 kmh NE 21.3 mph34.3 kmh 29.75 in1007.5 mb 0.00 in0.0 mm 0.00 in/hr0.0 mm/hr 0.02 in0.5 mm
10:56 AM 53.1°F11.7°C 48.7°F9.3°C 85% 8.3 mph NE13.4 kmh NE 21.3 mph34.3 kmh 29.75 in1007.5 mb 0.00 in0.0 mm 0.00 in/hr0.0 mm/hr 0.02 in0.5 mm
10:55 AM 53.1°F11.7°C 48.7°F9.3°C 85% 13.6 mph NE21.9 kmh NE 25.1 mph40.4 kmh 29.75 in1007.5 mb 0.00 in0.0 mm 0.00 in/hr0.0 mm/hr 0.02 in0.5 mm
10:54 AM 53.1°F11.7°C 48.7°F9.3°C 85% 13.0 mph NE20.9 kmh NE 25.1 mph40.4 kmh 29.75 in1007.5 mb 0.00 in0.0 mm 0.00 in/hr0.0 mm/hr 0.02 in0.5 mm
10:53 AM 53.1°F11.7°C 48.7°F9.3°C 85% 11.4 mph NE18.3 kmh NE 25.1 mph40.4 kmh 29.75 in1007.5 mb 0.00 in0.0 mm 0.00 in/hr0.0 mm/hr 0.02 in0.5 mm
10:52 AM 53.2°F11.8°C 48.9°F9.4°C 85% 9.8 mph ENE15.8 kmh ENE 25.1 mph40.4 kmh 29.75 in1007.5 mb 0.00 in0.0 mm 0.00 in/hr0.0 mm/hr 0.02 in0.5 mm
10:51 AM 53.1°F11.7°C 48.7°F9.3°C 85% 15.9 mph ENE25.6 kmh ENE 25.1 mph40.4 kmh 29.75 in1007.5 mb 0.00 in0.0 mm 0.00 in/hr0.0 mm/hr 0.02 in0.5 mm
10:50 AM 53.2°F11.8°C 48.9°F9.4°C 85% 13.0 mph ENE20.9 kmh ENE 25.1 mph40.4 kmh 29.75 in1007.5 mb 0.00 in0.0 mm 0.00 in/hr0.0 mm/hr 0.02 in0.5 mm
10:49 AM 53.4°F11.9°C 49.0°F9.4°C 85% 13.6 mph ENE21.9 kmh ENE 25.1 mph40.4 kmh 29.75 in1007.5 mb 0.00 in0.0 mm 0.00 in/hr0.0 mm/hr 0.02 in0.5 mm
10:48 AM 53.4°F11.9°C 49.0°F9.4°C 85% 9.8 mph ENE15.8 kmh ENE 25.1 mph40.4 kmh 29.75 in1007.5 mb 0.00 in0.0 mm 0.00 in/hr0.0 mm/hr 0.02 in0.5 mm
10:47 AM 53.4°F11.9°C 49.0°F9.4°C 85% 10.7 mph NE17.2 kmh NE 25.1 mph40.4 kmh 29.75 in1007.5 mb 0.00 in0.0 mm 0.00 in/hr0.0 mm/hr 0.02 in0.5 mm
10:46 AM 53.2°F11.8°C 48.2°F9.0°C 83% 4.5 mph NE7.2 kmh NE 25.1 mph40.4 kmh 29.75 in1007.5 mb 0.00 in0.0 mm 0.00 in/hr0.0 mm/hr 0.02 in0.5 mm
10:45 AM 53.6°F12.0°C 48.6°F9.2°C 83% 11.4 mph NE18.3 kmh NE 25.1 mph40.4 kmh 29.75 in1007.5 mb 0.00 in0.0 mm 0.00 in/hr0.0 mm/hr 0.02 in0.5 mm
10:44 AM 53.6°F12.0°C 48.6°F9.2°C 83% 7.6 mph NE12.2 kmh NE 22.8 mph36.7 kmh 29.74 in1007.1 mb 0.00 in0.0 mm 0.00 in/hr0.0 mm/hr 0.02 in0.5 mm
10:43 AM 53.6°F12.0°C 48.6°F9.2°C 83% 7.6 mph NE12.2 kmh NE 22.8 mph36.7 kmh 29.75 in1007.5 mb 0.00 in0.0 mm 0.00 in/hr0.0 mm/hr 0.02 in0.5 mm
10:42 AM 53.6°F12.0°C 48.6°F9.2°C 83% 6.9 mph NE11.1 kmh NE 22.8 mph36.7 kmh 29.75 in1007.5 mb 0.00 in0.0 mm 0.00 in/hr0.0 mm/hr 0.02 in0.5 mm
10:41 AM 53.6°F12.0°C 48.6°F9.2°C 83% 14.5 mph NE23.3 kmh NE 22.8 mph36.7 kmh 29.75 in1007.5 mb 0.00 in0.0 mm 0.00 in/hr0.0 mm/hr 0.02 in0.5 mm
10:40 AM 53.4°F11.9°C 48.4°F9.1°C 83% 13.0 mph NE20.9 kmh NE 22.8 mph36.7 kmh 29.75 in1007.5 mb 0.00 in0.0 mm 0.00 in/hr0.0 mm/hr 0.02 in0.5 mm
10:39 AM 53.4°F11.9°C 48.4°F9.1°C 83% 13.6 mph NE21.9 kmh NE 22.8 mph36.7 kmh 29.75 in1007.5 mb 0.00 in0.0 mm 0.00 in/hr0.0 mm/hr 0.02 in0.5 mm
10:38 AM 53.4°F11.9°C 48.4°F9.1°C 83% 12.1 mph ENE19.5 kmh ENE 22.8 mph36.7 kmh 29.75 in1007.5 mb 0.00 in0.0 mm 0.00 in/hr0.0 mm/hr 0.02 in0.5 mm
10:37 AM 53.6°F12.0°C 48.2°F9.0°C 82% 16.8 mph ENE27.0 kmh ENE 22.8 mph36.7 kmh 29.75 in1007.5 mb 0.00 in0.0 mm 0.00 in/hr0.0 mm/hr 0.02 in0.5 mm
10:36 AM 53.8°F12.1°C 48.7°F9.3°C 83% 10.7 mph ENE17.2 kmh ENE 21.3 mph34.3 kmh 29.75 in1007.5 mb 0.00 in0.0 mm 0.00 in/hr0.0 mm/hr 0.02 in0.5 mm
10:35 AM 53.8°F12.1°C 48.7°F9.3°C 83% 10.7 mph NE17.2 kmh NE 20.6 mph33.2 kmh 29.75 in1007.5 mb 0.00 in0.0 mm 0.00 in/hr0.0 mm/hr 0.02 in0.5 mm
10:34 AM 53.8°F12.1°C 48.7°F9.3°C 83% 6.9 mph ENE11.1 kmh ENE 22.8 mph36.7 kmh 29.75 in1007.5 mb 0.00 in0.0 mm 0.00 in/hr0.0 mm/hr 0.02 in0.5 mm
10:33 AM 53.4°F11.9°C 49.0°F9.4°C 85% 8.3 mph ENE13.4 kmh ENE 25.1 mph40.4 kmh 29.75 in1007.5 mb 0.00 in0.0 mm 0.00 in/hr0.0 mm/hr 0.02 in0.5 mm
10:32 AM 53.2°F11.8°C 49.2°F9.6°C 86% 9.8 mph ENE15.8 kmh ENE 25.1 mph40.4 kmh 29.75 in1007.5 mb 0.00 in0.0 mm 0.00 in/hr0.0 mm/hr 0.02 in0.5 mm
10:31 AM 53.2°F11.8°C 49.2°F9.6°C 86% 5.4 mph ENE8.7 kmh ENE 25.1 mph40.4 kmh 29.75 in1007.5 mb 0.00 in0.0 mm 0.00 in/hr0.0 mm/hr 0.02 in0.5 mm
10:30 AM 53.1°F11.7°C 48.7°F9.3°C 85% 6.0 mph ENE9.7 kmh ENE 25.1 mph40.4 kmh 29.75 in1007.5 mb 0.00 in0.0 mm 0.00 in/hr0.0 mm/hr 0.02 in0.5 mm
10:29 AM 53.1°F11.7°C 49.0°F9.4°C 86% 7.6 mph NE12.2 kmh NE 25.1 mph40.4 kmh 29.75 in1007.5 mb 0.00 in0.0 mm 0.00 in/hr0.0 mm/hr 0.02 in0.5 mm
10:28 AM 52.9°F11.6°C 48.8°F9.3°C 86% 6.9 mph NE11.1 kmh NE 25.1 mph40.4 kmh 29.75 in1007.5 mb 0.00 in0.0 mm 0.00 in/hr0.0 mm/hr 0.02 in0.5 mm
10:27 AM 52.9°F11.6°C 48.8°F9.3°C 86% 9.2 mph NE14.8 kmh NE 25.1 mph40.4 kmh 29.75 in1007.5 mb 0.00 in0.0 mm 0.00 in/hr0.0 mm/hr 0.02 in0.5 mm
10:26 AM 52.9°F11.6°C 48.5°F9.2°C 85% 13.0 mph NE20.9 kmh NE 25.1 mph40.4 kmh 29.75 in1007.5 mb 0.00 in0.0 mm 0.00 in/hr0.0 mm/hr 0.02 in0.5 mm
10:25 AM 52.7°F11.5°C 48.6°F9.2°C 86% 13.0 mph NE20.9 kmh NE 25.1 mph40.4 kmh 29.75 in1007.5 mb 0.00 in0.0 mm 0.00 in/hr0.0 mm/hr 0.02 in0.5 mm
10:24 AM 52.9°F11.6°C 48.8°F9.3°C 86% 15.2 mph NE24.5 kmh NE 25.1 mph40.4 kmh 29.75 in1007.5 mb 0.00 in0.0 mm 0.00 in/hr0.0 mm/hr 0.02 in0.5 mm
10:23 AM 52.7°F11.5°C 48.6°F9.2°C 86% 13.0 mph NE20.9 kmh NE 24.4 mph39.3 kmh 29.75 in1007.5 mb 0.00 in0.0 mm 0.00 in/hr0.0 mm/hr 0.02 in0.5 mm
10:22 AM 52.7°F11.5°C 48.6°F9.2°C 86% 10.7 mph NE17.2 kmh NE 24.4 mph39.3 kmh 29.75 in1007.5 mb 0.00 in0.0 mm 0.00 in/hr0.0 mm/hr 0.02 in0.5 mm
10:21 AM 52.5°F11.4°C 48.5°F9.2°C 86% 13.6 mph NE21.9 kmh NE 24.4 mph39.3 kmh 29.75 in1007.5 mb 0.00 in0.0 mm 0.00 in/hr0.0 mm/hr 0.02 in0.5 mm
10:20 AM 52.7°F11.5°C 48.6°F9.2°C 86% 14.5 mph NE23.3 kmh NE 24.4 mph39.3 kmh 29.75 in1007.5 mb 0.00 in0.0 mm 0.00 in/hr0.0 mm/hr 0.02 in0.5 mm
10:19 AM 52.5°F11.4°C 48.5°F9.2°C 86% 13.0 mph NE20.9 kmh NE 19.7 mph31.7 kmh 29.75 in1007.5 mb 0.00 in0.0 mm 0.00 in/hr0.0 mm/hr 0.02 in0.5 mm
10:18 AM 52.5°F11.4°C 48.8°F9.3°C 87% 10.7 mph NE17.2 kmh NE 19.0 mph30.6 kmh 29.75 in1007.5 mb 0.00 in0.0 mm 0.00 in/hr0.0 mm/hr 0.02 in0.5 mm
10:17 AM 52.5°F11.4°C 48.8°F9.3°C 87% 8.3 mph NE13.4 kmh NE 19.7 mph31.7 kmh 29.75 in1007.5 mb 0.00 in0.0 mm 0.00 in/hr0.0 mm/hr 0.02 in0.5 mm
10:16 AM 52.3°F11.3°C 48.6°F9.2°C 87% 5.4 mph ENE8.7 kmh ENE 19.7 mph31.7 kmh 29.75 in1007.5 mb 0.00 in0.0 mm 0.00 in/hr0.0 mm/hr 0.02 in0.5 mm
10:15 AM 52.3°F11.3°C 48.6°F9.2°C 87% 9.8 mph NE15.8 kmh NE 21.3 mph34.3 kmh 29.75 in1007.5 mb 0.00 in0.0 mm 0.00 in/hr0.0 mm/hr 0.02 in0.5 mm
10:14 AM 52.3°F11.3°C 48.6°F9.2°C 87% 7.6 mph NE12.2 kmh NE 21.3 mph34.3 kmh 29.75 in1007.5 mb 0.00 in0.0 mm 0.00 in/hr0.0 mm/hr 0.02 in0.5 mm
10:13 AM 52.3°F11.3°C 48.6°F9.2°C 87% 8.3 mph NE13.4 kmh NE 21.3 mph34.3 kmh 29.75 in1007.5 mb 0.00 in0.0 mm 0.00 in/hr0.0 mm/hr 0.02 in0.5 mm
10:12 AM 52.3°F11.3°C 48.6°F9.2°C 87% 6.9 mph NE11.1 kmh NE 21.3 mph34.3 kmh 29.75 in1007.5 mb 0.00 in0.0 mm 0.00 in/hr0.0 mm/hr 0.02 in0.5 mm
10:11 AM 52.3°F11.3°C 48.6°F9.2°C 87% 9.2 mph NE14.8 kmh NE 21.3 mph34.3 kmh 29.75 in1007.5 mb 0.00 in0.0 mm 0.00 in/hr0.0 mm/hr 0.02 in0.5 mm
10:10 AM 52.3°F11.3°C 48.6°F9.2°C 87% 9.8 mph NE15.8 kmh NE 21.3 mph34.3 kmh 29.75 in1007.5 mb 0.00 in0.0 mm 0.00 in/hr0.0 mm/hr 0.02 in0.5 mm
10:09 AM 52.3°F11.3°C 48.3°F9.1°C 86% 12.1 mph NE19.5 kmh NE 21.3 mph34.3 kmh 29.75 in1007.5 mb 0.00 in0.0 mm 0.00 in/hr0.0 mm/hr 0.02 in0.5 mm
10:08 AM 52.3°F11.3°C 48.3°F9.1°C 86% 15.9 mph NE25.6 kmh NE 21.3 mph34.3 kmh 29.75 in1007.5 mb 0.00 in0.0 mm 0.00 in/hr0.0 mm/hr 0.02 in0.5 mm
10:07 AM 52.3°F11.3°C 48.6°F9.2°C 87% 13.0 mph NE20.9 kmh NE 21.3 mph34.3 kmh 29.74 in1007.1 mb 0.00 in0.0 mm 0.00 in/hr0.0 mm/hr 0.02 in0.5 mm
10:06 AM 52.3°F11.3°C 48.6°F9.2°C 87% 11.4 mph NE18.3 kmh NE 21.3 mph34.3 kmh 29.75 in1007.5 mb 0.00 in0.0 mm 0.00 in/hr0.0 mm/hr 0.02 in0.5 mm
10:05 AM 52.3°F11.3°C 48.6°F9.2°C 87% 8.3 mph NE13.4 kmh NE 21.3 mph34.3 kmh 29.75 in1007.5 mb 0.00 in0.0 mm 0.00 in/hr0.0 mm/hr 0.02 in0.5 mm
10:04 AM 52.3°F11.3°C 48.6°F9.2°C 87% 13.0 mph NE20.9 kmh NE 21.3 mph34.3 kmh 29.75 in1007.5 mb 0.00 in0.0 mm 0.00 in/hr0.0 mm/hr 0.02 in0.5 mm
10:03 AM 52.3°F11.3°C 48.9°F9.4°C 88% 13.6 mph ENE21.9 kmh ENE 21.3 mph34.3 kmh 29.75 in1007.5 mb 0.00 in0.0 mm 0.00 in/hr0.0 mm/hr 0.02 in0.5 mm
10:02 AM 52.3°F11.3°C 48.9°F9.4°C 88% 3.8 mph ENE6.1 kmh ENE 18.3 mph29.5 kmh 29.75 in1007.5 mb 0.00 in0.0 mm 0.00 in/hr0.0 mm/hr 0.02 in0.5 mm
10:01 AM 52.3°F11.3°C 48.6°F9.2°C 87% 8.3 mph ENE13.4 kmh ENE 18.3 mph29.5 kmh 29.75 in1007.5 mb 0.00 in0.0 mm 0.00 in/hr0.0 mm/hr 0.02 in0.5 mm
10:00 AM 52.3°F11.3°C 48.6°F9.2°C 87% 8.3 mph ENE13.4 kmh ENE 18.3 mph29.5 kmh 29.75 in1007.5 mb 0.00 in0.0 mm 0.00 in/hr0.0 mm/hr 0.02 in0.5 mm
09:59 AM 52.3°F11.3°C 48.9°F9.4°C 88% 6.9 mph ENE11.1 kmh ENE 18.3 mph29.5 kmh 29.75 in1007.5 mb 0.00 in0.0 mm 0.00 in/hr0.0 mm/hr 0.02 in0.5 mm
09:58 AM 52.3°F11.3°C 48.6°F9.2°C 87% 5.4 mph ENE8.7 kmh ENE 18.3 mph29.5 kmh 29.75 in1007.5 mb 0.00 in0.0 mm 0.00 in/hr0.0 mm/hr 0.02 in0.5 mm
09:57 AM 52.3°F11.3°C 48.6°F9.2°C 87% 9.2 mph ENE14.8 kmh ENE 20.6 mph33.2 kmh 29.75 in1007.5 mb 0.00 in0.0 mm 0.00 in/hr0.0 mm/hr 0.02 in0.5 mm
09:56 AM 52.3°F11.3°C 48.6°F9.2°C 87% 8.3 mph ENE13.4 kmh ENE 20.6 mph33.2 kmh 29.75 in1007.5 mb 0.00 in0.0 mm 0.00 in/hr0.0 mm/hr 0.02 in0.5 mm
09:55 AM 52.3°F11.3°C 48.6°F9.2°C 87% 9.8 mph ENE15.8 kmh ENE 20.6 mph33.2 kmh 29.75 in1007.5 mb 0.00 in0.0 mm 0.00 in/hr0.0 mm/hr 0.02 in0.5 mm
09:54 AM 52.2°F11.2°C 48.7°F9.3°C 88% 8.3 mph ENE13.4 kmh ENE 20.6 mph33.2 kmh 29.75 in1007.5 mb 0.00 in0.0 mm 0.00 in/hr0.0 mm/hr 0.02 in0.5 mm
09:53 AM 52.2°F11.2°C 48.4°F9.1°C 87% 5.4 mph ENE8.7 kmh ENE 20.6 mph33.2 kmh 29.75 in1007.5 mb 0.00 in0.0 mm 0.00 in/hr0.0 mm/hr 0.02 in0.5 mm
09:52 AM 52.2°F11.2°C 48.4°F9.1°C 87% 3.1 mph NE5.0 kmh NE 20.6 mph33.2 kmh 29.75 in1007.5 mb 0.00 in0.0 mm 0.00 in/hr0.0 mm/hr 0.02 in0.5 mm
09:51 AM 52.2°F11.2°C 48.4°F9.1°C 87% 7.6 mph NE12.2 kmh NE 20.6 mph33.2 kmh 29.75 in1007.5 mb 0.00 in0.0 mm 0.00 in/hr0.0 mm/hr 0.02 in0.5 mm
09:50 AM 52.2°F11.2°C 48.4°F9.1°C 87% 6.9 mph NE11.1 kmh NE 20.6 mph33.2 kmh 29.75 in1007.5 mb 0.00 in0.0 mm 0.00 in/hr0.0 mm/hr 0.02 in0.5 mm
09:49 AM 52.3°F11.3°C 48.6°F9.2°C 87% 6.9 mph NE11.1 kmh NE 20.6 mph33.2 kmh 29.75 in1007.5 mb 0.00 in0.0 mm 0.00 in/hr0.0 mm/hr 0.02 in0.5 mm
09:48 AM 52.2°F11.2°C 48.4°F9.1°C 87% 12.1 mph NE19.5 kmh NE 20.6 mph33.2 kmh 29.75 in1007.5 mb 0.00 in0.0 mm 0.00 in/hr0.0 mm/hr 0.02 in0.5 mm
09:47 AM 52.3°F11.3°C 48.3°F9.1°C 86% 7.6 mph NE12.2 kmh NE 19.7 mph31.7 kmh 29.75 in1007.5 mb 0.00 in0.0 mm 0.00 in/hr0.0 mm/hr 0.02 in0.5 mm
09:46 AM 52.3°F11.3°C 48.3°F9.1°C 86% 6.9 mph NE11.1 kmh NE 19.7 mph31.7 kmh 29.75 in1007.5 mb 0.00 in0.0 mm 0.00 in/hr0.0 mm/hr 0.02 in0.5 mm
09:45 AM 52.3°F11.3°C 48.6°F9.2°C 87% 13.6 mph NE21.9 kmh NE 19.7 mph31.7 kmh 29.75 in1007.5 mb 0.00 in0.0 mm 0.00 in/hr0.0 mm/hr 0.02 in0.5 mm
09:44 AM 52.3°F11.3°C 48.3°F9.1°C 86% 8.3 mph NE13.4 kmh NE 19.7 mph31.7 kmh 29.75 in1007.5 mb 0.00 in0.0 mm 0.00 in/hr0.0 mm/hr 0.02 in0.5 mm
09:43 AM 52.3°F11.3°C 48.6°F9.2°C 87% 11.4 mph NE18.3 kmh NE 19.7 mph31.7 kmh 29.75 in1007.5 mb 0.00 in0.0 mm 0.00 in/hr0.0 mm/hr 0.02 in0.5 mm
09:42 AM 52.3°F11.3°C 48.6°F9.2°C 87% 10.7 mph NE17.2 kmh NE 17.4 mph28.0 kmh 29.75 in1007.5 mb 0.00 in0.0 mm 0.00 in/hr0.0 mm/hr 0.02 in0.5 mm
09:41 AM 52.3°F11.3°C 48.6°F9.2°C 87% 5.4 mph NE8.7 kmh NE 17.4 mph28.0 kmh 29.75 in1007.5 mb 0.00 in0.0 mm 0.00 in/hr0.0 mm/hr 0.02 in0.5 mm
09:40 AM 52.3°F11.3°C 48.3°F9.1°C 86% 9.2 mph NE14.8 kmh NE 17.4 mph28.0 kmh 29.75 in1007.5 mb 0.00 in0.0 mm 0.00 in/hr0.0 mm/hr 0.02 in0.5 mm
09:39 AM 52.2°F11.2°C 48.4°F9.1°C 87% 6.0 mph NE9.7 kmh NE 17.4 mph28.0 kmh 29.75 in1007.5 mb 0.00 in0.0 mm 0.00 in/hr0.0 mm/hr 0.02 in0.5 mm
09:38 AM 52.2°F11.2°C 48.4°F9.1°C 87% 8.3 mph NE13.4 kmh NE 17.4 mph28.0 kmh 29.75 in1007.5 mb 0.00 in0.0 mm 0.00 in/hr0.0 mm/hr 0.02 in0.5 mm
09:37 AM 52.2°F11.2°C 48.4°F9.1°C 87% 6.9 mph NE11.1 kmh NE 17.4 mph28.0 kmh 29.75 in1007.5 mb 0.00 in0.0 mm 0.00 in/hr0.0 mm/hr 0.02 in0.5 mm
09:36 AM 52.2°F11.2°C 48.4°F9.1°C 87% 4.5 mph NE7.2 kmh NE 17.4 mph28.0 kmh 29.75 in1007.5 mb 0.00 in0.0 mm 0.00 in/hr0.0 mm/hr 0.02 in0.5 mm
09:35 AM 52.2°F11.2°C 48.4°F9.1°C 87% 10.7 mph NE17.2 kmh NE 17.4 mph28.0 kmh 29.75 in1007.5 mb 0.00 in0.0 mm 0.00 in/hr0.0 mm/hr 0.02 in0.5 mm
09:34 AM 52.2°F11.2°C 48.4°F9.1°C 87% 9.2 mph NE14.8 kmh NE 17.4 mph28.0 kmh 29.75 in1007.5 mb 0.00 in0.0 mm 0.00 in/hr0.0 mm/hr 0.02 in0.5 mm
09:33 AM 52.0°F11.1°C 48.2°F9.0°C 87% 9.2 mph NE14.8 kmh NE 17.4 mph28.0 kmh 29.75 in1007.5 mb 0.00 in0.0 mm 0.00 in/hr0.0 mm/hr 0.02 in0.5 mm
09:32 AM 52.0°F11.1°C 48.5°F9.2°C 88% 15.2 mph NE24.5 kmh NE 17.4 mph28.0 kmh 29.75 in1007.5 mb 0.00 in0.0 mm 0.00 in/hr0.0 mm/hr 0.02 in0.5 mm
09:31 AM 52.0°F11.1°C 48.5°F9.2°C 88% 7.6 mph NE12.2 kmh NE 15.2 mph24.5 kmh 29.75 in1007.5 mb 0.00 in0.0 mm 0.00 in/hr0.0 mm/hr 0.02 in0.5 mm
09:30 AM 52.0°F11.1°C 48.5°F9.2°C 88% 3.8 mph NE6.1 kmh NE 13.0 mph20.9 kmh 29.75 in1007.5 mb 0.00 in0.0 mm 0.00 in/hr0.0 mm/hr 0.02 in0.5 mm
09:29 AM 51.8°F11.0°C 48.4°F9.1°C 88% 8.3 mph NE13.4 kmh NE 13.6 mph21.9 kmh 29.75 in1007.5 mb 0.00 in0.0 mm 0.00 in/hr0.0 mm/hr 0.02 in0.5 mm
09:28 AM 51.8°F11.0°C 48.4°F9.1°C 88% 3.1 mph NE5.0 kmh NE 13.6 mph21.9 kmh 29.75 in1007.5 mb 0.00 in0.0 mm 0.00 in/hr0.0 mm/hr 0.02 in0.5 mm
09:27 AM 51.8°F11.0°C 48.4°F9.1°C 88% 6.9 mph NE11.1 kmh NE 17.4 mph28.0 kmh 29.75 in1007.5 mb 0.00 in0.0 mm 0.00 in/hr0.0 mm/hr 0.02 in0.5 mm
09:26 AM 51.6°F10.9°C 49.1°F9.5°C 91% 9.2 mph NE14.8 kmh NE 18.3 mph29.5 kmh 29.75 in1007.5 mb 0.00 in0.0 mm 0.00 in/hr0.0 mm/hr 0.02 in0.5 mm
09:25 AM 51.8°F11.0°C 48.4°F9.1°C 88% 4.5 mph NE7.2 kmh NE 18.3 mph29.5 kmh 29.75 in1007.5 mb 0.00 in0.0 mm 0.00 in/hr0.0 mm/hr 0.02 in0.5 mm
09:24 AM 51.8°F11.0°C 48.4°F9.1°C 88% 3.8 mph NE6.1 kmh NE 18.3 mph29.5 kmh 29.75 in1007.5 mb 0.00 in0.0 mm 0.00 in/hr0.0 mm/hr 0.02 in0.5 mm
09:23 AM 51.8°F11.0°C 48.4°F9.1°C 88% 6.0 mph NE9.7 kmh NE 18.3 mph29.5 kmh 29.75 in1007.5 mb 0.00 in0.0 mm 0.00 in/hr0.0 mm/hr 0.02 in0.5 mm
09:22 AM 51.8°F11.0°C 48.4°F9.1°C 88% 6.0 mph NE9.7 kmh NE 18.3 mph29.5 kmh 29.75 in1007.5 mb 0.00 in0.0 mm 0.00 in/hr0.0 mm/hr 0.02 in0.5 mm
09:21 AM 51.6°F10.9°C 48.8°F9.3°C 90% 5.4 mph NE8.7 kmh NE 18.3 mph29.5 kmh 29.75 in1007.5 mb 0.00 in0.0 mm 0.00 in/hr0.0 mm/hr 0.02 in0.5 mm
09:20 AM 51.8°F11.0°C 48.4°F9.1°C 88% 4.5 mph NE7.2 kmh NE 18.3 mph29.5 kmh 29.75 in1007.5 mb 0.00 in0.0 mm 0.00 in/hr0.0 mm/hr 0.02 in0.5 mm
09:19 AM 51.8°F11.0°C 48.4°F9.1°C 88% 6.0 mph NE9.7 kmh NE 18.3 mph29.5 kmh 29.75 in1007.5 mb 0.00 in0.0 mm 0.00 in/hr0.0 mm/hr 0.02 in0.5 mm
09:18 AM 51.8°F11.0°C 48.4°F9.1°C 88% 5.4 mph NE8.7 kmh NE 18.3 mph29.5 kmh 29.75 in1007.5 mb 0.00 in0.0 mm 0.00 in/hr0.0 mm/hr 0.02 in0.5 mm
09:17 AM 51.8°F11.0°C 49.0°F9.4°C 90% 9.8 mph NE15.8 kmh NE 18.3 mph29.5 kmh 29.75 in1007.5 mb 0.00 in0.0 mm 0.00 in/hr0.0 mm/hr 0.02 in0.5 mm
09:16 AM 51.6°F10.9°C 49.1°F9.5°C 91% 6.0 mph NE9.7 kmh NE 15.9 mph25.6 kmh 29.75 in1007.5 mb 0.00 in0.0 mm 0.00 in/hr0.0 mm/hr 0.02 in0.5 mm
09:15 AM 51.6°F10.9°C 49.1°F9.5°C 91% 6.0 mph ENE9.7 kmh ENE 15.9 mph25.6 kmh 29.75 in1007.5 mb 0.00 in0.0 mm 0.00 in/hr0.0 mm/hr 0.02 in0.5 mm
09:14 AM 51.6°F10.9°C 49.1°F9.5°C 91% 4.5 mph NE7.2 kmh NE 15.9 mph25.6 kmh 29.75 in1007.5 mb 0.00 in0.0 mm 0.00 in/hr0.0 mm/hr 0.02 in0.5 mm
09:13 AM 51.6°F10.9°C 49.1°F9.5°C 91% 5.4 mph ENE8.7 kmh ENE 15.9 mph25.6 kmh 29.75 in1007.5 mb 0.00 in0.0 mm 0.00 in/hr0.0 mm/hr 0.02 in0.5 mm
09:12 AM 51.8°F11.0°C 49.0°F9.4°C 90% 6.0 mph ENE9.7 kmh ENE 15.9 mph25.6 kmh 29.75 in1007.5 mb 0.00 in0.0 mm 0.00 in/hr0.0 mm/hr 0.02 in0.5 mm
09:11 AM 51.8°F11.0°C 48.4°F9.1°C 88% 7.6 mph ENE12.2 kmh ENE 15.9 mph25.6 kmh 29.75 in1007.5 mb 0.00 in0.0 mm 0.00 in/hr0.0 mm/hr 0.02 in0.5 mm
09:10 AM 51.8°F11.0°C 48.4°F9.1°C 88% 7.6 mph ENE12.2 kmh ENE 15.9 mph25.6 kmh 29.75 in1007.5 mb 0.00 in0.0 mm 0.00 in/hr0.0 mm/hr 0.02 in0.5 mm
09:09 AM 51.8°F11.0°C 48.4°F9.1°C 88% 7.6 mph ENE12.2 kmh ENE 15.9 mph25.6 kmh 29.75 in1007.5 mb 0.00 in0.0 mm 0.00 in/hr0.0 mm/hr 0.02 in0.5 mm
09:08 AM 51.8°F11.0°C 48.4°F9.1°C 88% 9.2 mph NE14.8 kmh NE 15.9 mph25.6 kmh 29.75 in1007.5 mb 0.00 in0.0 mm 0.00 in/hr0.0 mm/hr 0.02 in0.5 mm
09:07 AM 51.8°F11.0°C 48.4°F9.1°C 88% 9.2 mph NE14.8 kmh NE 15.9 mph25.6 kmh 29.75 in1007.5 mb 0.00 in0.0 mm 0.00 in/hr0.0 mm/hr 0.02 in0.5 mm
09:06 AM 51.6°F10.9°C 49.1°F9.5°C 91% 9.2 mph NE14.8 kmh NE 14.5 mph23.3 kmh 29.75 in1007.5 mb 0.00 in0.0 mm 0.00 in/hr0.0 mm/hr 0.02 in0.5 mm
09:05 AM 51.6°F10.9°C 49.4°F9.7°C 92% 9.2 mph NE14.8 kmh NE 13.6 mph21.9 kmh 29.75 in1007.5 mb 0.00 in0.0 mm 0.00 in/hr0.0 mm/hr 0.02 in0.5 mm
09:04 AM 51.6°F10.9°C 49.1°F9.5°C 91% 3.1 mph NE5.0 kmh NE 13.6 mph21.9 kmh 29.75 in1007.5 mb 0.00 in0.0 mm 0.00 in/hr0.0 mm/hr 0.02 in0.5 mm
09:03 AM 51.6°F10.9°C 49.1°F9.5°C 91% 6.0 mph NE9.7 kmh NE 16.8 mph27.0 kmh 29.75 in1007.5 mb 0.00 in0.0 mm 0.00 in/hr0.0 mm/hr 0.02 in0.5 mm
09:02 AM 51.6°F10.9°C 49.1°F9.5°C 91% 5.4 mph NNE8.7 kmh NNE 16.8 mph27.0 kmh 29.75 in1007.5 mb 0.00 in0.0 mm 0.00 in/hr0.0 mm/hr 0.02 in0.5 mm
09:01 AM 51.6°F10.9°C 49.1°F9.5°C 91% 9.2 mph NNE14.8 kmh NNE 16.8 mph27.0 kmh 29.75 in1007.5 mb 0.00 in0.0 mm 0.00 in/hr0.0 mm/hr 0.02 in0.5 mm
09:00 AM 51.6°F10.9°C 49.1°F9.5°C 91% 4.5 mph NNE7.2 kmh NNE 16.8 mph27.0 kmh 29.75 in1007.5 mb 0.00 in0.0 mm 0.00 in/hr0.0 mm/hr 0.02 in0.5 mm
08:59 AM 51.6°F10.9°C 49.1°F9.5°C 91% 4.5 mph NNE7.2 kmh NNE 16.8 mph27.0 kmh 29.74 in1007.1 mb 0.00 in0.0 mm 0.00 in/hr0.0 mm/hr 0.02 in0.5 mm
08:58 AM 51.6°F10.9°C 49.1°F9.5°C 91% 3.8 mph NE6.1 kmh NE 16.8 mph27.0 kmh 29.75 in1007.5 mb 0.00 in0.0 mm 0.00 in/hr0.0 mm/hr 0.02 in0.5 mm
08:57 AM 51.6°F10.9°C 49.1°F9.5°C 91% 7.6 mph NE12.2 kmh NE 16.8 mph27.0 kmh 29.75 in1007.5 mb 0.00 in0.0 mm 0.00 in/hr0.0 mm/hr 0.02 in0.5 mm
08:56 AM 51.6°F10.9°C 49.1°F9.5°C 91% 6.0 mph NE9.7 kmh NE 17.4 mph28.0 kmh 29.74 in1007.1 mb 0.00 in0.0 mm 0.00 in/hr0.0 mm/hr 0.02 in0.5 mm
08:55 AM 51.6°F10.9°C 49.1°F9.5°C 91% 4.5 mph NE7.2 kmh NE 17.4 mph28.0 kmh 29.75 in1007.5 mb 0.00 in0.0 mm 0.00 in/hr0.0 mm/hr 0.02 in0.5 mm
08:54 AM 51.6°F10.9°C 49.1°F9.5°C 91% 5.4 mph NE8.7 kmh NE 17.4 mph28.0 kmh 29.75 in1007.5 mb 0.00 in0.0 mm 0.00 in/hr0.0 mm/hr 0.02 in0.5 mm
08:53 AM 51.6°F10.9°C 49.1°F9.5°C 91% 11.4 mph NE18.3 kmh NE 17.4 mph28.0 kmh 29.75 in1007.5 mb 0.00 in0.0 mm 0.00 in/hr0.0 mm/hr 0.02 in0.5 mm
08:52 AM 51.6°F10.9°C 49.1°F9.5°C 91% 4.5 mph NE7.2 kmh NE 17.4 mph28.0 kmh 29.75 in1007.5 mb 0.00 in0.0 mm 0.00 in/hr0.0 mm/hr 0.02 in0.5 mm
08:51 AM 51.6°F10.9°C 49.1°F9.5°C 91% 3.1 mph NE5.0 kmh NE 17.4 mph28.0 kmh 29.75 in1007.5 mb 0.00 in0.0 mm 0.00 in/hr0.0 mm/hr 0.02 in0.5 mm
08:50 AM 51.6°F10.9°C 49.4°F9.7°C 92% 10.7 mph ENE17.2 kmh ENE 17.4 mph28.0 kmh 29.75 in1007.5 mb 0.00 in0.0 mm 0.00 in/hr0.0 mm/hr 0.02 in0.5 mm
08:49 AM 51.4°F10.8°C 49.2°F9.6°C 92% 6.0 mph ENE9.7 kmh ENE 17.4 mph28.0 kmh 29.75 in1007.5 mb 0.00 in0.0 mm 0.00 in/hr0.0 mm/hr 0.02 in0.5 mm
08:48 AM 51.6°F10.9°C 49.4°F9.7°C 92% 3.1 mph ENE5.0 kmh ENE 17.4 mph28.0 kmh 29.75 in1007.5 mb 0.00 in0.0 mm 0.00 in/hr0.0 mm/hr 0.02 in0.5 mm
08:47 AM 51.6°F10.9°C 49.1°F9.5°C 91% 6.0 mph ENE9.7 kmh ENE 17.4 mph28.0 kmh 29.75 in1007.5 mb 0.00 in0.0 mm 0.00 in/hr0.0 mm/hr 0.02 in0.5 mm
08:46 AM 51.8°F11.0°C 49.0°F9.4°C 90% 13.0 mph ENE20.9 kmh ENE 17.4 mph28.0 kmh 29.75 in1007.5 mb 0.00 in0.0 mm 0.00 in/hr0.0 mm/hr 0.02 in0.5 mm
08:45 AM 51.6°F10.9°C 49.4°F9.7°C 92% 9.2 mph NE14.8 kmh NE 16.8 mph27.0 kmh 29.75 in1007.5 mb 0.00 in0.0 mm 0.00 in/hr0.0 mm/hr 0.02 in0.5 mm
08:44 AM 51.6°F10.9°C 49.4°F9.7°C 92% 4.5 mph NE7.2 kmh NE 14.5 mph23.3 kmh 29.75 in1007.5 mb 0.00 in0.0 mm 0.00 in/hr0.0 mm/hr 0.02 in0.5 mm
08:43 AM 51.6°F10.9°C 49.7°F9.8°C 93% 7.6 mph ENE12.2 kmh ENE 14.5 mph23.3 kmh 29.75 in1007.5 mb 0.00 in0.0 mm 0.00 in/hr0.0 mm/hr 0.02 in0.5 mm
08:42 AM 51.6°F10.9°C 49.7°F9.8°C 93% 6.0 mph ENE9.7 kmh ENE 14.5 mph23.3 kmh 29.75 in1007.5 mb 0.00 in0.0 mm 0.00 in/hr0.0 mm/hr 0.02 in0.5 mm
08:41 AM 51.6°F10.9°C 49.7°F9.8°C 93% 7.6 mph ENE12.2 kmh ENE 14.5 mph23.3 kmh 29.75 in1007.5 mb 0.00 in0.0 mm 0.00 in/hr0.0 mm/hr 0.02 in0.5 mm
08:40 AM 51.6°F10.9°C 49.7°F9.8°C 93% 6.9 mph ENE11.1 kmh ENE 14.5 mph23.3 kmh 29.75 in1007.5 mb 0.00 in0.0 mm 0.00 in/hr0.0 mm/hr 0.02 in0.5 mm
08:39 AM 51.6°F10.9°C 49.7°F9.8°C 93% 8.3 mph ENE13.4 kmh ENE 14.5 mph23.3 kmh 29.75 in1007.5 mb 0.00 in0.0 mm 0.00 in/hr0.0 mm/hr 0.02 in0.5 mm
08:38 AM 51.6°F10.9°C 49.7°F9.8°C 93% 6.9 mph ENE11.1 kmh ENE 14.5 mph23.3 kmh 29.75 in1007.5 mb 0.00 in0.0 mm 0.00 in/hr0.0 mm/hr 0.02 in0.5 mm
08:37 AM 51.6°F10.9°C 49.4°F9.7°C 92% 3.8 mph ENE6.1 kmh ENE 14.5 mph23.3 kmh 29.75 in1007.5 mb 0.00 in0.0 mm 0.00 in/hr0.0 mm/hr 0.02 in0.5 mm
08:36 AM 51.8°F11.0°C 49.6°F9.8°C 92% 5.4 mph ENE8.7 kmh ENE 14.5 mph23.3 kmh 29.75 in1007.5 mb 0.00 in0.0 mm 0.00 in/hr0.0 mm/hr 0.02 in0.5 mm
08:35 AM 51.6°F10.9°C 49.7°F9.8°C 93% 6.0 mph ENE9.7 kmh ENE 14.5 mph23.3 kmh 29.75 in1007.5 mb 0.00 in0.0 mm 0.00 in/hr0.0 mm/hr 0.02 in0.5 mm
08:34 AM 51.6°F10.9°C 49.7°F9.8°C 93% 7.6 mph ENE12.2 kmh ENE 12.1 mph19.5 kmh 29.74 in1007.1 mb 0.00 in0.0 mm 0.00 in/hr0.0 mm/hr 0.02 in0.5 mm
08:33 AM 51.6°F10.9°C 49.7°F9.8°C 93% 9.8 mph NE15.8 kmh NE 12.1 mph19.5 kmh 29.75 in1007.5 mb 0.00 in0.0 mm 0.00 in/hr0.0 mm/hr 0.02 in0.5 mm
08:32 AM 51.6°F10.9°C 49.7°F9.8°C 93% 6.9 mph NE11.1 kmh NE 11.4 mph18.3 kmh 29.75 in1007.5 mb 0.00 in0.0 mm 0.00 in/hr0.0 mm/hr 0.02 in0.5 mm
08:31 AM 51.6°F10.9°C 49.7°F9.8°C 93% 6.0 mph NE9.7 kmh NE 16.8 mph27.0 kmh 29.74 in1007.1 mb 0.00 in0.0 mm 0.00 in/hr0.0 mm/hr 0.02 in0.5 mm
08:30 AM 51.6°F10.9°C 49.7°F9.8°C 93% 7.6 mph NE12.2 kmh NE 16.8 mph27.0 kmh 29.74 in1007.1 mb 0.02 in0.5 mm 0.00 in/hr0.0 mm/hr 0.02 in0.5 mm
08:29 AM 51.6°F10.9°C 49.7°F9.8°C 93% 6.9 mph NE11.1 kmh NE 16.8 mph27.0 kmh 29.74 in1007.1 mb 0.02 in0.5 mm 0.00 in/hr0.0 mm/hr 0.02 in0.5 mm
08:28 AM 51.6°F10.9°C 49.7°F9.8°C 93% 6.9 mph NE11.1 kmh NE 16.8 mph27.0 kmh 29.74 in1007.1 mb 0.02 in0.5 mm 0.00 in/hr0.0 mm/hr 0.02 in0.5 mm
08:27 AM 51.6°F10.9°C 49.7°F9.8°C 93% 6.9 mph NE11.1 kmh NE 16.8 mph27.0 kmh 29.74 in1007.1 mb 0.02 in0.5 mm 0.00 in/hr0.0 mm/hr 0.02 in0.5 mm
08:26 AM 51.6°F10.9°C 49.7°F9.8°C 93% 7.6 mph NE12.2 kmh NE 16.8 mph27.0 kmh 29.74 in1007.1 mb 0.02 in0.5 mm 0.00 in/hr0.0 mm/hr 0.02 in0.5 mm
08:25 AM 51.6°F10.9°C 49.7°F9.8°C 93% 4.5 mph NE7.2 kmh NE 16.8 mph27.0 kmh 29.74 in1007.1 mb 0.02 in0.5 mm 0.00 in/hr0.0 mm/hr 0.02 in0.5 mm
08:24 AM 51.6°F10.9°C 49.7°F9.8°C 93% 6.9 mph NE11.1 kmh NE 19.0 mph30.6 kmh 29.74 in1007.1 mb 0.02 in0.5 mm 0.00 in/hr0.0 mm/hr 0.02 in0.5 mm
08:23 AM 51.6°F10.9°C 49.7°F9.8°C 93% 4.5 mph NE7.2 kmh NE 19.0 mph30.6 kmh 29.74 in1007.1 mb 0.02 in0.5 mm 0.00 in/hr0.0 mm/hr 0.02 in0.5 mm
08:22 AM 51.8°F11.0°C 49.6°F9.8°C 92% 7.6 mph NE12.2 kmh NE 19.0 mph30.6 kmh 29.74 in1007.1 mb 0.02 in0.5 mm 0.00 in/hr0.0 mm/hr 0.02 in0.5 mm
08:21 AM 51.8°F11.0°C 49.6°F9.8°C 92% 10.7 mph NE17.2 kmh NE 19.0 mph30.6 kmh 29.74 in1007.1 mb 0.02 in0.5 mm 0.00 in/hr0.0 mm/hr 0.02 in0.5 mm
08:20 AM 51.6°F10.9°C 49.7°F9.8°C 93% 9.8 mph NE15.8 kmh NE 21.3 mph34.3 kmh 29.74 in1007.1 mb 0.02 in0.5 mm 0.00 in/hr0.0 mm/hr 0.02 in0.5 mm
08:19 AM 51.6°F10.9°C 49.7°F9.8°C 93% 9.2 mph NE14.8 kmh NE 21.3 mph34.3 kmh 29.74 in1007.1 mb 0.02 in0.5 mm 0.00 in/hr0.0 mm/hr 0.02 in0.5 mm
08:18 AM 51.6°F10.9°C 49.7°F9.8°C 93% 7.6 mph NE12.2 kmh NE 21.3 mph34.3 kmh 29.74 in1007.1 mb 0.02 in0.5 mm 0.00 in/hr0.0 mm/hr 0.02 in0.5 mm
08:17 AM 51.6°F10.9°C 49.7°F9.8°C 93% 6.0 mph NE9.7 kmh NE 21.3 mph34.3 kmh 29.74 in1007.1 mb 0.02 in0.5 mm 0.00 in/hr0.0 mm/hr 0.02 in0.5 mm
08:16 AM 51.6°F10.9°C 49.7°F9.8°C 93% 4.5 mph NE7.2 kmh NE 21.3 mph34.3 kmh 29.73 in1006.8 mb 0.02 in0.5 mm 0.00 in/hr0.0 mm/hr 0.02 in0.5 mm
08:15 AM 51.6°F10.9°C 49.7°F9.8°C 93% 8.3 mph NE13.4 kmh NE 21.3 mph34.3 kmh 29.73 in1006.8 mb 0.02 in0.5 mm 0.00 in/hr0.0 mm/hr 0.02 in0.5 mm
08:14 AM 51.6°F10.9°C 49.7°F9.8°C 93% 14.5 mph NE23.3 kmh NE 21.3 mph34.3 kmh 29.73 in1006.8 mb 0.02 in0.5 mm 0.00 in/hr0.0 mm/hr 0.02 in0.5 mm
08:13 AM 51.6°F10.9°C 49.7°F9.8°C 93% 6.0 mph NE9.7 kmh NE 21.3 mph34.3 kmh 29.73 in1006.8 mb 0.02 in0.5 mm 0.00 in/hr0.0 mm/hr 0.02 in0.5 mm
08:12 AM 51.6°F10.9°C 49.7°F9.8°C 93% 9.2 mph NE14.8 kmh NE 21.3 mph34.3 kmh 29.73 in1006.8 mb 0.02 in0.5 mm 0.00 in/hr0.0 mm/hr 0.02 in0.5 mm
08:11 AM 51.4°F10.8°C 50.1°F10.1°C 95% 8.3 mph NE13.4 kmh NE 21.3 mph34.3 kmh 29.73 in1006.8 mb 0.02 in0.5 mm 0.00 in/hr0.0 mm/hr 0.02 in0.5 mm
08:10 AM 51.4°F10.8°C 50.1°F10.1°C 95% 12.1 mph NE19.5 kmh NE 21.3 mph34.3 kmh 29.73 in1006.8 mb 0.02 in0.5 mm 0.00 in/hr0.0 mm/hr 0.02 in0.5 mm
08:09 AM 51.4°F10.8°C 50.1°F10.1°C 95% 8.3 mph NE13.4 kmh NE 14.5 mph23.3 kmh 29.74 in1007.1 mb 0.02 in0.5 mm 0.00 in/hr0.0 mm/hr 0.02 in0.5 mm
08:08 AM 51.4°F10.8°C 50.1°F10.1°C 95% 8.3 mph NE13.4 kmh NE 14.5 mph23.3 kmh 29.73 in1006.8 mb 0.02 in0.5 mm 0.00 in/hr0.0 mm/hr 0.02 in0.5 mm
08:07 AM 51.3°F10.7°C 49.9°F9.9°C 95% 9.2 mph NE14.8 kmh NE 14.5 mph23.3 kmh 29.73 in1006.8 mb 0.02 in0.5 mm 0.00 in/hr0.0 mm/hr 0.02 in0.5 mm
08:06 AM 50.9°F10.5°C 50.1°F10.1°C 97% 6.9 mph NE11.1 kmh NE 10.7 mph17.2 kmh 29.73 in1006.8 mb 0.02 in0.5 mm 0.00 in/hr0.0 mm/hr 0.02 in0.5 mm
08:05 AM 50.9°F10.5°C 50.1°F10.1°C 97% 3.1 mph NE5.0 kmh NE 13.6 mph21.9 kmh 29.73 in1006.8 mb 0.02 in0.5 mm 0.00 in/hr0.0 mm/hr 0.02 in0.5 mm
08:04 AM 50.9°F10.5°C 50.1°F10.1°C 97% 3.1 mph NE5.0 kmh NE 13.6 mph21.9 kmh 29.73 in1006.8 mb 0.02 in0.5 mm 0.00 in/hr0.0 mm/hr 0.02 in0.5 mm
08:03 AM 50.9°F10.5°C 50.1°F10.1°C 97% 3.1 mph NE5.0 kmh NE 15.9 mph25.6 kmh 29.73 in1006.8 mb 0.02 in0.5 mm 0.00 in/hr0.0 mm/hr 0.02 in0.5 mm
08:02 AM 50.9°F10.5°C 50.1°F10.1°C 97% 3.1 mph NE5.0 kmh NE 15.9 mph25.6 kmh 29.73 in1006.8 mb 0.02 in0.5 mm 0.00 in/hr0.0 mm/hr 0.02 in0.5 mm
08:01 AM 50.9°F10.5°C 50.1°F10.1°C 97% 3.1 mph NE5.0 kmh NE 15.9 mph25.6 kmh 29.73 in1006.8 mb 0.02 in0.5 mm 0.00 in/hr0.0 mm/hr 0.02 in0.5 mm
08:00 AM 50.9°F10.5°C 50.1°F10.1°C 97% 3.1 mph NE5.0 kmh NE 15.9 mph25.6 kmh 29.73 in1006.8 mb 0.02 in0.5 mm 0.00 in/hr0.0 mm/hr 0.02 in0.5 mm
07:59 AM 50.9°F10.5°C 50.1°F10.1°C 97% 6.0 mph NE9.7 kmh NE 15.9 mph25.6 kmh 29.73 in1006.8 mb 0.02 in0.5 mm 0.00 in/hr0.0 mm/hr 0.02 in0.5 mm
07:58 AM 50.7°F10.4°C 50.2°F10.1°C 98% 6.9 mph NE11.1 kmh NE 15.9 mph25.6 kmh 29.73 in1006.8 mb 0.02 in0.5 mm 0.00 in/hr0.0 mm/hr 0.02 in0.5 mm
07:57 AM 50.7°F10.4°C 49.9°F9.9°C 97% 4.5 mph NE7.2 kmh NE 15.9 mph25.6 kmh 29.73 in1006.8 mb 0.02 in0.5 mm 0.00 in/hr0.0 mm/hr 0.02 in0.5 mm
07:56 AM 50.9°F10.5°C 50.1°F10.1°C 97% 4.5 mph NE7.2 kmh NE 15.9 mph25.6 kmh 29.73 in1006.8 mb 0.02 in0.5 mm 0.00 in/hr0.0 mm/hr 0.02 in0.5 mm
07:55 AM 50.7°F10.4°C 50.2°F10.1°C 98% 9.8 mph NE15.8 kmh NE 15.9 mph25.6 kmh 29.73 in1006.8 mb 0.02 in0.5 mm 0.00 in/hr0.0 mm/hr 0.02 in0.5 mm
07:54 AM 50.7°F10.4°C 50.2°F10.1°C 98% 7.6 mph NE12.2 kmh NE 15.9 mph25.6 kmh 29.73 in1006.8 mb 0.02 in0.5 mm 0.00 in/hr0.0 mm/hr 0.02 in0.5 mm
07:53 AM 50.7°F10.4°C 50.2°F10.1°C 98% 9.2 mph NE14.8 kmh NE 15.9 mph25.6 kmh 29.73 in1006.8 mb 0.02 in0.5 mm 0.00 in/hr0.0 mm/hr 0.02 in0.5 mm
07:52 AM 50.7°F10.4°C 50.2°F10.1°C 98% 5.4 mph NE8.7 kmh NE 15.9 mph25.6 kmh 29.73 in1006.8 mb 0.02 in0.5 mm 0.00 in/hr0.0 mm/hr 0.02 in0.5 mm
07:51 AM 50.5°F10.3°C 50.5°F10.3°C 100% 8.3 mph NE13.4 kmh NE 15.9 mph25.6 kmh 29.73 in1006.8 mb 0.02 in0.5 mm 0.00 in/hr0.0 mm/hr 0.02 in0.5 mm
07:50 AM 50.5°F10.3°C 50.5°F10.3°C 100% 6.9 mph NE11.1 kmh NE 16.8 mph27.0 kmh 29.73 in1006.8 mb 0.02 in0.5 mm 0.00 in/hr0.0 mm/hr 0.02 in0.5 mm
07:49 AM 50.4°F10.2°C 50.4°F10.2°C 100% 6.0 mph NE9.7 kmh NE 17.4 mph28.0 kmh 29.73 in1006.8 mb 0.02 in0.5 mm 0.00 in/hr0.0 mm/hr 0.02 in0.5 mm
07:48 AM 50.4°F10.2°C 50.4°F10.2°C 100% 6.0 mph NE9.7 kmh NE 17.4 mph28.0 kmh 29.73 in1006.8 mb 0.02 in0.5 mm 0.00 in/hr0.0 mm/hr 0.02 in0.5 mm
07:47 AM 50.2°F10.1°C 50.2°F10.1°C 100% 7.6 mph NE12.2 kmh NE 17.4 mph28.0 kmh 29.73 in1006.8 mb 0.02 in0.5 mm 0.00 in/hr0.0 mm/hr 0.02 in0.5 mm
07:46 AM 50.2°F10.1°C 50.2°F10.1°C 100% 5.4 mph NE8.7 kmh NE 17.4 mph28.0 kmh 29.73 in1006.8 mb 0.02 in0.5 mm 0.00 in/hr0.0 mm/hr 0.02 in0.5 mm
07:45 AM 50.4°F10.2°C 50.4°F10.2°C 100% 3.1 mph NE5.0 kmh NE 17.4 mph28.0 kmh 29.73 in1006.8 mb 0.02 in0.5 mm 0.00 in/hr0.0 mm/hr 0.02 in0.5 mm
07:44 AM 50.2°F10.1°C 50.2°F10.1°C 100% 6.9 mph NE11.1 kmh NE 17.4 mph28.0 kmh 29.73 in1006.8 mb 0.02 in0.5 mm 0.00 in/hr0.0 mm/hr 0.02 in0.5 mm
07:43 AM 50.2°F10.1°C 50.2°F10.1°C 100% 5.4 mph NE8.7 kmh NE 17.4 mph28.0 kmh 29.73 in1006.8 mb 0.02 in0.5 mm 0.00 in/hr0.0 mm/hr 0.02 in0.5 mm
07:42 AM 50.2°F10.1°C 50.2°F10.1°C 100% 8.3 mph NE13.4 kmh NE 17.4 mph28.0 kmh 29.73 in1006.8 mb 0.02 in0.5 mm 0.00 in/hr0.0 mm/hr 0.02 in0.5 mm
07:41 AM 50.0°F10.0°C 50.0°F10.0°C 100% 10.7 mph NE17.2 kmh NE 17.4 mph28.0 kmh 29.74 in1007.1 mb 0.02 in0.5 mm 0.00 in/hr0.0 mm/hr 0.02 in0.5 mm
07:40 AM 50.2°F10.1°C 50.2°F10.1°C 100% 6.0 mph NE9.7 kmh NE 17.4 mph28.0 kmh 29.73 in1006.8 mb 0.02 in0.5 mm 0.00 in/hr0.0 mm/hr 0.02 in0.5 mm
07:39 AM 49.8°F9.9°C 49.8°F9.9°C 100% 9.8 mph NE15.8 kmh NE 19.7 mph31.7 kmh 29.73 in1006.8 mb 0.02 in0.5 mm 0.00 in/hr0.0 mm/hr 0.02 in0.5 mm
07:38 AM 49.8°F9.9°C 49.8°F9.9°C 100% 4.5 mph NE7.2 kmh NE 19.7 mph31.7 kmh 29.73 in1006.8 mb 0.02 in0.5 mm 0.00 in/hr0.0 mm/hr 0.02 in0.5 mm
07:37 AM 49.6°F9.8°C 49.6°F9.8°C 100% 5.4 mph NE8.7 kmh NE 21.3 mph34.3 kmh 29.74 in1007.1 mb 0.02 in0.5 mm 0.00 in/hr0.0 mm/hr 0.02 in0.5 mm
07:36 AM 49.6°F9.8°C 49.6°F9.8°C 100% 4.5 mph NE7.2 kmh NE 21.3 mph34.3 kmh 29.74 in1007.1 mb 0.02 in0.5 mm 0.00 in/hr0.0 mm/hr 0.02 in0.5 mm
07:35 AM 49.8°F9.9°C 49.8°F9.9°C 100% 4.5 mph NE7.2 kmh NE 21.3 mph34.3 kmh 29.74 in1007.1 mb 0.02 in0.5 mm 0.00 in/hr0.0 mm/hr 0.02 in0.5 mm
07:34 AM 49.8°F9.9°C 49.8°F9.9°C 100% 6.0 mph NE9.7 kmh NE 21.3 mph34.3 kmh 29.74 in1007.1 mb 0.02 in0.5 mm 0.00 in/hr0.0 mm/hr 0.02 in0.5 mm
07:33 AM 50.0°F10.0°C 50.0°F10.0°C 100% 7.6 mph NE12.2 kmh NE 21.3 mph34.3 kmh 29.74 in1007.1 mb 0.02 in0.5 mm 0.00 in/hr0.0 mm/hr 0.02 in0.5 mm
07:32 AM 50.2°F10.1°C 50.2°F10.1°C 100% 7.6 mph NE12.2 kmh NE 21.3 mph34.3 kmh 29.74 in1007.1 mb 0.02 in0.5 mm 0.00 in/hr0.0 mm/hr 0.02 in0.5 mm
07:31 AM 50.4°F10.2°C 49.8°F9.9°C 98% 5.4 mph NE8.7 kmh NE 21.3 mph34.3 kmh 29.74 in1007.1 mb 0.02 in0.5 mm 1.20 in/hr30.5 mm/hr 0.02 in0.5 mm
07:30 AM 50.4°F10.2°C 49.8°F9.9°C 98% 6.9 mph NE11.1 kmh NE 21.3 mph34.3 kmh 29.74 in1007.1 mb 0.00 in0.0 mm 0.00 in/hr0.0 mm/hr 0.00 in0.0 mm
07:29 AM 50.4°F10.2°C 49.5°F9.7°C 97% 9.8 mph NE15.8 kmh NE 21.3 mph34.3 kmh 29.74 in1007.1 mb 0.00 in0.0 mm 0.00 in/hr0.0 mm/hr 0.00 in0.0 mm
07:28 AM 50.5°F10.3°C 49.7°F9.8°C 97% 8.3 mph NE13.4 kmh NE 21.3 mph34.3 kmh 29.74 in1007.1 mb 0.00 in0.0 mm 0.00 in/hr0.0 mm/hr 0.00 in0.0 mm
07:27 AM 50.5°F10.3°C 49.7°F9.8°C 97% 14.5 mph NE23.3 kmh NE 21.3 mph34.3 kmh 29.74 in1007.1 mb 0.00 in0.0 mm 0.00 in/hr0.0 mm/hr 0.00 in0.0 mm
07:26 AM 50.5°F10.3°C 49.7°F9.8°C 97% 10.7 mph NE17.2 kmh NE 19.0 mph30.6 kmh 29.74 in1007.1 mb 0.00 in0.0 mm 0.00 in/hr0.0 mm/hr 0.00 in0.0 mm
07:25 AM 50.7°F10.4°C 49.6°F9.8°C 96% 9.8 mph NE15.8 kmh NE 19.0 mph30.6 kmh 29.74 in1007.1 mb 0.00 in0.0 mm 0.00 in/hr0.0 mm/hr 0.00 in0.0 mm
07:24 AM 50.7°F10.4°C 49.6°F9.8°C 96% 9.2 mph NE14.8 kmh NE 19.0 mph30.6 kmh 29.74 in1007.1 mb 0.00 in0.0 mm 0.00 in/hr0.0 mm/hr 0.00 in0.0 mm
07:23 AM 50.7°F10.4°C 49.6°F9.8°C 96% 10.7 mph NE17.2 kmh NE 19.0 mph30.6 kmh 29.75 in1007.5 mb 0.00 in0.0 mm 0.00 in/hr0.0 mm/hr 0.00 in0.0 mm
07:22 AM 50.7°F10.4°C 49.6°F9.8°C 96% 6.0 mph NE9.7 kmh NE 19.0 mph30.6 kmh 29.75 in1007.5 mb 0.00 in0.0 mm 0.00 in/hr0.0 mm/hr 0.00 in0.0 mm
07:21 AM 50.9°F10.5°C 49.5°F9.7°C 95% 5.4 mph NE8.7 kmh NE 19.0 mph30.6 kmh 29.75 in1007.5 mb 0.00 in0.0 mm 0.00 in/hr0.0 mm/hr 0.00 in0.0 mm
07:20 AM 50.9°F10.5°C 49.5°F9.7°C 95% 8.3 mph NE13.4 kmh NE 19.0 mph30.6 kmh 29.74 in1007.1 mb 0.00 in0.0 mm 0.00 in/hr0.0 mm/hr 0.00 in0.0 mm
07:19 AM 50.9°F10.5°C 49.5°F9.7°C 95% 13.6 mph NE21.9 kmh NE 19.0 mph30.6 kmh 29.75 in1007.5 mb 0.00 in0.0 mm 0.00 in/hr0.0 mm/hr 0.00 in0.0 mm
07:18 AM 50.7°F10.4°C 49.6°F9.8°C 96% 9.8 mph NE15.8 kmh NE 17.4 mph28.0 kmh 29.74 in1007.1 mb 0.00 in0.0 mm 0.00 in/hr0.0 mm/hr 0.00 in0.0 mm
07:17 AM 50.9°F10.5°C 49.8°F9.9°C 96% 5.4 mph NE8.7 kmh NE 16.8 mph27.0 kmh 29.75 in1007.5 mb 0.00 in0.0 mm 0.00 in/hr0.0 mm/hr 0.00 in0.0 mm
07:16 AM 50.7°F10.4°C 49.6°F9.8°C 96% 11.4 mph ENE18.3 kmh ENE 16.8 mph27.0 kmh 29.74 in1007.1 mb 0.00 in0.0 mm 0.00 in/hr0.0 mm/hr 0.00 in0.0 mm
07:15 AM 50.7°F10.4°C 49.6°F9.8°C 96% 6.9 mph ENE11.1 kmh ENE 16.8 mph27.0 kmh 29.75 in1007.5 mb 0.00 in0.0 mm 0.00 in/hr0.0 mm/hr 0.00 in0.0 mm
07:14 AM 50.7°F10.4°C 49.6°F9.8°C 96% 6.9 mph ENE11.1 kmh ENE 16.8 mph27.0 kmh 29.75 in1007.5 mb 0.00 in0.0 mm 0.00 in/hr0.0 mm/hr 0.00 in0.0 mm
07:13 AM 50.9°F10.5°C 49.5°F9.7°C 95% 6.0 mph NE9.7 kmh NE 16.8 mph27.0 kmh 29.74 in1007.1 mb 0.00 in0.0 mm 0.00 in/hr0.0 mm/hr 0.00 in0.0 mm
07:12 AM 50.7°F10.4°C 49.6°F9.8°C 96% 9.8 mph NE15.8 kmh NE 16.8 mph27.0 kmh 29.74 in1007.1 mb 0.00 in0.0 mm 0.00 in/hr0.0 mm/hr 0.00 in0.0 mm
07:11 AM 50.5°F10.3°C 49.4°F9.7°C 96% 9.8 mph NE15.8 kmh NE 16.8 mph27.0 kmh 29.74 in1007.1 mb 0.00 in0.0 mm 0.00 in/hr0.0 mm/hr 0.00 in0.0 mm
07:10 AM 50.5°F10.3°C 49.4°F9.7°C 96% 4.5 mph NNE7.2 kmh NNE 13.0 mph20.9 kmh 29.74 in1007.1 mb 0.00 in0.0 mm 0.00 in/hr0.0 mm/hr 0.00 in0.0 mm
07:09 AM 50.7°F10.4°C 49.3°F9.6°C 95% 5.4 mph NE8.7 kmh NE 13.0 mph20.9 kmh 29.74 in1007.1 mb 0.00 in0.0 mm 0.00 in/hr0.0 mm/hr 0.00 in0.0 mm
07:08 AM 50.7°F10.4°C 49.3°F9.6°C 95% 5.4 mph NE8.7 kmh NE 13.0 mph20.9 kmh 29.74 in1007.1 mb 0.00 in0.0 mm 0.00 in/hr0.0 mm/hr 0.00 in0.0 mm
07:07 AM 50.7°F10.4°C 49.3°F9.6°C 95% 4.5 mph NNE7.2 kmh NNE 13.0 mph20.9 kmh 29.74 in1007.1 mb 0.00 in0.0 mm 0.00 in/hr0.0 mm/hr 0.00 in0.0 mm
07:06 AM 50.9°F10.5°C 49.5°F9.7°C 95% 2.2 mph NE3.5 kmh NE 13.0 mph20.9 kmh 29.74 in1007.1 mb 0.00 in0.0 mm 0.00 in/hr0.0 mm/hr 0.00 in0.0 mm
07:05 AM 50.9°F10.5°C 49.0°F9.4°C 93% 3.8 mph NE6.1 kmh NE 13.0 mph20.9 kmh 29.75 in1007.5 mb 0.00 in0.0 mm 0.00 in/hr0.0 mm/hr 0.00 in0.0 mm
07:04 AM 50.9°F10.5°C 49.0°F9.4°C 93% 6.0 mph NNE9.7 kmh NNE 13.0 mph20.9 kmh 29.75 in1007.5 mb 0.00 in0.0 mm 0.00 in/hr0.0 mm/hr 0.00 in0.0 mm
07:03 AM 50.9°F10.5°C 49.0°F9.4°C 93% 2.2 mph NE3.5 kmh NE 13.0 mph20.9 kmh 29.75 in1007.5 mb 0.00 in0.0 mm 0.00 in/hr0.0 mm/hr 0.00 in0.0 mm
07:02 AM 50.9°F10.5°C 49.0°F9.4°C 93% 3.8 mph NE6.1 kmh NE 13.0 mph20.9 kmh 29.74 in1007.1 mb 0.00 in0.0 mm 0.00 in/hr0.0 mm/hr 0.00 in0.0 mm
07:01 AM 50.9°F10.5°C 49.0°F9.4°C 93% 6.0 mph NE9.7 kmh NE 14.5 mph23.3 kmh 29.74 in1007.1 mb 0.00 in0.0 mm 0.00 in/hr0.0 mm/hr 0.00 in0.0 mm
07:00 AM 50.9°F10.5°C 49.0°F9.4°C 93% 6.0 mph NE9.7 kmh NE 14.5 mph23.3 kmh 29.74 in1007.1 mb 0.00 in0.0 mm 0.00 in/hr0.0 mm/hr 0.00 in0.0 mm
06:59 AM 50.9°F10.5°C 49.0°F9.4°C 93% 7.6 mph NE12.2 kmh NE 14.5 mph23.3 kmh 29.74 in1007.1 mb 0.00 in0.0 mm 0.00 in/hr0.0 mm/hr 0.00 in0.0 mm
06:58 AM 50.9°F10.5°C 49.0°F9.4°C 93% 6.9 mph NE11.1 kmh NE 14.5 mph23.3 kmh 29.74 in1007.1 mb 0.00 in0.0 mm 0.00 in/hr0.0 mm/hr 0.00 in0.0 mm
06:57 AM 51.1°F10.6°C 49.1°F9.5°C 93% 7.6 mph ENE12.2 kmh ENE 14.5 mph23.3 kmh 29.74 in1007.1 mb 0.00 in0.0 mm 0.00 in/hr0.0 mm/hr 0.00 in0.0 mm
06:56 AM 51.1°F10.6°C 49.1°F9.5°C 93% 9.2 mph NE14.8 kmh NE 14.5 mph23.3 kmh 29.74 in1007.1 mb 0.00 in0.0 mm 0.00 in/hr0.0 mm/hr 0.00 in0.0 mm
06:55 AM 51.1°F10.6°C 49.1°F9.5°C 93% 6.9 mph NE11.1 kmh NE 14.5 mph23.3 kmh 29.74 in1007.1 mb 0.00 in0.0 mm 0.00 in/hr0.0 mm/hr 0.00 in0.0 mm
06:54 AM 50.9°F10.5°C 49.0°F9.4°C 93% 8.3 mph NE13.4 kmh NE 15.2 mph24.5 kmh 29.74 in1007.1 mb 0.00 in0.0 mm 0.00 in/hr0.0 mm/hr 0.00 in0.0 mm
06:53 AM 51.1°F10.6°C 49.1°F9.5°C 93% 6.0 mph NE9.7 kmh NE 18.3 mph29.5 kmh 29.74 in1007.1 mb 0.00 in0.0 mm 0.00 in/hr0.0 mm/hr 0.00 in0.0 mm
06:52 AM 50.9°F10.5°C 49.0°F9.4°C 93% 9.8 mph NE15.8 kmh NE 18.3 mph29.5 kmh 29.74 in1007.1 mb 0.00 in0.0 mm 0.00 in/hr0.0 mm/hr 0.00 in0.0 mm
06:51 AM 50.9°F10.5°C 49.0°F9.4°C 93% 6.9 mph NE11.1 kmh NE 18.3 mph29.5 kmh 29.74 in1007.1 mb 0.00 in0.0 mm 0.00 in/hr0.0 mm/hr 0.00 in0.0 mm
06:50 AM 50.9°F10.5°C 49.0°F9.4°C 93% 7.6 mph NE12.2 kmh NE 18.3 mph29.5 kmh 29.74 in1007.1 mb 0.00 in0.0 mm 0.00 in/hr0.0 mm/hr 0.00 in0.0 mm
06:49 AM 50.9°F10.5°C 49.0°F9.4°C 93% 8.3 mph NE13.4 kmh NE 18.3 mph29.5 kmh 29.74 in1007.1 mb 0.00 in0.0 mm 0.00 in/hr0.0 mm/hr 0.00 in0.0 mm
06:48 AM 50.9°F10.5°C 49.0°F9.4°C 93% 6.9 mph NE11.1 kmh NE 18.3 mph29.5 kmh 29.74 in1007.1 mb 0.00 in0.0 mm 0.00 in/hr0.0 mm/hr 0.00 in0.0 mm
06:47 AM 50.9°F10.5°C 49.0°F9.4°C 93% 6.0 mph NE9.7 kmh NE 18.3 mph29.5 kmh 29.74 in1007.1 mb 0.00 in0.0 mm 0.00 in/hr0.0 mm/hr 0.00 in0.0 mm
06:46 AM 50.9°F10.5°C 49.0°F9.4°C 93% 4.5 mph NE7.2 kmh NE 18.3 mph29.5 kmh 29.74 in1007.1 mb 0.00 in0.0 mm 0.00 in/hr0.0 mm/hr 0.00 in0.0 mm
06:45 AM 50.9°F10.5°C 49.0°F9.4°C 93% 9.8 mph NE15.8 kmh NE 18.3 mph29.5 kmh 29.74 in1007.1 mb 0.00 in0.0 mm 0.00 in/hr0.0 mm/hr 0.00 in0.0 mm
06:44 AM 50.9°F10.5°C 49.0°F9.4°C 93% 10.7 mph NE17.2 kmh NE 18.3 mph29.5 kmh 29.74 in1007.1 mb 0.00 in0.0 mm 0.00 in/hr0.0 mm/hr 0.00 in0.0 mm
06:43 AM 50.9°F10.5°C 49.0°F9.4°C 93% 9.8 mph NE15.8 kmh NE 18.3 mph29.5 kmh 29.74 in1007.1 mb 0.00 in0.0 mm 0.00 in/hr0.0 mm/hr 0.00 in0.0 mm
06:42 AM 50.9°F10.5°C 49.0°F9.4°C 93% 11.4 mph NE18.3 kmh NE 18.3 mph29.5 kmh 29.75 in1007.5 mb 0.00 in0.0 mm 0.00 in/hr0.0 mm/hr 0.00 in0.0 mm
06:41 AM 50.9°F10.5°C 49.0°F9.4°C 93% 11.4 mph NE18.3 kmh NE 15.2 mph24.5 kmh 29.74 in1007.1 mb 0.00 in0.0 mm 0.00 in/hr0.0 mm/hr 0.00 in0.0 mm
06:40 AM 50.9°F10.5°C 49.0°F9.4°C 93% 9.2 mph NE14.8 kmh NE 14.5 mph23.3 kmh 29.75 in1007.5 mb 0.00 in0.0 mm 0.00 in/hr0.0 mm/hr 0.00 in0.0 mm
06:39 AM 50.9°F10.5°C 49.0°F9.4°C 93% 6.0 mph NE9.7 kmh NE 14.5 mph23.3 kmh 29.75 in1007.5 mb 0.00 in0.0 mm 0.00 in/hr0.0 mm/hr 0.00 in0.0 mm
06:38 AM 50.9°F10.5°C 49.0°F9.4°C 93% 4.5 mph NE7.2 kmh NE 14.5 mph23.3 kmh 29.74 in1007.1 mb 0.00 in0.0 mm 0.00 in/hr0.0 mm/hr 0.00 in0.0 mm
06:37 AM 50.9°F10.5°C 49.0°F9.4°C 93% 7.6 mph NE12.2 kmh NE 14.5 mph23.3 kmh 29.75 in1007.5 mb 0.00 in0.0 mm 0.00 in/hr0.0 mm/hr 0.00 in0.0 mm
06:36 AM 50.9°F10.5°C 49.0°F9.4°C 93% 6.0 mph NE9.7 kmh NE 15.2 mph24.5 kmh 29.75 in1007.5 mb 0.00 in0.0 mm 0.00 in/hr0.0 mm/hr 0.00 in0.0 mm
06:35 AM 50.9°F10.5°C 49.0°F9.4°C 93% 7.6 mph NE12.2 kmh NE 19.0 mph30.6 kmh 29.75 in1007.5 mb 0.00 in0.0 mm 0.00 in/hr0.0 mm/hr 0.00 in0.0 mm
06:34 AM 50.9°F10.5°C 49.0°F9.4°C 93% 4.5 mph NE7.2 kmh NE 19.0 mph30.6 kmh 29.75 in1007.5 mb 0.00 in0.0 mm 0.00 in/hr0.0 mm/hr 0.00 in0.0 mm
06:33 AM 51.1°F10.6°C 48.8°F9.3°C 92% 5.4 mph NE8.7 kmh NE 19.0 mph30.6 kmh 29.75 in1007.5 mb 0.00 in0.0 mm 0.00 in/hr0.0 mm/hr 0.00 in0.0 mm
06:32 AM 51.1°F10.6°C 48.8°F9.3°C 92% 8.3 mph ENE13.4 kmh ENE 19.0 mph30.6 kmh 29.75 in1007.5 mb 0.00 in0.0 mm 0.00 in/hr0.0 mm/hr 0.00 in0.0 mm
06:31 AM 51.1°F10.6°C 48.8°F9.3°C 92% 9.2 mph ENE14.8 kmh ENE 19.0 mph30.6 kmh 29.75 in1007.5 mb 0.00 in0.0 mm 0.00 in/hr0.0 mm/hr 0.00 in0.0 mm
06:30 AM 50.9°F10.5°C 48.7°F9.3°C 92% 8.3 mph ENE13.4 kmh ENE 19.0 mph30.6 kmh 29.75 in1007.5 mb 0.00 in0.0 mm 0.00 in/hr0.0 mm/hr 0.00 in0.0 mm
06:29 AM 51.1°F10.6°C 48.8°F9.3°C 92% 7.6 mph ENE12.2 kmh ENE 19.0 mph30.6 kmh 29.74 in1007.1 mb 0.00 in0.0 mm 0.00 in/hr0.0 mm/hr 0.00 in0.0 mm
06:28 AM 51.1°F10.6°C 48.8°F9.3°C 92% 5.4 mph ENE8.7 kmh ENE 19.0 mph30.6 kmh 29.74 in1007.1 mb 0.00 in0.0 mm 0.00 in/hr0.0 mm/hr 0.00 in0.0 mm
06:27 AM 51.1°F10.6°C 48.8°F9.3°C 92% 8.3 mph ENE13.4 kmh ENE 19.0 mph30.6 kmh 29.74 in1007.1 mb 0.00 in0.0 mm 0.00 in/hr0.0 mm/hr 0.00 in0.0 mm
06:26 AM 51.1°F10.6°C 48.8°F9.3°C 92% 10.7 mph ENE17.2 kmh ENE 19.0 mph30.6 kmh 29.74 in1007.1 mb 0.00 in0.0 mm 0.00 in/hr0.0 mm/hr 0.00 in0.0 mm
06:25 AM 51.1°F10.6°C 48.8°F9.3°C 92% 5.4 mph ENE8.7 kmh ENE 17.4 mph28.0 kmh 29.74 in1007.1 mb 0.00 in0.0 mm 0.00 in/hr0.0 mm/hr 0.00 in0.0 mm
06:24 AM 51.1°F10.6°C 48.8°F9.3°C 92% 9.2 mph ENE14.8 kmh ENE 17.4 mph28.0 kmh 29.74 in1007.1 mb 0.00 in0.0 mm 0.00 in/hr0.0 mm/hr 0.00 in0.0 mm
06:23 AM 50.9°F10.5°C 48.7°F9.3°C 92% 9.2 mph ENE14.8 kmh ENE 17.4 mph28.0 kmh 29.74 in1007.1 mb 0.00 in0.0 mm 0.00 in/hr0.0 mm/hr 0.00 in0.0 mm
06:22 AM 50.9°F10.5°C 49.0°F9.4°C 93% 9.8 mph ENE15.8 kmh ENE 17.4 mph28.0 kmh 29.74 in1007.1 mb 0.00 in0.0 mm 0.00 in/hr0.0 mm/hr 0.00 in0.0 mm
06:21 AM 50.9°F10.5°C 48.7°F9.3°C 92% 6.0 mph ENE9.7 kmh ENE 17.4 mph28.0 kmh 29.75 in1007.5 mb 0.00 in0.0 mm 0.00 in/hr0.0 mm/hr 0.00 in0.0 mm
06:20 AM 50.9°F10.5°C 48.7°F9.3°C 92% 7.6 mph ENE12.2 kmh ENE 17.4 mph28.0 kmh 29.74 in1007.1 mb 0.00 in0.0 mm 0.00 in/hr0.0 mm/hr 0.00 in0.0 mm
06:19 AM 50.9°F10.5°C 48.7°F9.3°C 92% 6.0 mph ENE9.7 kmh ENE 17.4 mph28.0 kmh 29.74 in1007.1 mb 0.00 in0.0 mm 0.00 in/hr0.0 mm/hr 0.00 in0.0 mm
06:18 AM 50.9°F10.5°C 48.7°F9.3°C 92% 6.0 mph ENE9.7 kmh ENE 17.4 mph28.0 kmh 29.74 in1007.1 mb 0.00 in0.0 mm 0.00 in/hr0.0 mm/hr 0.00 in0.0 mm
06:17 AM 51.1°F10.6°C 48.8°F9.3°C 92% 8.3 mph ENE13.4 kmh ENE 17.4 mph28.0 kmh 29.74 in1007.1 mb 0.00 in0.0 mm 0.00 in/hr0.0 mm/hr 0.00 in0.0 mm
06:16 AM 51.1°F10.6°C 48.8°F9.3°C 92% 9.2 mph ENE14.8 kmh ENE 17.4 mph28.0 kmh 29.74 in1007.1 mb 0.00 in0.0 mm 0.00 in/hr0.0 mm/hr 0.00 in0.0 mm
06:15 AM 51.1°F10.6°C 48.8°F9.3°C 92% 10.7 mph ENE17.2 kmh ENE 17.4 mph28.0 kmh 29.74 in1007.1 mb 0.00 in0.0 mm 0.00 in/hr0.0 mm/hr 0.00 in0.0 mm
06:14 AM 51.1°F10.6°C 48.8°F9.3°C 92% 8.3 mph ENE13.4 kmh ENE 17.4 mph28.0 kmh 29.74 in1007.1 mb 0.00 in0.0 mm 0.00 in/hr0.0 mm/hr 0.00 in0.0 mm
06:13 AM 50.9°F10.5°C 48.7°F9.3°C 92% 13.0 mph ENE20.9 kmh ENE 16.8 mph27.0 kmh 29.74 in1007.1 mb 0.00 in0.0 mm 0.00 in/hr0.0 mm/hr 0.00 in0.0 mm
06:12 AM 50.9°F10.5°C 48.7°F9.3°C 92% 9.2 mph ENE14.8 kmh ENE 15.9 mph25.6 kmh 29.74 in1007.1 mb 0.00 in0.0 mm 0.00 in/hr0.0 mm/hr 0.00 in0.0 mm
06:11 AM 50.9°F10.5°C 48.7°F9.3°C 92% 7.6 mph ENE12.2 kmh ENE 15.9 mph25.6 kmh 29.73 in1006.8 mb 0.00 in0.0 mm 0.00 in/hr0.0 mm/hr 0.00 in0.0 mm
06:10 AM 50.9°F10.5°C 48.7°F9.3°C 92% 7.6 mph ENE12.2 kmh ENE 15.9 mph25.6 kmh 29.74 in1007.1 mb 0.00 in0.0 mm 0.00 in/hr0.0 mm/hr 0.00 in0.0 mm
06:09 AM 51.1°F10.6°C 48.8°F9.3°C 92% 5.4 mph ENE8.7 kmh ENE 14.5 mph23.3 kmh 29.74 in1007.1 mb 0.00 in0.0 mm 0.00 in/hr0.0 mm/hr 0.00 in0.0 mm
06:08 AM 50.9°F10.5°C 48.7°F9.3°C 92% 9.8 mph ENE15.8 kmh ENE 19.0 mph30.6 kmh 29.74 in1007.1 mb 0.00 in0.0 mm 0.00 in/hr0.0 mm/hr 0.00 in0.0 mm
06:07 AM 50.9°F10.5°C 48.7°F9.3°C 92% 8.3 mph ENE13.4 kmh ENE 19.0 mph30.6 kmh 29.73 in1006.8 mb 0.00 in0.0 mm 0.00 in/hr0.0 mm/hr 0.00 in0.0 mm
06:06 AM 50.9°F10.5°C 48.7°F9.3°C 92% 8.3 mph ENE13.4 kmh ENE 19.0 mph30.6 kmh 29.73 in1006.8 mb 0.00 in0.0 mm 0.00 in/hr0.0 mm/hr 0.00 in0.0 mm
06:05 AM 50.9°F10.5°C 48.7°F9.3°C 92% 8.3 mph ENE13.4 kmh ENE 19.0 mph30.6 kmh 29.74 in1007.1 mb 0.00 in0.0 mm 0.00 in/hr0.0 mm/hr 0.00 in0.0 mm
06:04 AM 50.9°F10.5°C 48.7°F9.3°C 92% 8.3 mph ENE13.4 kmh ENE 19.0 mph30.6 kmh 29.74 in1007.1 mb 0.00 in0.0 mm 0.00 in/hr0.0 mm/hr 0.00 in0.0 mm
06:03 AM 50.9°F10.5°C 48.7°F9.3°C 92% 8.3 mph ENE13.4 kmh ENE 19.0 mph30.6 kmh 29.74 in1007.1 mb 0.00 in0.0 mm 0.00 in/hr0.0 mm/hr 0.00 in0.0 mm
06:02 AM 50.9°F10.5°C 48.7°F9.3°C 92% 8.3 mph ENE13.4 kmh ENE 19.0 mph30.6 kmh 29.73 in1006.8 mb 0.00 in0.0 mm 0.00 in/hr0.0 mm/hr 0.00 in0.0 mm
06:01 AM 50.9°F10.5°C 48.7°F9.3°C 92% 8.3 mph ENE13.4 kmh ENE 19.0 mph30.6 kmh 29.73 in1006.8 mb 0.00 in0.0 mm 0.00 in/hr0.0 mm/hr 0.00 in0.0 mm
06:00 AM 50.9°F10.5°C 48.7°F9.3°C 92% 8.3 mph ENE13.4 kmh ENE 19.0 mph30.6 kmh 29.73 in1006.8 mb 0.00 in0.0 mm 0.00 in/hr0.0 mm/hr 0.00 in0.0 mm
05:59 AM 50.9°F10.5°C 48.7°F9.3°C 92% 4.5 mph ENE7.2 kmh ENE 19.0 mph30.6 kmh 29.73 in1006.8 mb 0.00 in0.0 mm 0.00 in/hr0.0 mm/hr 0.00 in0.0 mm
05:58 AM 50.9°F10.5°C 48.7°F9.3°C 92% 14.5 mph ENE23.3 kmh ENE 19.0 mph30.6 kmh 29.73 in1006.8 mb 0.00 in0.0 mm 0.00 in/hr0.0 mm/hr 0.00 in0.0 mm
05:57 AM 50.9°F10.5°C 48.7°F9.3°C 92% 9.8 mph ENE15.8 kmh ENE 17.4 mph28.0 kmh 29.74 in1007.1 mb 0.00 in0.0 mm 0.00 in/hr0.0 mm/hr 0.00 in0.0 mm
05:56 AM 50.9°F10.5°C 49.0°F9.4°C 93% 7.6 mph ENE12.2 kmh ENE 17.4 mph28.0 kmh 29.74 in1007.1 mb 0.00 in0.0 mm 0.00 in/hr0.0 mm/hr 0.00 in0.0 mm
05:55 AM 50.9°F10.5°C 49.0°F9.4°C 93% 9.2 mph ENE14.8 kmh ENE 17.4 mph28.0 kmh 29.74 in1007.1 mb 0.00 in0.0 mm 0.00 in/hr0.0 mm/hr 0.00 in0.0 mm
05:54 AM 50.7°F10.4°C 48.8°F9.3°C 93% 9.2 mph NE14.8 kmh NE 17.4 mph28.0 kmh 29.74 in1007.1 mb 0.00 in0.0 mm 0.00 in/hr0.0 mm/hr 0.00 in0.0 mm
05:53 AM 50.9°F10.5°C 49.0°F9.4°C 93% 6.0 mph ENE9.7 kmh ENE 17.4 mph28.0 kmh 29.74 in1007.1 mb 0.00 in0.0 mm 0.00 in/hr0.0 mm/hr 0.00 in0.0 mm
05:52 AM 50.9°F10.5°C 49.0°F9.4°C 93% 6.0 mph ENE9.7 kmh ENE 17.4 mph28.0 kmh 29.74 in1007.1 mb 0.00 in0.0 mm 0.00 in/hr0.0 mm/hr 0.00 in0.0 mm
05:51 AM 50.9°F10.5°C 49.0°F9.4°C 93% 7.6 mph ENE12.2 kmh ENE 17.4 mph28.0 kmh 29.74 in1007.1 mb 0.00 in0.0 mm 0.00 in/hr0.0 mm/hr 0.00 in0.0 mm
05:50 AM 50.9°F10.5°C 49.0°F9.4°C 93% 7.6 mph ENE12.2 kmh ENE 17.4 mph28.0 kmh 29.74 in1007.1 mb 0.00 in0.0 mm 0.00 in/hr0.0 mm/hr 0.00 in0.0 mm
05:49 AM 50.9°F10.5°C 49.0°F9.4°C 93% 9.2 mph ENE14.8 kmh ENE 17.4 mph28.0 kmh 29.74 in1007.1 mb 0.00 in0.0 mm 0.00 in/hr0.0 mm/hr 0.00 in0.0 mm
05:48 AM 50.7°F10.4°C 48.8°F9.3°C 93% 8.3 mph ENE13.4 kmh ENE 17.4 mph28.0 kmh 29.74 in1007.1 mb 0.00 in0.0 mm 0.00 in/hr0.0 mm/hr 0.00 in0.0 mm
05:47 AM 50.9°F10.5°C 49.0°F9.4°C 93% 6.0 mph ENE9.7 kmh ENE 17.4 mph28.0 kmh 29.74 in1007.1 mb 0.00 in0.0 mm 0.00 in/hr0.0 mm/hr 0.00 in0.0 mm
05:46 AM 50.9°F10.5°C 49.0°F9.4°C 93% 3.8 mph ENE6.1 kmh ENE 17.4 mph28.0 kmh 29.74 in1007.1 mb 0.00 in0.0 mm 0.00 in/hr0.0 mm/hr 0.00 in0.0 mm
05:45 AM 50.9°F10.5°C 49.0°F9.4°C 93% 9.8 mph ENE15.8 kmh ENE 17.4 mph28.0 kmh 29.74 in1007.1 mb 0.00 in0.0 mm 0.00 in/hr0.0 mm/hr 0.00 in0.0 mm
05:44 AM 50.9°F10.5°C 49.0°F9.4°C 93% 10.7 mph ENE17.2 kmh ENE 17.4 mph28.0 kmh 29.74 in1007.1 mb 0.00 in0.0 mm 0.00 in/hr0.0 mm/hr 0.00 in0.0 mm
05:43 AM 50.9°F10.5°C 49.0°F9.4°C 93% 9.2 mph ENE14.8 kmh ENE 17.4 mph28.0 kmh 29.74 in1007.1 mb 0.00 in0.0 mm 0.00 in/hr0.0 mm/hr 0.00 in0.0 mm
05:42 AM 50.9°F10.5°C 49.0°F9.4°C 93% 8.3 mph ENE13.4 kmh ENE 19.7 mph31.7 kmh 29.74 in1007.1 mb 0.00 in0.0 mm 0.00 in/hr0.0 mm/hr 0.00 in0.0 mm
05:41 AM 50.7°F10.4°C 48.8°F9.3°C 93% 8.3 mph ENE13.4 kmh ENE 19.7 mph31.7 kmh 29.74 in1007.1 mb 0.00 in0.0 mm 0.00 in/hr0.0 mm/hr 0.00 in0.0 mm
05:40 AM 50.9°F10.5°C 49.0°F9.4°C 93% 6.0 mph ENE9.7 kmh ENE 19.7 mph31.7 kmh 29.74 in1007.1 mb 0.00 in0.0 mm 0.00 in/hr0.0 mm/hr 0.00 in0.0 mm
05:39 AM 50.9°F10.5°C 49.0°F9.4°C 93% 9.8 mph ENE15.8 kmh ENE 19.7 mph31.7 kmh 29.74 in1007.1 mb 0.00 in0.0 mm 0.00 in/hr0.0 mm/hr 0.00 in0.0 mm
05:38 AM 50.9°F10.5°C 49.0°F9.4°C 93% 9.8 mph ENE15.8 kmh ENE 19.7 mph31.7 kmh 29.74 in1007.1 mb 0.00 in0.0 mm 0.00 in/hr0.0 mm/hr 0.00 in0.0 mm
05:37 AM 50.9°F10.5°C 49.0°F9.4°C 93% 8.3 mph ENE13.4 kmh ENE 19.7 mph31.7 kmh 29.74 in1007.1 mb 0.00 in0.0 mm 0.00 in/hr0.0 mm/hr 0.00 in0.0 mm
05:36 AM 50.9°F10.5°C 49.0°F9.4°C 93% 6.0 mph NE9.7 kmh NE 19.7 mph31.7 kmh 29.74 in1007.1 mb 0.00 in0.0 mm 0.00 in/hr0.0 mm/hr 0.00 in0.0 mm
05:35 AM 50.9°F10.5°C 49.0°F9.4°C 93% 6.0 mph NE9.7 kmh NE 19.7 mph31.7 kmh 29.74 in1007.1 mb 0.00 in0.0 mm 0.00 in/hr0.0 mm/hr 0.00 in0.0 mm
05:34 AM 50.9°F10.5°C 49.0°F9.4°C 93% 7.6 mph NE12.2 kmh NE 19.7 mph31.7 kmh 29.74 in1007.1 mb 0.00 in0.0 mm 0.00 in/hr0.0 mm/hr 0.00 in0.0 mm
05:33 AM 50.9°F10.5°C 49.0°F9.4°C 93% 8.3 mph NE13.4 kmh NE 19.7 mph31.7 kmh 29.74 in1007.1 mb 0.00 in0.0 mm 0.00 in/hr0.0 mm/hr 0.00 in0.0 mm
05:32 AM 50.9°F10.5°C 49.0°F9.4°C 93% 9.2 mph NE14.8 kmh NE 19.7 mph31.7 kmh 29.74 in1007.1 mb 0.00 in0.0 mm 0.00 in/hr0.0 mm/hr 0.00 in0.0 mm
05:31 AM 50.9°F10.5°C 49.0°F9.4°C 93% 9.8 mph NE15.8 kmh NE 19.7 mph31.7 kmh 29.74 in1007.1 mb 0.00 in0.0 mm 0.00 in/hr0.0 mm/hr 0.00 in0.0 mm
05:30 AM 50.7°F10.4°C 48.8°F9.3°C 93% 9.2 mph NE14.8 kmh NE 19.7 mph31.7 kmh 29.74 in1007.1 mb 0.00 in0.0 mm 0.00 in/hr0.0 mm/hr 0.00 in0.0 mm
05:29 AM 50.7°F10.4°C 48.8°F9.3°C 93% 5.4 mph NE8.7 kmh NE 19.7 mph31.7 kmh 29.74 in1007.1 mb 0.00 in0.0 mm 0.00 in/hr0.0 mm/hr 0.00 in0.0 mm
05:28 AM 50.9°F10.5°C 49.0°F9.4°C 93% 6.0 mph NE9.7 kmh NE 19.7 mph31.7 kmh 29.74 in1007.1 mb 0.00 in0.0 mm 0.00 in/hr0.0 mm/hr 0.00 in0.0 mm
05:27 AM 50.9°F10.5°C 49.0°F9.4°C 93% 6.0 mph NE9.7 kmh NE 19.7 mph31.7 kmh 29.74 in1007.1 mb 0.00 in0.0 mm 0.00 in/hr0.0 mm/hr 0.00 in0.0 mm
05:26 AM 50.9°F10.5°C 49.0°F9.4°C 93% 9.2 mph ENE14.8 kmh ENE 19.7 mph31.7 kmh 29.74 in1007.1 mb 0.00 in0.0 mm 0.00 in/hr0.0 mm/hr 0.00 in0.0 mm
05:25 AM 50.9°F10.5°C 49.0°F9.4°C 93% 7.6 mph ENE12.2 kmh ENE 19.7 mph31.7 kmh 29.74 in1007.1 mb 0.00 in0.0 mm 0.00 in/hr0.0 mm/hr 0.00 in0.0 mm
05:24 AM 50.9°F10.5°C 49.0°F9.4°C 93% 9.2 mph ENE14.8 kmh ENE 19.7 mph31.7 kmh 29.74 in1007.1 mb 0.00 in0.0 mm 0.00 in/hr0.0 mm/hr 0.00 in0.0 mm
05:23 AM 50.7°F10.4°C 48.8°F9.3°C 93% 11.4 mph ENE18.3 kmh ENE 17.4 mph28.0 kmh 29.73 in1006.8 mb 0.00 in0.0 mm 0.00 in/hr0.0 mm/hr 0.00 in0.0 mm
05:22 AM 50.9°F10.5°C 49.0°F9.4°C 93% 8.3 mph ENE13.4 kmh ENE 19.0 mph30.6 kmh 29.73 in1006.8 mb 0.00 in0.0 mm 0.00 in/hr0.0 mm/hr 0.00 in0.0 mm
05:21 AM 50.9°F10.5°C 49.0°F9.4°C 93% 12.1 mph ENE19.5 kmh ENE 19.0 mph30.6 kmh 29.74 in1007.1 mb 0.00 in0.0 mm 0.00 in/hr0.0 mm/hr 0.00 in0.0 mm
05:20 AM 50.7°F10.4°C 48.8°F9.3°C 93% 12.1 mph ENE19.5 kmh ENE 22.8 mph36.7 kmh 29.74 in1007.1 mb 0.00 in0.0 mm 0.00 in/hr0.0 mm/hr 0.00 in0.0 mm
05:19 AM 50.7°F10.4°C 48.8°F9.3°C 93% 9.8 mph ENE15.8 kmh ENE 22.8 mph36.7 kmh 29.74 in1007.1 mb 0.00 in0.0 mm 0.00 in/hr0.0 mm/hr 0.00 in0.0 mm
05:18 AM 50.7°F10.4°C 48.8°F9.3°C 93% 9.2 mph ENE14.8 kmh ENE 22.8 mph36.7 kmh 29.74 in1007.1 mb 0.00 in0.0 mm 0.00 in/hr0.0 mm/hr 0.00 in0.0 mm
05:17 AM 50.7°F10.4°C 48.8°F9.3°C 93% 9.2 mph ENE14.8 kmh ENE 22.8 mph36.7 kmh 29.74 in1007.1 mb 0.00 in0.0 mm 0.00 in/hr0.0 mm/hr 0.00 in0.0 mm
05:16 AM 50.7°F10.4°C 48.8°F9.3°C 93% 9.8 mph ENE15.8 kmh ENE 22.8 mph36.7 kmh 29.73 in1006.8 mb 0.00 in0.0 mm 0.00 in/hr0.0 mm/hr 0.00 in0.0 mm
05:15 AM 50.9°F10.5°C 49.0°F9.4°C 93% 6.9 mph ENE11.1 kmh ENE 22.8 mph36.7 kmh 29.73 in1006.8 mb 0.00 in0.0 mm 0.00 in/hr0.0 mm/hr 0.00 in0.0 mm
05:14 AM 50.9°F10.5°C 49.0°F9.4°C 93% 10.7 mph ENE17.2 kmh ENE 22.8 mph36.7 kmh 29.73 in1006.8 mb 0.00 in0.0 mm 0.00 in/hr0.0 mm/hr 0.00 in0.0 mm
05:13 AM 50.9°F10.5°C 49.0°F9.4°C 93% 12.1 mph ENE19.5 kmh ENE 22.8 mph36.7 kmh 29.74 in1007.1 mb 0.00 in0.0 mm 0.00 in/hr0.0 mm/hr 0.00 in0.0 mm
05:12 AM 50.9°F10.5°C 49.0°F9.4°C 93% 7.6 mph ENE12.2 kmh ENE 22.8 mph36.7 kmh 29.73 in1006.8 mb 0.00 in0.0 mm 0.00 in/hr0.0 mm/hr 0.00 in0.0 mm
05:11 AM 50.9°F10.5°C 49.0°F9.4°C 93% 11.4 mph ENE18.3 kmh ENE 22.8 mph36.7 kmh 29.74 in1007.1 mb 0.00 in0.0 mm 0.00 in/hr0.0 mm/hr 0.00 in0.0 mm
05:10 AM 50.9°F10.5°C 49.0°F9.4°C 93% 14.5 mph ENE23.3 kmh ENE 22.8 mph36.7 kmh 29.74 in1007.1 mb 0.00 in0.0 mm 0.00 in/hr0.0 mm/hr 0.00 in0.0 mm
05:09 AM 50.7°F10.4°C 48.8°F9.3°C 93% 11.4 mph ENE18.3 kmh ENE 22.1 mph35.6 kmh 29.74 in1007.1 mb 0.00 in0.0 mm 0.00 in/hr0.0 mm/hr 0.00 in0.0 mm
05:08 AM 50.7°F10.4°C 48.8°F9.3°C 93% 9.8 mph ENE15.8 kmh ENE 19.0 mph30.6 kmh 29.74 in1007.1 mb 0.00 in0.0 mm 0.00 in/hr0.0 mm/hr 0.00 in0.0 mm
05:07 AM 50.7°F10.4°C 48.8°F9.3°C 93% 11.4 mph ENE18.3 kmh ENE 19.7 mph31.7 kmh 29.73 in1006.8 mb 0.00 in0.0 mm 0.00 in/hr0.0 mm/hr 0.00 in0.0 mm
05:06 AM 50.7°F10.4°C 48.8°F9.3°C 93% 9.2 mph ENE14.8 kmh ENE 19.7 mph31.7 kmh 29.74 in1007.1 mb 0.00 in0.0 mm 0.00 in/hr0.0 mm/hr 0.00 in0.0 mm
05:05 AM 50.7°F10.4°C 48.8°F9.3°C 93% 7.6 mph ENE12.2 kmh ENE 19.7 mph31.7 kmh 29.74 in1007.1 mb 0.00 in0.0 mm 0.00 in/hr0.0 mm/hr 0.00 in0.0 mm
05:04 AM 50.7°F10.4°C 48.8°F9.3°C 93% 13.0 mph ENE20.9 kmh ENE 19.7 mph31.7 kmh 29.73 in1006.8 mb 0.00 in0.0 mm 0.00 in/hr0.0 mm/hr 0.00 in0.0 mm
05:03 AM 50.5°F10.3°C 48.6°F9.2°C 93% 9.8 mph ENE15.8 kmh ENE 19.7 mph31.7 kmh 29.73 in1006.8 mb 0.00 in0.0 mm 0.00 in/hr0.0 mm/hr 0.00 in0.0 mm
05:02 AM 50.7°F10.4°C 48.8°F9.3°C 93% 7.6 mph ENE12.2 kmh ENE 19.7 mph31.7 kmh 29.73 in1006.8 mb 0.00 in0.0 mm 0.00 in/hr0.0 mm/hr 0.00 in0.0 mm
05:01 AM 50.7°F10.4°C 48.8°F9.3°C 93% 9.2 mph NE14.8 kmh NE 19.7 mph31.7 kmh 29.73 in1006.8 mb 0.00 in0.0 mm 0.00 in/hr0.0 mm/hr 0.00 in0.0 mm
05:00 AM 50.7°F10.4°C 48.8°F9.3°C 93% 10.7 mph NE17.2 kmh NE 19.7 mph31.7 kmh 29.74 in1007.1 mb 0.00 in0.0 mm 0.00 in/hr0.0 mm/hr 0.00 in0.0 mm
04:59 AM 50.7°F10.4°C 48.8°F9.3°C 93% 9.8 mph NE15.8 kmh NE 19.7 mph31.7 kmh 29.73 in1006.8 mb 0.00 in0.0 mm 0.00 in/hr0.0 mm/hr 0.00 in0.0 mm
04:58 AM 50.7°F10.4°C 48.8°F9.3°C 93% 8.3 mph NE13.4 kmh NE 19.7 mph31.7 kmh 29.73 in1006.8 mb 0.00 in0.0 mm 0.00 in/hr0.0 mm/hr 0.00 in0.0 mm
04:57 AM 50.7°F10.4°C 48.8°F9.3°C 93% 10.7 mph NE17.2 kmh NE 19.7 mph31.7 kmh 29.73 in1006.8 mb 0.00 in0.0 mm 0.00 in/hr0.0 mm/hr 0.00 in0.0 mm
04:56 AM 50.7°F10.4°C 48.8°F9.3°C 93% 10.7 mph NE17.2 kmh NE 19.7 mph31.7 kmh 29.73 in1006.8 mb 0.00 in0.0 mm 0.00 in/hr0.0 mm/hr 0.00 in0.0 mm
04:55 AM 50.7°F10.4°C 48.8°F9.3°C 93% 7.6 mph NE12.2 kmh NE 19.7 mph31.7 kmh 29.73 in1006.8 mb 0.00 in0.0 mm 0.00 in/hr0.0 mm/hr 0.00 in0.0 mm
04:54 AM 50.7°F10.4°C 48.8°F9.3°C 93% 9.8 mph NE15.8 kmh NE 19.7 mph31.7 kmh 29.73 in1006.8 mb 0.00 in0.0 mm 0.00 in/hr0.0 mm/hr 0.00 in0.0 mm
04:53 AM 50.9°F10.5°C 49.0°F9.4°C 93% 9.8 mph NE15.8 kmh NE 19.7 mph31.7 kmh 29.73 in1006.8 mb 0.00 in0.0 mm 0.00 in/hr0.0 mm/hr 0.00 in0.0 mm
04:52 AM 50.7°F10.4°C 48.8°F9.3°C 93% 13.6 mph NE21.9 kmh NE 19.7 mph31.7 kmh 29.73 in1006.8 mb 0.00 in0.0 mm 0.00 in/hr0.0 mm/hr 0.00 in0.0 mm
04:51 AM 50.9°F10.5°C 49.0°F9.4°C 93% 13.0 mph NE20.9 kmh NE 18.3 mph29.5 kmh 29.73 in1006.8 mb 0.00 in0.0 mm 0.00 in/hr0.0 mm/hr 0.00 in0.0 mm
04:50 AM 50.7°F10.4°C 48.8°F9.3°C 93% 13.0 mph ENE20.9 kmh ENE 25.9 mph41.7 kmh 29.73 in1006.8 mb 0.00 in0.0 mm 0.00 in/hr0.0 mm/hr 0.00 in0.0 mm
04:49 AM 50.7°F10.4°C 48.8°F9.3°C 93% 7.6 mph ENE12.2 kmh ENE 25.9 mph41.7 kmh 29.73 in1006.8 mb 0.00 in0.0 mm 0.00 in/hr0.0 mm/hr 0.00 in0.0 mm
04:48 AM 50.7°F10.4°C 48.8°F9.3°C 93% 7.6 mph ENE12.2 kmh ENE 25.9 mph41.7 kmh 29.73 in1006.8 mb 0.00 in0.0 mm 0.00 in/hr0.0 mm/hr 0.00 in0.0 mm
04:47 AM 50.5°F10.3°C 49.2°F9.6°C 95% 11.4 mph ENE18.3 kmh ENE 25.9 mph41.7 kmh 29.73 in1006.8 mb 0.00 in0.0 mm 0.00 in/hr0.0 mm/hr 0.00 in0.0 mm
04:46 AM 50.5°F10.3°C 48.6°F9.2°C 93% 6.0 mph ENE9.7 kmh ENE 25.9 mph41.7 kmh 29.73 in1006.8 mb 0.00 in0.0 mm 0.00 in/hr0.0 mm/hr 0.00 in0.0 mm
04:45 AM 50.7°F10.4°C 48.8°F9.3°C 93% 12.1 mph ENE19.5 kmh ENE 25.9 mph41.7 kmh 29.73 in1006.8 mb 0.00 in0.0 mm 0.00 in/hr0.0 mm/hr 0.00 in0.0 mm
04:44 AM 50.7°F10.4°C 48.8°F9.3°C 93% 6.9 mph ENE11.1 kmh ENE 25.9 mph41.7 kmh 29.73 in1006.8 mb 0.00 in0.0 mm 0.00 in/hr0.0 mm/hr 0.00 in0.0 mm
04:43 AM 50.7°F10.4°C 48.8°F9.3°C 93% 12.1 mph ENE19.5 kmh ENE 25.9 mph41.7 kmh 29.73 in1006.8 mb 0.00 in0.0 mm 0.00 in/hr0.0 mm/hr 0.00 in0.0 mm
04:42 AM 50.9°F10.5°C 49.0°F9.4°C 93% 9.2 mph ENE14.8 kmh ENE 25.9 mph41.7 kmh 29.73 in1006.8 mb 0.00 in0.0 mm 0.00 in/hr0.0 mm/hr 0.00 in0.0 mm
04:41 AM 50.9°F10.5°C 49.0°F9.4°C 93% 8.3 mph ENE13.4 kmh ENE 25.9 mph41.7 kmh 29.73 in1006.8 mb 0.00 in0.0 mm 0.00 in/hr0.0 mm/hr 0.00 in0.0 mm
04:40 AM 50.9°F10.5°C 49.0°F9.4°C 93% 18.3 mph ENE29.5 kmh ENE 25.9 mph41.7 kmh 29.73 in1006.8 mb 0.00 in0.0 mm 0.00 in/hr0.0 mm/hr 0.00 in0.0 mm
04:39 AM 50.9°F10.5°C 49.0°F9.4°C 93% 9.8 mph ENE15.8 kmh ENE 22.8 mph36.7 kmh 29.73 in1006.8 mb 0.00 in0.0 mm 0.00 in/hr0.0 mm/hr 0.00 in0.0 mm
04:38 AM 50.7°F10.4°C 49.3°F9.6°C 95% 13.0 mph ENE20.9 kmh ENE 22.8 mph36.7 kmh 29.73 in1006.8 mb 0.00 in0.0 mm 0.00 in/hr0.0 mm/hr 0.00 in0.0 mm
04:37 AM 50.7°F10.4°C 48.8°F9.3°C 93% 7.6 mph ENE12.2 kmh ENE 22.8 mph36.7 kmh 29.73 in1006.8 mb 0.00 in0.0 mm 0.00 in/hr0.0 mm/hr 0.00 in0.0 mm
04:36 AM 50.7°F10.4°C 48.8°F9.3°C 93% 7.6 mph ENE12.2 kmh ENE 22.8 mph36.7 kmh 29.73 in1006.8 mb 0.00 in0.0 mm 0.00 in/hr0.0 mm/hr 0.00 in0.0 mm
04:35 AM 50.9°F10.5°C 49.0°F9.4°C 93% 9.8 mph ENE15.8 kmh ENE 22.8 mph36.7 kmh 29.73 in1006.8 mb 0.00 in0.0 mm 0.00 in/hr0.0 mm/hr 0.00 in0.0 mm
04:34 AM 50.9°F10.5°C 49.0°F9.4°C 93% 9.2 mph ENE14.8 kmh ENE 22.8 mph36.7 kmh 29.73 in1006.8 mb 0.00 in0.0 mm 0.00 in/hr0.0 mm/hr 0.00 in0.0 mm
04:33 AM 50.9°F10.5°C 49.0°F9.4°C 93% 12.1 mph ENE19.5 kmh ENE 22.8 mph36.7 kmh 29.73 in1006.8 mb 0.00 in0.0 mm 0.00 in/hr0.0 mm/hr 0.00 in0.0 mm
04:32 AM 50.7°F10.4°C 48.8°F9.3°C 93% 12.1 mph ENE19.5 kmh ENE 22.8 mph36.7 kmh 29.73 in1006.8 mb 0.00 in0.0 mm 0.00 in/hr0.0 mm/hr 0.00 in0.0 mm
04:31 AM 50.7°F10.4°C 49.3°F9.6°C 95% 9.8 mph E15.8 kmh E 16.8 mph27.0 kmh 29.73 in1006.8 mb 0.00 in0.0 mm 0.00 in/hr0.0 mm/hr 0.00 in0.0 mm
04:30 AM 50.9°F10.5°C 49.0°F9.4°C 93% 6.9 mph E11.1 kmh E 16.8 mph27.0 kmh 29.73 in1006.8 mb 0.00 in0.0 mm 0.00 in/hr0.0 mm/hr 0.00 in0.0 mm
04:29 AM 50.7°F10.4°C 49.3°F9.6°C 95% 8.3 mph E13.4 kmh E 16.8 mph27.0 kmh 29.73 in1006.8 mb 0.00 in0.0 mm 0.00 in/hr0.0 mm/hr 0.00 in0.0 mm
04:28 AM 50.7°F10.4°C 49.3°F9.6°C 95% 6.0 mph E9.7 kmh E 15.9 mph25.6 kmh 29.73 in1006.8 mb 0.00 in0.0 mm 0.00 in/hr0.0 mm/hr 0.00 in0.0 mm
04:27 AM 50.7°F10.4°C 49.3°F9.6°C 95% 9.2 mph E14.8 kmh E 15.9 mph25.6 kmh 29.72 in1006.4 mb 0.00 in0.0 mm 0.00 in/hr0.0 mm/hr 0.00 in0.0 mm
04:26 AM 50.7°F10.4°C 49.3°F9.6°C 95% 8.3 mph E13.4 kmh E 15.9 mph25.6 kmh 29.72 in1006.4 mb 0.00 in0.0 mm 0.00 in/hr0.0 mm/hr 0.00 in0.0 mm
04:25 AM 50.7°F10.4°C 49.3°F9.6°C 95% 6.0 mph ENE9.7 kmh ENE 15.9 mph25.6 kmh 29.73 in1006.8 mb 0.00 in0.0 mm 0.00 in/hr0.0 mm/hr 0.00 in0.0 mm
04:24 AM 50.7°F10.4°C 49.3°F9.6°C 95% 4.5 mph ENE7.2 kmh ENE 15.9 mph25.6 kmh 29.73 in1006.8 mb 0.00 in0.0 mm 0.00 in/hr0.0 mm/hr 0.00 in0.0 mm
04:23 AM 50.9°F10.5°C 49.5°F9.7°C 95% 7.6 mph ENE12.2 kmh ENE 15.9 mph25.6 kmh 29.74 in1007.1 mb 0.00 in0.0 mm 0.00 in/hr0.0 mm/hr 0.00 in0.0 mm
04:22 AM 50.9°F10.5°C 49.5°F9.7°C 95% 7.6 mph ENE12.2 kmh ENE 15.9 mph25.6 kmh 29.74 in1007.1 mb 0.00 in0.0 mm 0.00 in/hr0.0 mm/hr 0.00 in0.0 mm
04:21 AM 50.9°F10.5°C 49.5°F9.7°C 95% 12.1 mph NE19.5 kmh NE 16.8 mph27.0 kmh 29.74 in1007.1 mb 0.00 in0.0 mm 0.00 in/hr0.0 mm/hr 0.00 in0.0 mm
04:20 AM 50.9°F10.5°C 49.5°F9.7°C 95% 8.3 mph NE13.4 kmh NE 16.8 mph27.0 kmh 29.74 in1007.1 mb 0.00 in0.0 mm 0.00 in/hr0.0 mm/hr 0.00 in0.0 mm
04:19 AM 50.9°F10.5°C 49.5°F9.7°C 95% 8.3 mph NE13.4 kmh NE 16.8 mph27.0 kmh 29.74 in1007.1 mb 0.00 in0.0 mm 0.00 in/hr0.0 mm/hr 0.00 in0.0 mm
04:18 AM 50.7°F10.4°C 49.3°F9.6°C 95% 6.9 mph NE11.1 kmh NE 16.8 mph27.0 kmh 29.74 in1007.1 mb 0.00 in0.0 mm 0.00 in/hr0.0 mm/hr 0.00 in0.0 mm
04:17 AM 50.7°F10.4°C 49.3°F9.6°C 95% 3.8 mph NE6.1 kmh NE 16.8 mph27.0 kmh 29.74 in1007.1 mb 0.00 in0.0 mm 0.00 in/hr0.0 mm/hr 0.00 in0.0 mm
04:16 AM 50.7°F10.4°C 49.3°F9.6°C 95% 10.7 mph NE17.2 kmh NE 16.8 mph27.0 kmh 29.74 in1007.1 mb 0.00 in0.0 mm 0.00 in/hr0.0 mm/hr 0.00 in0.0 mm
04:15 AM 50.9°F10.5°C 49.5°F9.7°C 95% 7.6 mph NE12.2 kmh NE 16.8 mph27.0 kmh 29.74 in1007.1 mb 0.00 in0.0 mm 0.00 in/hr0.0 mm/hr 0.00 in0.0 mm
04:14 AM 50.9°F10.5°C 49.5°F9.7°C 95% 6.0 mph NE9.7 kmh NE 16.8 mph27.0 kmh 29.74 in1007.1 mb 0.00 in0.0 mm 0.00 in/hr0.0 mm/hr 0.00 in0.0 mm
04:13 AM 50.9°F10.5°C 49.0°F9.4°C 93% 5.4 mph NE8.7 kmh NE 16.8 mph27.0 kmh 29.74 in1007.1 mb 0.00 in0.0 mm 0.00 in/hr0.0 mm/hr 0.00 in0.0 mm
04:12 AM 50.9°F10.5°C 49.0°F9.4°C 93% 6.9 mph NE11.1 kmh NE 16.8 mph27.0 kmh 29.73 in1006.8 mb 0.00 in0.0 mm 0.00 in/hr0.0 mm/hr 0.00 in0.0 mm
04:11 AM 50.9°F10.5°C 49.0°F9.4°C 93% 12.1 mph NE19.5 kmh NE 16.8 mph27.0 kmh 29.73 in1006.8 mb 0.00 in0.0 mm 0.00 in/hr0.0 mm/hr 0.00 in0.0 mm
04:10 AM 50.9°F10.5°C 49.0°F9.4°C 93% 6.0 mph NE9.7 kmh NE 15.2 mph24.5 kmh 29.73 in1006.8 mb 0.00 in0.0 mm 0.00 in/hr0.0 mm/hr 0.00 in0.0 mm
04:09 AM 50.9°F10.5°C 49.0°F9.4°C 93% 10.7 mph NE17.2 kmh NE 22.8 mph36.7 kmh 29.73 in1006.8 mb 0.00 in0.0 mm 0.00 in/hr0.0 mm/hr 0.00 in0.0 mm
04:08 AM 50.9°F10.5°C 49.0°F9.4°C 93% 8.3 mph NNE13.4 kmh NNE 22.8 mph36.7 kmh 29.73 in1006.8 mb 0.00 in0.0 mm 0.00 in/hr0.0 mm/hr 0.00 in0.0 mm
04:07 AM 51.1°F10.6°C 49.1°F9.5°C 93% 10.7 mph NE17.2 kmh NE 22.8 mph36.7 kmh 29.74 in1007.1 mb 0.00 in0.0 mm 0.00 in/hr0.0 mm/hr 0.00 in0.0 mm
04:06 AM 51.1°F10.6°C 49.1°F9.5°C 93% 10.7 mph NE17.2 kmh NE 22.8 mph36.7 kmh 29.73 in1006.8 mb 0.00 in0.0 mm 0.00 in/hr0.0 mm/hr 0.00 in0.0 mm
04:05 AM 51.1°F10.6°C 49.1°F9.5°C 93% 10.7 mph NE17.2 kmh NE 22.8 mph36.7 kmh 29.74 in1007.1 mb 0.00 in0.0 mm 0.00 in/hr0.0 mm/hr 0.00 in0.0 mm
04:04 AM 51.1°F10.6°C 49.1°F9.5°C 93% 10.7 mph NE17.2 kmh NE 22.8 mph36.7 kmh 29.74 in1007.1 mb 0.00 in0.0 mm 0.00 in/hr0.0 mm/hr 0.00 in0.0 mm
04:03 AM 51.1°F10.6°C 49.1°F9.5°C 93% 10.7 mph NE17.2 kmh NE 22.8 mph36.7 kmh 29.73 in1006.8 mb 0.00 in0.0 mm 0.00 in/hr0.0 mm/hr 0.00 in0.0 mm
04:02 AM 51.1°F10.6°C 49.1°F9.5°C 93% 10.7 mph NE17.2 kmh NE 22.8 mph36.7 kmh 29.73 in1006.8 mb 0.00 in0.0 mm 0.00 in/hr0.0 mm/hr 0.00 in0.0 mm
04:01 AM 51.1°F10.6°C 49.1°F9.5°C 93% 10.7 mph NE17.2 kmh NE 22.8 mph36.7 kmh 29.73 in1006.8 mb 0.00 in0.0 mm 0.00 in/hr0.0 mm/hr 0.00 in0.0 mm
04:00 AM 51.1°F10.6°C 49.1°F9.5°C 93% 10.7 mph NE17.2 kmh NE 22.8 mph36.7 kmh 29.73 in1006.8 mb 0.00 in0.0 mm 0.00 in/hr0.0 mm/hr 0.00 in0.0 mm
03:59 AM 51.1°F10.6°C 49.1°F9.5°C 93% 11.4 mph NE18.3 kmh NE 22.8 mph36.7 kmh 29.73 in1006.8 mb 0.00 in0.0 mm 0.00 in/hr0.0 mm/hr 0.00 in0.0 mm
03:58 AM 51.1°F10.6°C 49.1°F9.5°C 93% 6.9 mph NE11.1 kmh NE 18.3 mph29.5 kmh 29.73 in1006.8 mb 0.00 in0.0 mm 0.00 in/hr0.0 mm/hr 0.00 in0.0 mm
03:57 AM 50.9°F10.5°C 49.5°F9.7°C 95% 11.4 mph NE18.3 kmh NE 18.3 mph29.5 kmh 29.73 in1006.8 mb 0.00 in0.0 mm 0.00 in/hr0.0 mm/hr 0.00 in0.0 mm
03:56 AM 51.1°F10.6°C 49.7°F9.8°C 95% 4.5 mph NE7.2 kmh NE 18.3 mph29.5 kmh 29.74 in1007.1 mb 0.00 in0.0 mm 0.00 in/hr0.0 mm/hr 0.00 in0.0 mm
03:55 AM 51.1°F10.6°C 49.1°F9.5°C 93% 6.0 mph NE9.7 kmh NE 18.3 mph29.5 kmh 29.73 in1006.8 mb 0.00 in0.0 mm 0.00 in/hr0.0 mm/hr 0.00 in0.0 mm
03:54 AM 51.1°F10.6°C 49.7°F9.8°C 95% 13.0 mph NE20.9 kmh NE 18.3 mph29.5 kmh 29.73 in1006.8 mb 0.00 in0.0 mm 0.00 in/hr0.0 mm/hr 0.00 in0.0 mm
03:53 AM 51.1°F10.6°C 49.7°F9.8°C 95% 7.6 mph NE12.2 kmh NE 17.4 mph28.0 kmh 29.73 in1006.8 mb 0.00 in0.0 mm 0.00 in/hr0.0 mm/hr 0.00 in0.0 mm
03:52 AM 51.1°F10.6°C 49.7°F9.8°C 95% 8.3 mph NE13.4 kmh NE 17.4 mph28.0 kmh 29.74 in1007.1 mb 0.00 in0.0 mm 0.00 in/hr0.0 mm/hr 0.00 in0.0 mm
03:51 AM 51.1°F10.6°C 49.7°F9.8°C 95% 8.3 mph NE13.4 kmh NE 17.4 mph28.0 kmh 29.74 in1007.1 mb 0.00 in0.0 mm 0.00 in/hr0.0 mm/hr 0.00 in0.0 mm
03:50 AM 50.9°F10.5°C 49.5°F9.7°C 95% 9.2 mph NE14.8 kmh NE 17.4 mph28.0 kmh 29.74 in1007.1 mb 0.00 in0.0 mm 0.00 in/hr0.0 mm/hr 0.00 in0.0 mm
03:49 AM 51.1°F10.6°C 49.7°F9.8°C 95% 9.2 mph NE14.8 kmh NE 17.4 mph28.0 kmh 29.74 in1007.1 mb 0.00 in0.0 mm 0.00 in/hr0.0 mm/hr 0.00 in0.0 mm
03:48 AM 51.1°F10.6°C 49.7°F9.8°C 95% 9.8 mph NE15.8 kmh NE 17.4 mph28.0 kmh 29.74 in1007.1 mb 0.00 in0.0 mm 0.00 in/hr0.0 mm/hr 0.00 in0.0 mm
03:47 AM 50.9°F10.5°C 49.8°F9.9°C 96% 8.3 mph NE13.4 kmh NE 17.4 mph28.0 kmh 29.74 in1007.1 mb 0.00 in0.0 mm 0.00 in/hr0.0 mm/hr 0.00 in0.0 mm
03:46 AM 50.9°F10.5°C 49.8°F9.9°C 96% 6.9 mph NE11.1 kmh NE 17.4 mph28.0 kmh 29.74 in1007.1 mb 0.00 in0.0 mm 0.00 in/hr0.0 mm/hr 0.00 in0.0 mm
03:45 AM 50.9°F10.5°C 49.8°F9.9°C 96% 6.0 mph NE9.7 kmh NE 15.2 mph24.5 kmh 29.74 in1007.1 mb 0.00 in0.0 mm 0.00 in/hr0.0 mm/hr 0.00 in0.0 mm
03:44 AM 50.7°F10.4°C 49.6°F9.8°C 96% 3.8 mph NE6.1 kmh NE 15.2 mph24.5 kmh 29.74 in1007.1 mb 0.00 in0.0 mm 0.00 in/hr0.0 mm/hr 0.00 in0.0 mm
03:43 AM 50.9°F10.5°C 49.8°F9.9°C 96% 2.2 mph NE3.5 kmh NE 15.2 mph24.5 kmh 29.74 in1007.1 mb 0.00 in0.0 mm 0.00 in/hr0.0 mm/hr 0.00 in0.0 mm
03:42 AM 50.9°F10.5°C 49.8°F9.9°C 96% 4.5 mph NE7.2 kmh NE 15.2 mph24.5 kmh 29.74 in1007.1 mb 0.00 in0.0 mm 0.00 in/hr0.0 mm/hr 0.00 in0.0 mm
03:41 AM 50.9°F10.5°C 49.8°F9.9°C 96% 4.5 mph NE7.2 kmh NE 15.2 mph24.5 kmh 29.74 in1007.1 mb 0.00 in0.0 mm 0.00 in/hr0.0 mm/hr 0.00 in0.0 mm
03:40 AM 50.9°F10.5°C 49.8°F9.9°C 96% 5.4 mph NE8.7 kmh NE 15.2 mph24.5 kmh 29.74 in1007.1 mb 0.00 in0.0 mm 0.00 in/hr0.0 mm/hr 0.00 in0.0 mm
03:39 AM 50.9°F10.5°C 49.8°F9.9°C 96% 12.1 mph NE19.5 kmh NE 15.2 mph24.5 kmh 29.74 in1007.1 mb 0.00 in0.0 mm 0.00 in/hr0.0 mm/hr 0.00 in0.0 mm
03:38 AM 50.9°F10.5°C 49.8°F9.9°C 96% 6.0 mph ENE9.7 kmh ENE 14.5 mph23.3 kmh 29.74 in1007.1 mb 0.00 in0.0 mm 0.00 in/hr0.0 mm/hr 0.00 in0.0 mm
03:37 AM 50.7°F10.4°C 49.6°F9.8°C 96% 6.0 mph ENE9.7 kmh ENE 14.5 mph23.3 kmh 29.74 in1007.1 mb 0.00 in0.0 mm 0.00 in/hr0.0 mm/hr 0.00 in0.0 mm
03:36 AM 50.7°F10.4°C 49.6°F9.8°C 96% 4.5 mph ENE7.2 kmh ENE 14.5 mph23.3 kmh 29.74 in1007.1 mb 0.00 in0.0 mm 0.00 in/hr0.0 mm/hr 0.00 in0.0 mm
03:35 AM 50.9°F10.5°C 49.8°F9.9°C 96% 4.5 mph ENE7.2 kmh ENE 14.5 mph23.3 kmh 29.74 in1007.1 mb 0.00 in0.0 mm 0.00 in/hr0.0 mm/hr 0.00 in0.0 mm
03:34 AM 50.9°F10.5°C 49.8°F9.9°C 96% 3.8 mph E6.1 kmh E 14.5 mph23.3 kmh 29.74 in1007.1 mb 0.00 in0.0 mm 0.00 in/hr0.0 mm/hr 0.00 in0.0 mm
03:33 AM 50.9°F10.5°C 49.8°F9.9°C 96% 5.4 mph E8.7 kmh E 14.5 mph23.3 kmh 29.74 in1007.1 mb 0.00 in0.0 mm 0.00 in/hr0.0 mm/hr 0.00 in0.0 mm
03:32 AM 50.9°F10.5°C 49.8°F9.9°C 96% 7.6 mph E12.2 kmh E 14.5 mph23.3 kmh 29.74 in1007.1 mb 0.00 in0.0 mm 0.00 in/hr0.0 mm/hr 0.00 in0.0 mm
03:31 AM 50.9°F10.5°C 49.8°F9.9°C 96% 8.3 mph ENE13.4 kmh ENE 14.5 mph23.3 kmh 29.74 in1007.1 mb 0.00 in0.0 mm 0.00 in/hr0.0 mm/hr 0.00 in0.0 mm
03:30 AM 50.9°F10.5°C 49.8°F9.9°C 96% 7.6 mph ENE12.2 kmh ENE 14.5 mph23.3 kmh 29.75 in1007.5 mb 0.00 in0.0 mm 0.00 in/hr0.0 mm/hr 0.00 in0.0 mm
03:29 AM 50.7°F10.4°C 49.9°F9.9°C 97% 8.3 mph ENE13.4 kmh ENE 14.5 mph23.3 kmh 29.75 in1007.5 mb 0.00 in0.0 mm 0.00 in/hr0.0 mm/hr 0.00 in0.0 mm
03:28 AM 50.9°F10.5°C 50.1°F10.1°C 97% 5.4 mph ENE8.7 kmh ENE 14.5 mph23.3 kmh 29.74 in1007.1 mb 0.00 in0.0 mm 0.00 in/hr0.0 mm/hr 0.00 in0.0 mm
03:27 AM 50.9°F10.5°C 49.8°F9.9°C 96% 6.9 mph ENE11.1 kmh ENE 14.5 mph23.3 kmh 29.75 in1007.5 mb 0.00 in0.0 mm 0.00 in/hr0.0 mm/hr 0.00 in0.0 mm
03:26 AM 50.9°F10.5°C 49.8°F9.9°C 96% 6.0 mph ENE9.7 kmh ENE 14.5 mph23.3 kmh 29.74 in1007.1 mb 0.00 in0.0 mm 0.00 in/hr0.0 mm/hr 0.00 in0.0 mm
03:25 AM 50.9°F10.5°C 49.8°F9.9°C 96% 6.9 mph ENE11.1 kmh ENE 14.5 mph23.3 kmh 29.74 in1007.1 mb 0.00 in0.0 mm 0.00 in/hr0.0 mm/hr 0.00 in0.0 mm
03:24 AM 50.7°F10.4°C 49.9°F9.9°C 97% 9.8 mph NE15.8 kmh NE 14.5 mph23.3 kmh 29.74 in1007.1 mb 0.00 in0.0 mm 0.00 in/hr0.0 mm/hr 0.00 in0.0 mm
03:23 AM 50.7°F10.4°C 49.9°F9.9°C 97% 8.3 mph NE13.4 kmh NE 14.5 mph23.3 kmh 29.74 in1007.1 mb 0.00 in0.0 mm 0.00 in/hr0.0 mm/hr 0.00 in0.0 mm
03:22 AM 50.9°F10.5°C 50.1°F10.1°C 97% 7.6 mph NE12.2 kmh NE 15.2 mph24.5 kmh 29.75 in1007.5 mb 0.00 in0.0 mm 0.00 in/hr0.0 mm/hr 0.00 in0.0 mm
03:21 AM 50.7°F10.4°C 49.9°F9.9°C 97% 4.5 mph NE7.2 kmh NE 17.4 mph28.0 kmh 29.75 in1007.5 mb 0.00 in0.0 mm 0.00 in/hr0.0 mm/hr 0.00 in0.0 mm
03:20 AM 50.7°F10.4°C 49.9°F9.9°C 97% 6.0 mph ENE9.7 kmh ENE 17.4 mph28.0 kmh 29.75 in1007.5 mb 0.00 in0.0 mm 0.00 in/hr0.0 mm/hr 0.00 in0.0 mm
03:19 AM 50.7°F10.4°C 49.9°F9.9°C 97% 5.4 mph E8.7 kmh E 17.4 mph28.0 kmh 29.75 in1007.5 mb 0.00 in0.0 mm 0.00 in/hr0.0 mm/hr 0.00 in0.0 mm
03:18 AM 50.7°F10.4°C 49.9°F9.9°C 97% 6.9 mph E11.1 kmh E 17.4 mph28.0 kmh 29.75 in1007.5 mb 0.00 in0.0 mm 0.00 in/hr0.0 mm/hr 0.00 in0.0 mm
03:17 AM 50.7°F10.4°C 49.9°F9.9°C 97% 8.3 mph E13.4 kmh E 17.4 mph28.0 kmh 29.75 in1007.5 mb 0.00 in0.0 mm 0.00 in/hr0.0 mm/hr 0.00 in0.0 mm
03:16 AM 50.7°F10.4°C 49.9°F9.9°C 97% 6.0 mph ENE9.7 kmh ENE 17.4 mph28.0 kmh 29.75 in1007.5 mb 0.00 in0.0 mm 0.00 in/hr0.0 mm/hr 0.00 in0.0 mm
03:15 AM 50.7°F10.4°C 49.9°F9.9°C 97% 6.9 mph ENE11.1 kmh ENE 17.4 mph28.0 kmh 29.75 in1007.5 mb 0.00 in0.0 mm 0.00 in/hr0.0 mm/hr 0.00 in0.0 mm
03:14 AM 50.7°F10.4°C 49.9°F9.9°C 97% 5.4 mph ENE8.7 kmh ENE 17.4 mph28.0 kmh 29.75 in1007.5 mb 0.00 in0.0 mm 0.00 in/hr0.0 mm/hr 0.00 in0.0 mm
03:13 AM 50.9°F10.5°C 49.8°F9.9°C 96% 7.6 mph NE12.2 kmh NE 17.4 mph28.0 kmh 29.75 in1007.5 mb 0.00 in0.0 mm 0.00 in/hr0.0 mm/hr 0.00 in0.0 mm
03:12 AM 50.9°F10.5°C 50.1°F10.1°C 97% 14.5 mph ENE23.3 kmh ENE 17.4 mph28.0 kmh 29.75 in1007.5 mb 0.00 in0.0 mm 0.00 in/hr0.0 mm/hr 0.00 in0.0 mm
03:11 AM 50.7°F10.4°C 49.9°F9.9°C 97% 8.3 mph ENE13.4 kmh ENE 14.5 mph23.3 kmh 29.75 in1007.5 mb 0.00 in0.0 mm 0.00 in/hr0.0 mm/hr 0.00 in0.0 mm
03:10 AM 50.7°F10.4°C 50.2°F10.1°C 98% 8.3 mph NE13.4 kmh NE 14.5 mph23.3 kmh 29.75 in1007.5 mb 0.00 in0.0 mm 0.00 in/hr0.0 mm/hr 0.00 in0.0 mm
03:09 AM 50.5°F10.3°C 50.0°F10.0°C 98% 6.9 mph NE11.1 kmh NE 14.5 mph23.3 kmh 29.74 in1007.1 mb 0.00 in0.0 mm 0.00 in/hr0.0 mm/hr 0.00 in0.0 mm
03:08 AM 50.7°F10.4°C 49.9°F9.9°C 97% 4.5 mph NE7.2 kmh NE 14.5 mph23.3 kmh 29.75 in1007.5 mb 0.00 in0.0 mm 0.00 in/hr0.0 mm/hr 0.00 in0.0 mm
03:07 AM 50.7°F10.4°C 50.2°F10.1°C 98% 6.9 mph NE11.1 kmh NE 14.5 mph23.3 kmh 29.75 in1007.5 mb 0.00 in0.0 mm 0.00 in/hr0.0 mm/hr 0.00 in0.0 mm
03:06 AM 50.7°F10.4°C 50.2°F10.1°C 98% 6.9 mph NE11.1 kmh NE 14.5 mph23.3 kmh 29.75 in1007.5 mb 0.00 in0.0 mm 0.00 in/hr0.0 mm/hr 0.00 in0.0 mm
03:05 AM 50.7°F10.4°C 49.9°F9.9°C 97% 6.0 mph NE9.7 kmh NE 14.5 mph23.3 kmh 29.75 in1007.5 mb 0.00 in0.0 mm 0.00 in/hr0.0 mm/hr 0.00 in0.0 mm
03:04 AM 50.7°F10.4°C 49.9°F9.9°C 97% 7.6 mph NE12.2 kmh NE 14.5 mph23.3 kmh 29.75 in1007.5 mb 0.00 in0.0 mm 0.00 in/hr0.0 mm/hr 0.00 in0.0 mm
03:03 AM 50.7°F10.4°C 50.2°F10.1°C 98% 11.4 mph ENE18.3 kmh ENE 15.2 mph24.5 kmh 29.75 in1007.5 mb 0.00 in0.0 mm 0.00 in/hr0.0 mm/hr 0.00 in0.0 mm
03:02 AM 50.5°F10.3°C 50.0°F10.0°C 98% 9.8 mph ENE15.8 kmh ENE 15.2 mph24.5 kmh 29.75 in1007.5 mb 0.00 in0.0 mm 0.00 in/hr0.0 mm/hr 0.00 in0.0 mm
03:01 AM 50.5°F10.3°C 50.0°F10.0°C 98% 6.0 mph NE9.7 kmh NE 17.4 mph28.0 kmh 29.75 in1007.5 mb 0.00 in0.0 mm 0.00 in/hr0.0 mm/hr 0.00 in0.0 mm
03:00 AM 50.5°F10.3°C 50.0°F10.0°C 98% 9.2 mph ENE14.8 kmh ENE 17.4 mph28.0 kmh 29.75 in1007.5 mb 0.00 in0.0 mm 0.00 in/hr0.0 mm/hr 0.00 in0.0 mm
02:59 AM 50.5°F10.3°C 50.0°F10.0°C 98% 6.9 mph ENE11.1 kmh ENE 17.4 mph28.0 kmh 29.75 in1007.5 mb 0.00 in0.0 mm 0.00 in/hr0.0 mm/hr 0.00 in0.0 mm
02:58 AM 50.7°F10.4°C 50.2°F10.1°C 98% 6.0 mph ENE9.7 kmh ENE 17.4 mph28.0 kmh 29.75 in1007.5 mb 0.00 in0.0 mm 0.00 in/hr0.0 mm/hr 0.00 in0.0 mm
02:57 AM 50.5°F10.3°C 50.0°F10.0°C 98% 7.6 mph ENE12.2 kmh ENE 17.4 mph28.0 kmh 29.75 in1007.5 mb 0.00 in0.0 mm 0.00 in/hr0.0 mm/hr 0.00 in0.0 mm
02:56 AM 50.5°F10.3°C 50.0°F10.0°C 98% 6.9 mph ENE11.1 kmh ENE 17.4 mph28.0 kmh 29.75 in1007.5 mb 0.00 in0.0 mm 0.00 in/hr0.0 mm/hr 0.00 in0.0 mm
02:55 AM 50.5°F10.3°C 50.0°F10.0°C 98% 8.3 mph ENE13.4 kmh ENE 17.4 mph28.0 kmh 29.75 in1007.5 mb 0.00 in0.0 mm 0.00 in/hr0.0 mm/hr 0.00 in0.0 mm
02:54 AM 50.5°F10.3°C 50.0°F10.0°C 98% 9.2 mph ENE14.8 kmh ENE 17.4 mph28.0 kmh 29.75 in1007.5 mb 0.00 in0.0 mm 0.00 in/hr0.0 mm/hr 0.00 in0.0 mm
02:53 AM 50.5°F10.3°C 50.0°F10.0°C 98% 6.0 mph ENE9.7 kmh ENE 17.4 mph28.0 kmh 29.75 in1007.5 mb 0.00 in0.0 mm 0.00 in/hr0.0 mm/hr 0.00 in0.0 mm
02:52 AM 50.7°F10.4°C 50.2°F10.1°C 98% 6.9 mph ENE11.1 kmh ENE 18.3 mph29.5 kmh 29.75 in1007.5 mb 0.00 in0.0 mm 0.00 in/hr0.0 mm/hr 0.00 in0.0 mm
02:51 AM 50.5°F10.3°C 50.0°F10.0°C 98% 10.7 mph ENE17.2 kmh ENE 18.3 mph29.5 kmh 29.75 in1007.5 mb 0.00 in0.0 mm 0.00 in/hr0.0 mm/hr 0.00 in0.0 mm
02:50 AM 50.7°F10.4°C 50.2°F10.1°C 98% 7.6 mph ENE12.2 kmh ENE 19.0 mph30.6 kmh 29.75 in1007.5 mb 0.00 in0.0 mm 0.00 in/hr0.0 mm/hr 0.00 in0.0 mm
02:49 AM 50.7°F10.4°C 50.2°F10.1°C 98% 8.3 mph ENE13.4 kmh ENE 19.0 mph30.6 kmh 29.75 in1007.5 mb 0.00 in0.0 mm 0.00 in/hr0.0 mm/hr 0.00 in0.0 mm
02:48 AM 50.7°F10.4°C 50.2°F10.1°C 98% 9.2 mph ENE14.8 kmh ENE 19.0 mph30.6 kmh 29.75 in1007.5 mb 0.00 in0.0 mm 0.00 in/hr0.0 mm/hr 0.00 in0.0 mm
02:47 AM 50.7°F10.4°C 50.2°F10.1°C 98% 8.3 mph ENE13.4 kmh ENE 19.0 mph30.6 kmh 29.75 in1007.5 mb 0.00 in0.0 mm 0.00 in/hr0.0 mm/hr 0.00 in0.0 mm
02:46 AM 50.5°F10.3°C 50.0°F10.0°C 98% 9.8 mph ENE15.8 kmh ENE 19.0 mph30.6 kmh 29.75 in1007.5 mb 0.00 in0.0 mm 0.00 in/hr0.0 mm/hr 0.00 in0.0 mm
02:45 AM 50.5°F10.3°C 50.0°F10.0°C 98% 4.5 mph ENE7.2 kmh ENE 19.0 mph30.6 kmh 29.75 in1007.5 mb 0.00 in0.0 mm 0.00 in/hr0.0 mm/hr 0.00 in0.0 mm
02:44 AM 50.7°F10.4°C 49.9°F9.9°C 97% 7.6 mph ENE12.2 kmh ENE 19.0 mph30.6 kmh 29.75 in1007.5 mb 0.00 in0.0 mm 0.00 in/hr0.0 mm/hr 0.00 in0.0 mm
02:43 AM 50.9°F10.5°C 50.1°F10.1°C 97% 8.3 mph NE13.4 kmh NE 19.0 mph30.6 kmh 29.75 in1007.5 mb 0.00 in0.0 mm 0.00 in/hr0.0 mm/hr 0.00 in0.0 mm
02:42 AM 50.9°F10.5°C 50.1°F10.1°C 97% 11.4 mph NE18.3 kmh NE 19.0 mph30.6 kmh 29.75 in1007.5 mb 0.00 in0.0 mm 0.00 in/hr0.0 mm/hr 0.00 in0.0 mm
02:41 AM 50.9°F10.5°C 50.1°F10.1°C 97% 9.8 mph NE15.8 kmh NE 19.0 mph30.6 kmh 29.75 in1007.5 mb 0.00 in0.0 mm 0.00 in/hr0.0 mm/hr 0.00 in0.0 mm
02:40 AM 50.7°F10.4°C 49.9°F9.9°C 97% 9.2 mph NE14.8 kmh NE 14.5 mph23.3 kmh 29.75 in1007.5 mb 0.00 in0.0 mm 0.00 in/hr0.0 mm/hr 0.00 in0.0 mm
02:39 AM 50.9°F10.5°C 50.1°F10.1°C 97% 6.0 mph NE9.7 kmh NE 14.5 mph23.3 kmh 29.75 in1007.5 mb 0.00 in0.0 mm 0.00 in/hr0.0 mm/hr 0.00 in0.0 mm
02:38 AM 50.9°F10.5°C 50.1°F10.1°C 97% 9.8 mph NE15.8 kmh NE 21.3 mph34.3 kmh 29.75 in1007.5 mb 0.00 in0.0 mm 0.00 in/hr0.0 mm/hr 0.00 in0.0 mm
02:37 AM 50.7°F10.4°C 50.2°F10.1°C 98% 11.4 mph NE18.3 kmh NE 21.3 mph34.3 kmh 29.75 in1007.5 mb 0.00 in0.0 mm 0.00 in/hr0.0 mm/hr 0.00 in0.0 mm
02:36 AM 50.7°F10.4°C 49.9°F9.9°C 97% 6.0 mph NE9.7 kmh NE 21.3 mph34.3 kmh 29.75 in1007.5 mb 0.00 in0.0 mm 0.00 in/hr0.0 mm/hr 0.00 in0.0 mm
02:35 AM 50.7°F10.4°C 49.9°F9.9°C 97% 6.0 mph NE9.7 kmh NE 21.3 mph34.3 kmh 29.75 in1007.5 mb 0.00 in0.0 mm 0.00 in/hr0.0 mm/hr 0.00 in0.0 mm
02:34 AM 50.9°F10.5°C 50.1°F10.1°C 97% 6.0 mph NE9.7 kmh NE 21.3 mph34.3 kmh 29.75 in1007.5 mb 0.00 in0.0 mm 0.00 in/hr0.0 mm/hr 0.00 in0.0 mm
02:33 AM 50.9°F10.5°C 50.1°F10.1°C 97% 6.9 mph NE11.1 kmh NE 21.3 mph34.3 kmh 29.75 in1007.5 mb 0.00 in0.0 mm 0.00 in/hr0.0 mm/hr 0.00 in0.0 mm
02:32 AM 50.9°F10.5°C 50.1°F10.1°C 97% 7.6 mph NE12.2 kmh NE 21.3 mph34.3 kmh 29.75 in1007.5 mb 0.00 in0.0 mm 0.00 in/hr0.0 mm/hr 0.00 in0.0 mm
02:31 AM 50.9°F10.5°C 49.8°F9.9°C 96% 5.4 mph ENE8.7 kmh ENE 21.3 mph34.3 kmh 29.75 in1007.5 mb 0.00 in0.0 mm 0.00 in/hr0.0 mm/hr 0.00 in0.0 mm
02:30 AM 50.9°F10.5°C 49.8°F9.9°C 96% 6.0 mph ENE9.7 kmh ENE 21.3 mph34.3 kmh 29.75 in1007.5 mb 0.00 in0.0 mm 0.00 in/hr0.0 mm/hr 0.00 in0.0 mm
02:29 AM 51.1°F10.6°C 50.0°F10.0°C 96% 9.2 mph ENE14.8 kmh ENE 21.3 mph34.3 kmh 29.75 in1007.5 mb 0.00 in0.0 mm 0.00 in/hr0.0 mm/hr 0.00 in0.0 mm
02:28 AM 50.9°F10.5°C 50.1°F10.1°C 97% 10.7 mph ENE17.2 kmh ENE 17.4 mph28.0 kmh 29.74 in1007.1 mb 0.00 in0.0 mm 0.00 in/hr0.0 mm/hr 0.00 in0.0 mm
02:27 AM 50.7°F10.4°C 49.9°F9.9°C 97% 6.0 mph ENE9.7 kmh ENE 17.4 mph28.0 kmh 29.74 in1007.1 mb 0.00 in0.0 mm 0.00 in/hr0.0 mm/hr 0.00 in0.0 mm
02:26 AM 50.9°F10.5°C 50.1°F10.1°C 97% 7.6 mph ENE12.2 kmh ENE 17.4 mph28.0 kmh 29.75 in1007.5 mb 0.00 in0.0 mm 0.00 in/hr0.0 mm/hr 0.00 in0.0 mm
02:25 AM 50.9°F10.5°C 50.1°F10.1°C 97% 7.6 mph ENE12.2 kmh ENE 17.4 mph28.0 kmh 29.74 in1007.1 mb 0.00 in0.0 mm 0.00 in/hr0.0 mm/hr 0.00 in0.0 mm
02:24 AM 50.7°F10.4°C 50.2°F10.1°C 98% 9.2 mph ENE14.8 kmh ENE 17.4 mph28.0 kmh 29.74 in1007.1 mb 0.00 in0.0 mm 0.00 in/hr0.0 mm/hr 0.00 in0.0 mm
02:23 AM 50.5°F10.3°C 50.5°F10.3°C 100% 12.1 mph ENE19.5 kmh ENE 17.4 mph28.0 kmh 29.75 in1007.5 mb 0.00 in0.0 mm 0.00 in/hr0.0 mm/hr 0.00 in0.0 mm
02:22 AM 50.5°F10.3°C 50.5°F10.3°C 100% 12.1 mph ENE19.5 kmh ENE 17.4 mph28.0 kmh 29.75 in1007.5 mb 0.00 in0.0 mm 0.00 in/hr0.0 mm/hr 0.00 in0.0 mm
02:21 AM 50.5°F10.3°C 50.5°F10.3°C 100% 12.1 mph ENE19.5 kmh ENE 17.4 mph28.0 kmh 29.75 in1007.5 mb 0.00 in0.0 mm 0.00 in/hr0.0 mm/hr 0.00 in0.0 mm
02:20 AM 50.5°F10.3°C 50.5°F10.3°C 100% 12.1 mph ENE19.5 kmh ENE 17.4 mph28.0 kmh 29.74 in1007.1 mb 0.00 in0.0 mm 0.00 in/hr0.0 mm/hr 0.00 in0.0 mm
02:19 AM 50.5°F10.3°C 50.5°F10.3°C 100% 12.1 mph ENE19.5 kmh ENE 17.4 mph28.0 kmh 29.74 in1007.1 mb 0.00 in0.0 mm 0.00 in/hr0.0 mm/hr 0.00 in0.0 mm
02:18 AM 50.5°F10.3°C 50.5°F10.3°C 100% 12.1 mph NE19.5 kmh NE 17.4 mph28.0 kmh 29.74 in1007.1 mb 0.00 in0.0 mm 0.00 in/hr0.0 mm/hr 0.00 in0.0 mm
02:17 AM 50.5°F10.3°C 50.5°F10.3°C 100% 12.1 mph NE19.5 kmh NE 17.4 mph28.0 kmh 29.74 in1007.1 mb 0.00 in0.0 mm 0.00 in/hr0.0 mm/hr 0.00 in0.0 mm
02:16 AM 50.5°F10.3°C 50.5°F10.3°C 100% 12.1 mph NE19.5 kmh NE 17.4 mph28.0 kmh 29.74 in1007.1 mb 0.00 in0.0 mm 0.00 in/hr0.0 mm/hr 0.00 in0.0 mm
02:15 AM 50.5°F10.3°C 50.5°F10.3°C 100% 6.0 mph NE9.7 kmh NE 17.4 mph28.0 kmh 29.74 in1007.1 mb 0.00 in0.0 mm 0.00 in/hr0.0 mm/hr 0.00 in0.0 mm
02:14 AM 50.5°F10.3°C 50.5°F10.3°C 100% 8.3 mph NE13.4 kmh NE 17.4 mph28.0 kmh 29.74 in1007.1 mb 0.00 in0.0 mm 0.00 in/hr0.0 mm/hr 0.00 in0.0 mm
02:13 AM 50.5°F10.3°C 50.5°F10.3°C 100% 6.0 mph NE9.7 kmh NE 17.4 mph28.0 kmh 29.74 in1007.1 mb 0.00 in0.0 mm 0.00 in/hr0.0 mm/hr 0.00 in0.0 mm
02:12 AM 50.5°F10.3°C 50.5°F10.3°C 100% 4.5 mph NE7.2 kmh NE 17.4 mph28.0 kmh 29.74 in1007.1 mb 0.00 in0.0 mm 0.00 in/hr0.0 mm/hr 0.00 in0.0 mm
02:11 AM 50.5°F10.3°C 50.5°F10.3°C 100% 7.6 mph NE12.2 kmh NE 17.4 mph28.0 kmh 29.74 in1007.1 mb 0.00 in0.0 mm 0.00 in/hr0.0 mm/hr 0.00 in0.0 mm
02:10 AM 50.5°F10.3°C 50.5°F10.3°C 100% 9.2 mph NE14.8 kmh NE 17.4 mph28.0 kmh 29.74 in1007.1 mb 0.00 in0.0 mm 0.00 in/hr0.0 mm/hr 0.00 in0.0 mm
02:09 AM 50.5°F10.3°C 50.5°F10.3°C 100% 5.4 mph NE8.7 kmh NE 17.4 mph28.0 kmh 29.74 in1007.1 mb 0.00 in0.0 mm 0.00 in/hr0.0 mm/hr 0.00 in0.0 mm
02:08 AM 50.4°F10.2°C 50.4°F10.2°C 100% 13.0 mph NE20.9 kmh NE 17.4 mph28.0 kmh 29.74 in1007.1 mb 0.00 in0.0 mm 0.00 in/hr0.0 mm/hr 0.00 in0.0 mm
02:07 AM 50.4°F10.2°C 50.4°F10.2°C 100% 6.9 mph NE11.1 kmh NE 15.2 mph24.5 kmh 29.74 in1007.1 mb 0.00 in0.0 mm 0.00 in/hr0.0 mm/hr 0.00 in0.0 mm
02:06 AM 50.4°F10.2°C 50.4°F10.2°C 100% 7.6 mph NE12.2 kmh NE 15.2 mph24.5 kmh 29.73 in1006.8 mb 0.00 in0.0 mm 0.00 in/hr0.0 mm/hr 0.00 in0.0 mm
02:05 AM 50.4°F10.2°C 50.4°F10.2°C 100% 5.4 mph NE8.7 kmh NE 15.2 mph24.5 kmh 29.74 in1007.1 mb 0.00 in0.0 mm 0.00 in/hr0.0 mm/hr 0.00 in0.0 mm
02:04 AM 50.4°F10.2°C 50.4°F10.2°C 100% 8.3 mph NE13.4 kmh NE 15.2 mph24.5 kmh 29.74 in1007.1 mb 0.00 in0.0 mm 0.00 in/hr0.0 mm/hr 0.00 in0.0 mm
02:03 AM 50.4°F10.2°C 50.4°F10.2°C 100% 6.9 mph ENE11.1 kmh ENE 15.2 mph24.5 kmh 29.74 in1007.1 mb 0.00 in0.0 mm 0.00 in/hr0.0 mm/hr 0.00 in0.0 mm
02:02 AM 50.5°F10.3°C 50.5°F10.3°C 100% 4.5 mph NE7.2 kmh NE 15.2 mph24.5 kmh 29.74 in1007.1 mb 0.00 in0.0 mm 0.00 in/hr0.0 mm/hr 0.00 in0.0 mm
02:01 AM 50.4°F10.2°C 50.4°F10.2°C 100% 7.6 mph NE12.2 kmh NE 15.9 mph25.6 kmh 29.74 in1007.1 mb 0.00 in0.0 mm 0.00 in/hr0.0 mm/hr 0.00 in0.0 mm
02:00 AM 50.4°F10.2°C 50.4°F10.2°C 100% 9.2 mph NE14.8 kmh NE 15.9 mph25.6 kmh 29.74 in1007.1 mb 0.00 in0.0 mm 0.00 in/hr0.0 mm/hr 0.00 in0.0 mm
01:59 AM 50.4°F10.2°C 50.4°F10.2°C 100% 6.0 mph NE9.7 kmh NE 15.9 mph25.6 kmh 29.74 in1007.1 mb 0.00 in0.0 mm 0.00 in/hr0.0 mm/hr 0.00 in0.0 mm
01:58 AM 50.4°F10.2°C 50.4°F10.2°C 100% 7.6 mph NE12.2 kmh NE 17.4 mph28.0 kmh 29.74 in1007.1 mb 0.00 in0.0 mm 0.00 in/hr0.0 mm/hr 0.00 in0.0 mm
01:57 AM 50.4°F10.2°C 50.4°F10.2°C 100% 6.9 mph NE11.1 kmh NE 17.4 mph28.0 kmh 29.74 in1007.1 mb 0.00 in0.0 mm 0.00 in/hr0.0 mm/hr 0.00 in0.0 mm
01:56 AM 50.4°F10.2°C 50.4°F10.2°C 100% 9.2 mph NE14.8 kmh NE 17.4 mph28.0 kmh 29.74 in1007.1 mb 0.00 in0.0 mm 0.00 in/hr0.0 mm/hr 0.00 in0.0 mm
01:55 AM 50.4°F10.2°C 50.4°F10.2°C 100% 6.9 mph NE11.1 kmh NE 17.4 mph28.0 kmh 29.74 in1007.1 mb 0.00 in0.0 mm 0.00 in/hr0.0 mm/hr 0.00 in0.0 mm
01:54 AM 50.4°F10.2°C 50.4°F10.2°C 100% 6.0 mph NE9.7 kmh NE 17.4 mph28.0 kmh 29.74 in1007.1 mb 0.00 in0.0 mm 0.00 in/hr0.0 mm/hr 0.00 in0.0 mm
01:53 AM 50.4°F10.2°C 50.4°F10.2°C 100% 9.2 mph NE14.8 kmh NE 17.4 mph28.0 kmh 29.74 in1007.1 mb 0.00 in0.0 mm 0.00 in/hr0.0 mm/hr 0.00 in0.0 mm
01:52 AM 50.5°F10.3°C 50.5°F10.3°C 100% 9.2 mph NE14.8 kmh NE 17.4 mph28.0 kmh 29.75 in1007.5 mb 0.00 in0.0 mm 0.00 in/hr0.0 mm/hr 0.00 in0.0 mm
01:51 AM 50.4°F10.2°C 50.4°F10.2°C 100% 8.3 mph NE13.4 kmh NE 17.4 mph28.0 kmh 29.74 in1007.1 mb 0.00 in0.0 mm 0.00 in/hr0.0 mm/hr 0.00 in0.0 mm
01:50 AM 50.4°F10.2°C 50.4°F10.2°C 100% 6.9 mph NE11.1 kmh NE 17.4 mph28.0 kmh 29.75 in1007.5 mb 0.00 in0.0 mm 0.00 in/hr0.0 mm/hr 0.00 in0.0 mm
01:49 AM 50.5°F10.3°C 50.5°F10.3°C 100% 6.9 mph NE11.1 kmh NE 17.4 mph28.0 kmh 29.74 in1007.1 mb 0.00 in0.0 mm 0.00 in/hr0.0 mm/hr 0.00 in0.0 mm
01:48 AM 50.2°F10.1°C 50.2°F10.1°C 100% 9.8 mph NE15.8 kmh NE 15.2 mph24.5 kmh 29.75 in1007.5 mb 0.00 in0.0 mm 0.00 in/hr0.0 mm/hr 0.00 in0.0 mm
01:47 AM 50.0°F10.0°C 50.0°F10.0°C 100% 6.9 mph NE11.1 kmh NE 14.5 mph23.3 kmh 29.75 in1007.5 mb 0.00 in0.0 mm 0.00 in/hr0.0 mm/hr 0.00 in0.0 mm
01:46 AM 50.0°F10.0°C 50.0°F10.0°C 100% 6.0 mph NE9.7 kmh NE 14.5 mph23.3 kmh 29.74 in1007.1 mb 0.00 in0.0 mm 0.00 in/hr0.0 mm/hr 0.00 in0.0 mm
01:45 AM 50.2°F10.1°C 50.2°F10.1°C 100% 6.9 mph NE11.1 kmh NE 19.0 mph30.6 kmh 29.75 in1007.5 mb 0.00 in0.0 mm 0.00 in/hr0.0 mm/hr 0.00 in0.0 mm
01:44 AM 50.0°F10.0°C 50.0°F10.0°C 100% 6.0 mph NE9.7 kmh NE 19.0 mph30.6 kmh 29.75 in1007.5 mb 0.00 in0.0 mm 0.00 in/hr0.0 mm/hr 0.00 in0.0 mm
01:43 AM 50.2°F10.1°C 50.2°F10.1°C 100% 5.4 mph NE8.7 kmh NE 19.0 mph30.6 kmh 29.74 in1007.1 mb 0.00 in0.0 mm 0.00 in/hr0.0 mm/hr 0.00 in0.0 mm
01:42 AM 50.0°F10.0°C 50.0°F10.0°C 100% 9.2 mph NE14.8 kmh NE 19.0 mph30.6 kmh 29.74 in1007.1 mb 0.00 in0.0 mm 0.00 in/hr0.0 mm/hr 0.00 in0.0 mm
01:41 AM 50.0°F10.0°C 50.0°F10.0°C 100% 7.6 mph NE12.2 kmh NE 19.0 mph30.6 kmh 29.74 in1007.1 mb 0.00 in0.0 mm 0.00 in/hr0.0 mm/hr 0.00 in0.0 mm
01:40 AM 50.0°F10.0°C 50.0°F10.0°C 100% 12.1 mph NE19.5 kmh NE 19.0 mph30.6 kmh 29.74 in1007.1 mb 0.00 in0.0 mm 0.00 in/hr0.0 mm/hr 0.00 in0.0 mm
01:39 AM 50.0°F10.0°C 50.0°F10.0°C 100% 6.0 mph NE9.7 kmh NE 19.0 mph30.6 kmh 29.74 in1007.1 mb 0.00 in0.0 mm 0.00 in/hr0.0 mm/hr 0.00 in0.0 mm
01:38 AM 50.0°F10.0°C 50.0°F10.0°C 100% 6.9 mph NE11.1 kmh NE 19.0 mph30.6 kmh 29.74 in1007.1 mb 0.00 in0.0 mm 0.00 in/hr0.0 mm/hr 0.00 in0.0 mm
01:37 AM 50.2°F10.1°C 50.2°F10.1°C 100% 6.9 mph NE11.1 kmh NE 19.0 mph30.6 kmh 29.75 in1007.5 mb 0.00 in0.0 mm 0.00 in/hr0.0 mm/hr 0.00 in0.0 mm
01:36 AM 50.0°F10.0°C 50.0°F10.0°C 100% 13.0 mph NE20.9 kmh NE 20.6 mph33.2 kmh 29.74 in1007.1 mb 0.00 in0.0 mm 0.00 in/hr0.0 mm/hr 0.00 in0.0 mm
01:35 AM 50.0°F10.0°C 50.0°F10.0°C 100% 8.3 mph NE13.4 kmh NE 20.6 mph33.2 kmh 29.74 in1007.1 mb 0.00 in0.0 mm 0.00 in/hr0.0 mm/hr 0.00 in0.0 mm
01:34 AM 50.2°F10.1°C 50.2°F10.1°C 100% 6.0 mph NE9.7 kmh NE 20.6 mph33.2 kmh 29.74 in1007.1 mb 0.00 in0.0 mm 0.00 in/hr0.0 mm/hr 0.00 in0.0 mm
01:33 AM 50.2°F10.1°C 50.2°F10.1°C 100% 6.0 mph ENE9.7 kmh ENE 20.6 mph33.2 kmh 29.75 in1007.5 mb 0.00 in0.0 mm 0.00 in/hr0.0 mm/hr 0.00 in0.0 mm
01:32 AM 50.4°F10.2°C 50.4°F10.2°C 100% 6.0 mph ENE9.7 kmh ENE 20.6 mph33.2 kmh 29.75 in1007.5 mb 0.00 in0.0 mm 0.00 in/hr0.0 mm/hr 0.00 in0.0 mm
01:31 AM 50.4°F10.2°C 50.4°F10.2°C 100% 9.8 mph ENE15.8 kmh ENE 20.6 mph33.2 kmh 29.75 in1007.5 mb 0.00 in0.0 mm 0.00 in/hr0.0 mm/hr 0.00 in0.0 mm
01:30 AM 50.4°F10.2°C 50.4°F10.2°C 100% 13.6 mph NE21.9 kmh NE 21.3 mph34.3 kmh 29.75 in1007.5 mb 0.00 in0.0 mm 0.00 in/hr0.0 mm/hr 0.00 in0.0 mm
01:29 AM 50.4°F10.2°C 50.4°F10.2°C 100% 9.2 mph NE14.8 kmh NE 21.3 mph34.3 kmh 29.75 in1007.5 mb 0.00 in0.0 mm 0.00 in/hr0.0 mm/hr 0.00 in0.0 mm
01:28 AM 50.5°F10.3°C 50.5°F10.3°C 100% 8.3 mph NE13.4 kmh NE 21.3 mph34.3 kmh 29.75 in1007.5 mb 0.00 in0.0 mm 0.00 in/hr0.0 mm/hr 0.00 in0.0 mm
01:27 AM 50.5°F10.3°C 50.5°F10.3°C 100% 7.6 mph NE12.2 kmh NE 21.3 mph34.3 kmh 29.75 in1007.5 mb 0.00 in0.0 mm 0.00 in/hr0.0 mm/hr 0.00 in0.0 mm
01:26 AM 50.5°F10.3°C 50.5°F10.3°C 100% 13.0 mph NE20.9 kmh NE 21.3 mph34.3 kmh 29.75 in1007.5 mb 0.00 in0.0 mm 0.00 in/hr0.0 mm/hr 0.00 in0.0 mm
01:25 AM 50.5°F10.3°C 50.5°F10.3°C 100% 10.7 mph ENE17.2 kmh ENE 22.8 mph36.7 kmh 29.75 in1007.5 mb 0.00 in0.0 mm 0.00 in/hr0.0 mm/hr 0.00 in0.0 mm
01:24 AM 50.7°F10.4°C 50.7°F10.4°C 100% 8.3 mph ENE13.4 kmh ENE 25.1 mph40.4 kmh 29.75 in1007.5 mb 0.00 in0.0 mm 0.00 in/hr0.0 mm/hr 0.00 in0.0 mm
01:23 AM 50.7°F10.4°C 50.7°F10.4°C 100% 9.8 mph ENE15.8 kmh ENE 25.1 mph40.4 kmh 29.75 in1007.5 mb 0.00 in0.0 mm 0.00 in/hr0.0 mm/hr 0.00 in0.0 mm
01:22 AM 50.9°F10.5°C 50.9°F10.5°C 100% 9.8 mph ENE15.8 kmh ENE 25.1 mph40.4 kmh 29.75 in1007.5 mb 0.00 in0.0 mm 0.00 in/hr0.0 mm/hr 0.00 in0.0 mm
01:21 AM 50.7°F10.4°C 50.7°F10.4°C 100% 12.1 mph ENE19.5 kmh ENE 25.1 mph40.4 kmh 29.75 in1007.5 mb 0.00 in0.0 mm 0.00 in/hr0.0 mm/hr 0.00 in0.0 mm
01:20 AM 50.9°F10.5°C 50.9°F10.5°C 100% 7.6 mph E12.2 kmh E 25.1 mph40.4 kmh 29.75 in1007.5 mb 0.00 in0.0 mm 0.00 in/hr0.0 mm/hr 0.00 in0.0 mm
01:19 AM 50.9°F10.5°C 50.4°F10.2°C 98% 6.9 mph E11.1 kmh E 25.1 mph40.4 kmh 29.76 in1007.8 mb 0.00 in0.0 mm 0.00 in/hr0.0 mm/hr 0.00 in0.0 mm
01:18 AM 50.9°F10.5°C 50.4°F10.2°C 98% 6.0 mph E9.7 kmh E 25.1 mph40.4 kmh 29.75 in1007.5 mb 0.00 in0.0 mm 0.00 in/hr0.0 mm/hr 0.00 in0.0 mm
01:17 AM 51.1°F10.6°C 50.3°F10.2°C 97% 12.1 mph E19.5 kmh E 25.1 mph40.4 kmh 29.75 in1007.5 mb 0.00 in0.0 mm 0.00 in/hr0.0 mm/hr 0.00 in0.0 mm
01:16 AM 51.3°F10.7°C 50.2°F10.1°C 96% 15.9 mph E25.6 kmh E 25.1 mph40.4 kmh 29.75 in1007.5 mb 0.00 in0.0 mm 0.00 in/hr0.0 mm/hr 0.00 in0.0 mm
01:15 AM 51.4°F10.8°C 50.3°F10.2°C 96% 9.8 mph E15.8 kmh E 25.1 mph40.4 kmh 29.75 in1007.5 mb 0.00 in0.0 mm 0.00 in/hr0.0 mm/hr 0.00 in0.0 mm
01:14 AM 51.3°F10.7°C 50.2°F10.1°C 96% 14.5 mph E23.3 kmh E 25.1 mph40.4 kmh 29.75 in1007.5 mb 0.00 in0.0 mm 0.00 in/hr0.0 mm/hr 0.00 in0.0 mm
01:13 AM 51.4°F10.8°C 50.3°F10.2°C 96% 10.7 mph ENE17.2 kmh ENE 19.7 mph31.7 kmh 29.75 in1007.5 mb 0.00 in0.0 mm 0.00 in/hr0.0 mm/hr 0.00 in0.0 mm
01:12 AM 51.4°F10.8°C 50.3°F10.2°C 96% 9.8 mph ENE15.8 kmh ENE 19.7 mph31.7 kmh 29.75 in1007.5 mb 0.00 in0.0 mm 0.00 in/hr0.0 mm/hr 0.00 in0.0 mm
01:11 AM 51.4°F10.8°C 50.3°F10.2°C 96% 10.7 mph ENE17.2 kmh ENE 19.7 mph31.7 kmh 29.75 in1007.5 mb 0.00 in0.0 mm 0.00 in/hr0.0 mm/hr 0.00 in0.0 mm
01:10 AM 51.4°F10.8°C 50.3°F10.2°C 96% 6.9 mph NE11.1 kmh NE 18.3 mph29.5 kmh 29.75 in1007.5 mb 0.00 in0.0 mm 0.00 in/hr0.0 mm/hr 0.00 in0.0 mm
01:09 AM 51.4°F10.8°C 50.3°F10.2°C 96% 6.9 mph NE11.1 kmh NE 18.3 mph29.5 kmh 29.76 in1007.8 mb 0.00 in0.0 mm 0.00 in/hr0.0 mm/hr 0.00 in0.0 mm
01:08 AM 51.4°F10.8°C 50.3°F10.2°C 96% 9.2 mph NE14.8 kmh NE 18.3 mph29.5 kmh 29.76 in1007.8 mb 0.00 in0.0 mm 0.00 in/hr0.0 mm/hr 0.00 in0.0 mm
01:07 AM 51.4°F10.8°C 50.3°F10.2°C 96% 9.2 mph NE14.8 kmh NE 18.3 mph29.5 kmh 29.76 in1007.8 mb 0.00 in0.0 mm 0.00 in/hr0.0 mm/hr 0.00 in0.0 mm
01:06 AM 51.4°F10.8°C 50.3°F10.2°C 96% 6.9 mph NE11.1 kmh NE 19.7 mph31.7 kmh 29.76 in1007.8 mb 0.00 in0.0 mm 0.00 in/hr0.0 mm/hr 0.00 in0.0 mm
01:05 AM 51.4°F10.8°C 50.3°F10.2°C 96% 8.3 mph ENE13.4 kmh ENE 19.7 mph31.7 kmh 29.76 in1007.8 mb 0.00 in0.0 mm 0.00 in/hr0.0 mm/hr 0.00 in0.0 mm
01:04 AM 51.4°F10.8°C 50.3°F10.2°C 96% 10.7 mph ENE17.2 kmh ENE 19.7 mph31.7 kmh 29.76 in1007.8 mb 0.00 in0.0 mm 0.00 in/hr0.0 mm/hr 0.00 in0.0 mm
01:03 AM 51.4°F10.8°C 50.3°F10.2°C 96% 10.7 mph ENE17.2 kmh ENE 19.7 mph31.7 kmh 29.76 in1007.8 mb 0.00 in0.0 mm 0.00 in/hr0.0 mm/hr 0.00 in0.0 mm
01:02 AM 51.4°F10.8°C 50.3°F10.2°C 96% 9.2 mph ENE14.8 kmh ENE 21.3 mph34.3 kmh 29.76 in1007.8 mb 0.00 in0.0 mm 0.00 in/hr0.0 mm/hr 0.00 in0.0 mm
01:01 AM 51.4°F10.8°C 50.3°F10.2°C 96% 13.6 mph ENE21.9 kmh ENE 21.3 mph34.3 kmh 29.76 in1007.8 mb 0.00 in0.0 mm 0.00 in/hr0.0 mm/hr 0.00 in0.0 mm
01:00 AM 51.4°F10.8°C 50.3°F10.2°C 96% 9.8 mph E15.8 kmh E 21.3 mph34.3 kmh 29.76 in1007.8 mb 0.00 in0.0 mm 0.00 in/hr0.0 mm/hr 0.00 in0.0 mm
12:59 AM 51.4°F10.8°C 50.3°F10.2°C 96% 8.3 mph ENE13.4 kmh ENE 21.3 mph34.3 kmh 29.76 in1007.8 mb 0.00 in0.0 mm 0.00 in/hr0.0 mm/hr 0.00 in0.0 mm
12:58 AM 51.4°F10.8°C 50.3°F10.2°C 96% 7.6 mph ENE12.2 kmh ENE 21.3 mph34.3 kmh 29.76 in1007.8 mb 0.00 in0.0 mm 0.00 in/hr0.0 mm/hr 0.00 in0.0 mm
12:57 AM 51.4°F10.8°C 50.3°F10.2°C 96% 11.4 mph ENE18.3 kmh ENE 21.3 mph34.3 kmh 29.76 in1007.8 mb 0.00 in0.0 mm 0.00 in/hr0.0 mm/hr 0.00 in0.0 mm
12:56 AM 51.4°F10.8°C 50.3°F10.2°C 96% 9.8 mph ENE15.8 kmh ENE 23.5 mph37.8 kmh 29.75 in1007.5 mb 0.00 in0.0 mm 0.00 in/hr0.0 mm/hr 0.00 in0.0 mm
12:55 AM 51.4°F10.8°C 50.3°F10.2°C 96% 9.2 mph ENE14.8 kmh ENE 23.5 mph37.8 kmh 29.75 in1007.5 mb 0.00 in0.0 mm 0.00 in/hr0.0 mm/hr 0.00 in0.0 mm
12:54 AM 51.4°F10.8°C 50.3°F10.2°C 96% 13.0 mph ENE20.9 kmh ENE 23.5 mph37.8 kmh 29.76 in1007.8 mb 0.00 in0.0 mm 0.00 in/hr0.0 mm/hr 0.00 in0.0 mm
12:53 AM 51.4°F10.8°C 50.3°F10.2°C 96% 13.6 mph NE21.9 kmh NE 23.5 mph37.8 kmh 29.75 in1007.5 mb 0.00 in0.0 mm 0.00 in/hr0.0 mm/hr 0.00 in0.0 mm
12:52 AM 51.4°F10.8°C 50.6°F10.3°C 97% 13.0 mph NE20.9 kmh NE 23.5 mph37.8 kmh 29.75 in1007.5 mb 0.00 in0.0 mm 0.00 in/hr0.0 mm/hr 0.00 in0.0 mm
12:51 AM 51.4°F10.8°C 50.3°F10.2°C 96% 7.6 mph NE12.2 kmh NE 23.5 mph37.8 kmh 29.75 in1007.5 mb 0.00 in0.0 mm 0.00 in/hr0.0 mm/hr 0.00 in0.0 mm
12:50 AM 51.4°F10.8°C 50.6°F10.3°C 97% 12.1 mph NE19.5 kmh NE 23.5 mph37.8 kmh 29.75 in1007.5 mb 0.00 in0.0 mm 0.00 in/hr0.0 mm/hr 0.00 in0.0 mm
12:49 AM 51.4°F10.8°C 50.6°F10.3°C 97% 10.7 mph ENE17.2 kmh ENE 23.5 mph37.8 kmh 29.76 in1007.8 mb 0.00 in0.0 mm 0.00 in/hr0.0 mm/hr 0.00 in0.0 mm
12:48 AM 51.4°F10.8°C 50.6°F10.3°C 97% 12.1 mph ENE19.5 kmh ENE 23.5 mph37.8 kmh 29.76 in1007.8 mb 0.00 in0.0 mm 0.00 in/hr0.0 mm/hr 0.00 in0.0 mm
12:47 AM 51.4°F10.8°C 50.6°F10.3°C 97% 15.2 mph ENE24.5 kmh ENE 23.5 mph37.8 kmh 29.76 in1007.8 mb 0.00 in0.0 mm 0.00 in/hr0.0 mm/hr 0.00 in0.0 mm
12:46 AM 51.4°F10.8°C 50.3°F10.2°C 96% 11.4 mph ENE18.3 kmh ENE 23.5 mph37.8 kmh 29.76 in1007.8 mb 0.00 in0.0 mm 0.00 in/hr0.0 mm/hr 0.00 in0.0 mm
12:45 AM 51.4°F10.8°C 50.3°F10.2°C 96% 9.2 mph ENE14.8 kmh ENE 22.1 mph35.6 kmh 29.76 in1007.8 mb 0.00 in0.0 mm 0.00 in/hr0.0 mm/hr 0.00 in0.0 mm
12:44 AM 51.4°F10.8°C 50.3°F10.2°C 96% 9.2 mph ENE14.8 kmh ENE 22.1 mph35.6 kmh 29.76 in1007.8 mb 0.00 in0.0 mm 0.00 in/hr0.0 mm/hr 0.00 in0.0 mm
12:43 AM 51.4°F10.8°C 50.3°F10.2°C 96% 8.3 mph ENE13.4 kmh ENE 22.1 mph35.6 kmh 29.76 in1007.8 mb 0.00 in0.0 mm 0.00 in/hr0.0 mm/hr 0.00 in0.0 mm
12:42 AM 51.4°F10.8°C 50.3°F10.2°C 96% 11.4 mph NE18.3 kmh NE 22.1 mph35.6 kmh 29.76 in1007.8 mb 0.00 in0.0 mm 0.00 in/hr0.0 mm/hr 0.00 in0.0 mm
12:41 AM 51.6°F10.9°C 50.2°F10.1°C 95% 12.1 mph NE19.5 kmh NE 22.1 mph35.6 kmh 29.76 in1007.8 mb 0.00 in0.0 mm 0.00 in/hr0.0 mm/hr 0.00 in0.0 mm
12:40 AM 51.6°F10.9°C 50.2°F10.1°C 95% 12.1 mph NE19.5 kmh NE 22.1 mph35.6 kmh 29.76 in1007.8 mb 0.00 in0.0 mm 0.00 in/hr0.0 mm/hr 0.00 in0.0 mm
12:39 AM 51.6°F10.9°C 50.2°F10.1°C 95% 10.7 mph NE17.2 kmh NE 22.1 mph35.6 kmh 29.76 in1007.8 mb 0.00 in0.0 mm 0.00 in/hr0.0 mm/hr 0.00 in0.0 mm
12:38 AM 51.8°F11.0°C 49.8°F9.9°C 93% 12.1 mph NE19.5 kmh NE 22.1 mph35.6 kmh 29.76 in1007.8 mb 0.00 in0.0 mm 0.00 in/hr0.0 mm/hr 0.00 in0.0 mm
12:37 AM 51.6°F10.9°C 50.2°F10.1°C 95% 12.1 mph NE19.5 kmh NE 22.1 mph35.6 kmh 29.76 in1007.8 mb 0.00 in0.0 mm 0.00 in/hr0.0 mm/hr 0.00 in0.0 mm
12:36 AM 51.6°F10.9°C 50.2°F10.1°C 95% 11.4 mph NE18.3 kmh NE 22.1 mph35.6 kmh 29.76 in1007.8 mb 0.00 in0.0 mm 0.00 in/hr0.0 mm/hr 0.00 in0.0 mm
12:35 AM 51.8°F11.0°C 49.8°F9.9°C 93% 9.2 mph NE14.8 kmh NE 22.1 mph35.6 kmh 29.76 in1007.8 mb 0.00 in0.0 mm 0.00 in/hr0.0 mm/hr 0.00 in0.0 mm
12:34 AM 51.8°F11.0°C 49.8°F9.9°C 93% 15.9 mph ENE25.6 kmh ENE 22.1 mph35.6 kmh 29.76 in1007.8 mb 0.00 in0.0 mm 0.00 in/hr0.0 mm/hr 0.00 in0.0 mm
12:33 AM 51.8°F11.0°C 49.8°F9.9°C 93% 15.2 mph NE24.5 kmh NE 22.1 mph35.6 kmh 29.76 in1007.8 mb 0.00 in0.0 mm 0.00 in/hr0.0 mm/hr 0.00 in0.0 mm
12:32 AM 51.6°F10.9°C 50.2°F10.1°C 95% 12.1 mph ENE19.5 kmh ENE 19.7 mph31.7 kmh 29.76 in1007.8 mb 0.00 in0.0 mm 0.00 in/hr0.0 mm/hr 0.00 in0.0 mm
12:31 AM 51.6°F10.9°C 50.2°F10.1°C 95% 11.4 mph ENE18.3 kmh ENE 19.7 mph31.7 kmh 29.76 in1007.8 mb 0.00 in0.0 mm 0.00 in/hr0.0 mm/hr 0.00 in0.0 mm
12:30 AM 51.8°F11.0°C 49.8°F9.9°C 93% 7.6 mph ENE12.2 kmh ENE 19.7 mph31.7 kmh 29.77 in1008.1 mb 0.00 in0.0 mm 0.00 in/hr0.0 mm/hr 0.00 in0.0 mm
12:29 AM 51.8°F11.0°C 49.8°F9.9°C 93% 13.0 mph E20.9 kmh E 19.7 mph31.7 kmh 29.76 in1007.8 mb 0.00 in0.0 mm 0.00 in/hr0.0 mm/hr 0.00 in0.0 mm
12:28 AM 51.6°F10.9°C 50.2°F10.1°C 95% 9.8 mph E15.8 kmh E 19.7 mph31.7 kmh 29.76 in1007.8 mb 0.00 in0.0 mm 0.00 in/hr0.0 mm/hr 0.00 in0.0 mm
12:27 AM 51.8°F11.0°C 49.8°F9.9°C 93% 10.7 mph E17.2 kmh E 19.7 mph31.7 kmh 29.76 in1007.8 mb 0.00 in0.0 mm 0.00 in/hr0.0 mm/hr 0.00 in0.0 mm
12:26 AM 51.6°F10.9°C 50.2°F10.1°C 95% 13.0 mph ESE20.9 kmh ESE 19.7 mph31.7 kmh 29.76 in1007.8 mb 0.00 in0.0 mm 0.00 in/hr0.0 mm/hr 0.00 in0.0 mm
12:25 AM 51.6°F10.9°C 50.2°F10.1°C 95% 11.4 mph SE18.3 kmh SE 18.3 mph29.5 kmh 29.76 in1007.8 mb 0.00 in0.0 mm 0.00 in/hr0.0 mm/hr 0.00 in0.0 mm
12:24 AM 51.6°F10.9°C 50.2°F10.1°C 95% 9.8 mph SE15.8 kmh SE 18.3 mph29.5 kmh 29.76 in1007.8 mb 0.00 in0.0 mm 0.00 in/hr0.0 mm/hr 0.00 in0.0 mm
12:23 AM 51.6°F10.9°C 50.2°F10.1°C 95% 6.9 mph SE11.1 kmh SE 25.1 mph40.4 kmh 29.77 in1008.1 mb 0.00 in0.0 mm 0.00 in/hr0.0 mm/hr 0.00 in0.0 mm
12:22 AM 51.8°F11.0°C 49.8°F9.9°C 93% 9.8 mph SE15.8 kmh SE 25.1 mph40.4 kmh 29.76 in1007.8 mb 0.00 in0.0 mm 0.00 in/hr0.0 mm/hr 0.00 in0.0 mm
12:21 AM 51.8°F11.0°C 49.8°F9.9°C 93% 9.2 mph SE14.8 kmh SE 25.1 mph40.4 kmh 29.77 in1008.1 mb 0.00 in0.0 mm 0.00 in/hr0.0 mm/hr 0.00 in0.0 mm
12:20 AM 51.8°F11.0°C 49.8°F9.9°C 93% 9.2 mph ESE14.8 kmh ESE 25.1 mph40.4 kmh 29.76 in1007.8 mb 0.00 in0.0 mm 0.00 in/hr0.0 mm/hr 0.00 in0.0 mm
12:19 AM 51.8°F11.0°C 49.8°F9.9°C 93% 9.2 mph E14.8 kmh E 25.1 mph40.4 kmh 29.77 in1008.1 mb 0.00 in0.0 mm 0.00 in/hr0.0 mm/hr 0.00 in0.0 mm
12:18 AM 51.8°F11.0°C 49.8°F9.9°C 93% 9.2 mph E14.8 kmh E 25.1 mph40.4 kmh 29.76 in1007.8 mb 0.00 in0.0 mm 0.00 in/hr0.0 mm/hr 0.00 in0.0 mm
12:17 AM 51.8°F11.0°C 49.8°F9.9°C 93% 9.2 mph ENE14.8 kmh ENE 25.1 mph40.4 kmh 29.77 in1008.1 mb 0.00 in0.0 mm 0.00 in/hr0.0 mm/hr 0.00 in0.0 mm
12:16 AM 51.8°F11.0°C 49.8°F9.9°C 93% 9.2 mph ENE14.8 kmh ENE 25.1 mph40.4 kmh 29.77 in1008.1 mb 0.00 in0.0 mm 0.00 in/hr0.0 mm/hr 0.00 in0.0 mm
12:15 AM 51.8°F11.0°C 49.8°F9.9°C 93% 10.7 mph NE17.2 kmh NE 25.1 mph40.4 kmh 29.77 in1008.1 mb 0.00 in0.0 mm 0.00 in/hr0.0 mm/hr 0.00 in0.0 mm
12:14 AM 51.8°F11.0°C 49.8°F9.9°C 93% 11.4 mph NE18.3 kmh NE 25.1 mph40.4 kmh 29.77 in1008.1 mb 0.00 in0.0 mm 0.00 in/hr0.0 mm/hr 0.00 in0.0 mm
12:13 AM 51.6°F10.9°C 50.2°F10.1°C 95% 14.5 mph ENE23.3 kmh ENE 21.3 mph34.3 kmh 29.77 in1008.1 mb 0.00 in0.0 mm 0.00 in/hr0.0 mm/hr 0.00 in0.0 mm
12:12 AM 51.8°F11.0°C 49.8°F9.9°C 93% 9.8 mph ENE15.8 kmh ENE 21.3 mph34.3 kmh 29.77 in1008.1 mb 0.00 in0.0 mm 0.00 in/hr0.0 mm/hr 0.00 in0.0 mm
12:11 AM 51.8°F11.0°C 49.8°F9.9°C 93% 11.4 mph ENE18.3 kmh ENE 21.3 mph34.3 kmh 29.77 in1008.1 mb 0.00 in0.0 mm 0.00 in/hr0.0 mm/hr 0.00 in0.0 mm
12:10 AM 51.8°F11.0°C 49.8°F9.9°C 93% 9.2 mph ENE14.8 kmh ENE 21.3 mph34.3 kmh 29.77 in1008.1 mb 0.00 in0.0 mm 0.00 in/hr0.0 mm/hr 0.00 in0.0 mm
12:09 AM 51.8°F11.0°C 49.8°F9.9°C 93% 13.0 mph ENE20.9 kmh ENE 21.3 mph34.3 kmh 29.77 in1008.1 mb 0.00 in0.0 mm 0.00 in/hr0.0 mm/hr 0.00 in0.0 mm
12:08 AM 51.8°F11.0°C 49.8°F9.9°C 93% 15.2 mph ENE24.5 kmh ENE 21.3 mph34.3 kmh 29.77 in1008.1 mb 0.00 in0.0 mm 0.00 in/hr0.0 mm/hr 0.00 in0.0 mm
12:07 AM 51.8°F11.0°C 49.8°F9.9°C 93% 10.7 mph ENE17.2 kmh ENE 19.7 mph31.7 kmh 29.77 in1008.1 mb 0.00 in0.0 mm 0.00 in/hr0.0 mm/hr 0.00 in0.0 mm
12:06 AM 51.8°F11.0°C 49.8°F9.9°C 93% 13.0 mph ENE20.9 kmh ENE 19.7 mph31.7 kmh 29.77 in1008.1 mb 0.00 in0.0 mm 0.00 in/hr0.0 mm/hr 0.00 in0.0 mm
12:05 AM 51.8°F11.0°C 49.8°F9.9°C 93% 10.7 mph ENE17.2 kmh ENE 20.6 mph33.2 kmh 29.77 in1008.1 mb 0.00 in0.0 mm 0.00 in/hr0.0 mm/hr 0.00 in0.0 mm
12:04 AM 51.8°F11.0°C 49.8°F9.9°C 93% 13.6 mph ENE21.9 kmh ENE 22.1 mph35.6 kmh 29.77 in1008.1 mb 0.00 in0.0 mm 0.00 in/hr0.0 mm/hr 0.00 in0.0 mm
12:03 AM 51.8°F11.0°C 49.8°F9.9°C 93% 10.7 mph ENE17.2 kmh ENE 22.1 mph35.6 kmh 29.77 in1008.1 mb 0.00 in0.0 mm 0.00 in/hr0.0 mm/hr 0.00 in0.0 mm
12:02 AM 51.8°F11.0°C 49.8°F9.9°C 93% 11.4 mph ENE18.3 kmh ENE 22.1 mph35.6 kmh 29.77 in1008.1 mb 0.00 in0.0 mm 0.00 in/hr0.0 mm/hr 0.00 in0.0 mm
12:01 AM 51.8°F11.0°C 49.8°F9.9°C 93% 13.0 mph ENE20.9 kmh ENE 22.1 mph35.6 kmh 29.77 in1008.1 mb 0.00 in0.0 mm 0.00 in/hr0.0 mm/hr 0.00 in0.0 mm
12:00 AM 51.8°F11.0°C 49.8°F9.9°C 93% 11.4 mph ENE18.3 kmh ENE 22.1 mph35.6 kmh 29.77 in1008.1 mb 0.00 in0.0 mm 0.00 in/hr0.0 mm/hr 0.12 in3.0 mm